<?xml version="1.0" encoding="UTF-8" standalone="no" ?>
<gpx xmlns="http://www.topografix.com/GPX/1/1" xmlns:xsi="http://www.w3.org/2001/XMLSchema-instance" xsi:schemaLocation="http://www.topografix.com/GPX/1/1 http://www.topografix.com/GPX/1/1/gpx.xsd" version="1.1" creator="VisuGPX - https://www.visugpx.com">
  <metadata>
    <name>randonnée godillot 2019 </name>
    <desc><![CDATA[parcours très facile
]]></desc>
  </metadata>
  <trk>
    <name><![CDATA[2019-05-08 11:50:45]]></name>
    <trkseg>
      <trkpt lat="46.4058" lon="5.79608">
        <ele>603.05</ele>
        <time>2019-05-08T06:11:23Z</time>
      </trkpt>
      <trkpt lat="46.4058" lon="5.79609">
        <ele>603.05</ele>
        <time>2019-05-08T06:11:24Z</time>
      </trkpt>
      <trkpt lat="46.4058" lon="5.79609">
        <ele>594.17</ele>
        <time>2019-05-08T06:11:27Z</time>
      </trkpt>
      <trkpt lat="46.4058" lon="5.79609">
        <ele>594.17</ele>
        <time>2019-05-08T06:11:28Z</time>
      </trkpt>
      <trkpt lat="46.40576" lon="5.79615">
        <ele>594.15</ele>
        <time>2019-05-08T06:11:35Z</time>
      </trkpt>
      <trkpt lat="46.40564" lon="5.79635">
        <ele>594.21</ele>
        <time>2019-05-08T06:11:50Z</time>
      </trkpt>
      <trkpt lat="46.40565" lon="5.79642">
        <ele>594.27</ele>
        <time>2019-05-08T06:11:54Z</time>
      </trkpt>
      <trkpt lat="46.40566" lon="5.79647">
        <ele>594.28</ele>
        <time>2019-05-08T06:11:58Z</time>
      </trkpt>
      <trkpt lat="46.40558" lon="5.79659">
        <ele>594.25</ele>
        <time>2019-05-08T06:12:08Z</time>
      </trkpt>
      <trkpt lat="46.40546" lon="5.79635">
        <ele>594.3</ele>
        <time>2019-05-08T06:12:23Z</time>
      </trkpt>
      <trkpt lat="46.40543" lon="5.7962">
        <ele>595.15</ele>
        <time>2019-05-08T06:12:31Z</time>
      </trkpt>
      <trkpt lat="46.40537" lon="5.79595">
        <ele>595.23</ele>
        <time>2019-05-08T06:12:46Z</time>
      </trkpt>
      <trkpt lat="46.40531" lon="5.79565">
        <ele>596.05</ele>
        <time>2019-05-08T06:13:00Z</time>
      </trkpt>
      <trkpt lat="46.40526" lon="5.79555">
        <ele>596.06</ele>
        <time>2019-05-08T06:13:07Z</time>
      </trkpt>
      <trkpt lat="46.40504" lon="5.79535">
        <ele>596.01</ele>
        <time>2019-05-08T06:13:23Z</time>
      </trkpt>
      <trkpt lat="46.40479" lon="5.79525">
        <ele>595.94</ele>
        <time>2019-05-08T06:13:39Z</time>
      </trkpt>
      <trkpt lat="46.40456" lon="5.79521">
        <ele>595.88</ele>
        <time>2019-05-08T06:13:53Z</time>
      </trkpt>
      <trkpt lat="46.40437" lon="5.79512">
        <ele>596.61</ele>
        <time>2019-05-08T06:14:06Z</time>
      </trkpt>
      <trkpt lat="46.40422" lon="5.79501">
        <ele>594.85</ele>
        <time>2019-05-08T06:14:16Z</time>
      </trkpt>
      <trkpt lat="46.4042" lon="5.795">
        <ele>600.23</ele>
        <time>2019-05-08T06:14:18Z</time>
      </trkpt>
      <trkpt lat="46.40418" lon="5.79498">
        <ele>600.23</ele>
        <time>2019-05-08T06:14:19Z</time>
      </trkpt>
      <trkpt lat="46.404" lon="5.79483">
        <ele>600.2</ele>
        <time>2019-05-08T06:14:32Z</time>
      </trkpt>
      <trkpt lat="46.40392" lon="5.79477">
        <ele>600.19</ele>
        <time>2019-05-08T06:14:38Z</time>
      </trkpt>
      <trkpt lat="46.40389" lon="5.79477">
        <ele>600.13</ele>
        <time>2019-05-08T06:14:41Z</time>
      </trkpt>
      <trkpt lat="46.40381" lon="5.79474">
        <ele>600.15</ele>
        <time>2019-05-08T06:14:48Z</time>
      </trkpt>
      <trkpt lat="46.40377" lon="5.79474">
        <ele>600.12</ele>
        <time>2019-05-08T06:14:51Z</time>
      </trkpt>
      <trkpt lat="46.40355" lon="5.79467">
        <ele>599.91</ele>
        <time>2019-05-08T06:15:07Z</time>
      </trkpt>
      <trkpt lat="46.40328" lon="5.7946">
        <ele>599.81</ele>
        <time>2019-05-08T06:15:22Z</time>
      </trkpt>
      <trkpt lat="46.40309" lon="5.79441">
        <ele>600.58</ele>
        <time>2019-05-08T06:15:38Z</time>
      </trkpt>
      <trkpt lat="46.40294" lon="5.79424">
        <ele>600.5</ele>
        <time>2019-05-08T06:15:51Z</time>
      </trkpt>
      <trkpt lat="46.40275" lon="5.79403">
        <ele>600.36</ele>
        <time>2019-05-08T06:16:05Z</time>
      </trkpt>
      <trkpt lat="46.40268" lon="5.79401">
        <ele>600.33</ele>
        <time>2019-05-08T06:16:10Z</time>
      </trkpt>
      <trkpt lat="46.4025" lon="5.79405">
        <ele>597.83</ele>
        <time>2019-05-08T06:16:23Z</time>
      </trkpt>
      <trkpt lat="46.40239" lon="5.79405">
        <ele>594.79</ele>
        <time>2019-05-08T06:16:31Z</time>
      </trkpt>
      <trkpt lat="46.40235" lon="5.79401">
        <ele>593.96</ele>
        <time>2019-05-08T06:16:35Z</time>
      </trkpt>
      <trkpt lat="46.4023" lon="5.79364">
        <ele>591.54</ele>
        <time>2019-05-08T06:16:50Z</time>
      </trkpt>
      <trkpt lat="46.40229" lon="5.79347">
        <ele>590.53</ele>
        <time>2019-05-08T06:16:57Z</time>
      </trkpt>
      <trkpt lat="46.40234" lon="5.79321">
        <ele>590.68</ele>
        <time>2019-05-08T06:17:10Z</time>
      </trkpt>
      <trkpt lat="46.4023" lon="5.79304">
        <ele>589.88</ele>
        <time>2019-05-08T06:17:24Z</time>
      </trkpt>
      <trkpt lat="46.40225" lon="5.79305">
        <ele>589.85</ele>
        <time>2019-05-08T06:17:31Z</time>
      </trkpt>
      <trkpt lat="46.40219" lon="5.79296">
        <ele>589.82</ele>
        <time>2019-05-08T06:17:38Z</time>
      </trkpt>
      <trkpt lat="46.40212" lon="5.79275">
        <ele>589.77</ele>
        <time>2019-05-08T06:17:51Z</time>
      </trkpt>
      <trkpt lat="46.40204" lon="5.79264">
        <ele>592.1</ele>
        <time>2019-05-08T06:17:57Z</time>
      </trkpt>
      <trkpt lat="46.4019" lon="5.7924">
        <ele>592</ele>
        <time>2019-05-08T06:18:11Z</time>
      </trkpt>
      <trkpt lat="46.40174" lon="5.79224">
        <ele>591.96</ele>
        <time>2019-05-08T06:18:24Z</time>
      </trkpt>
      <trkpt lat="46.40155" lon="5.79205">
        <ele>592.89</ele>
        <time>2019-05-08T06:18:38Z</time>
      </trkpt>
      <trkpt lat="46.40142" lon="5.79199">
        <ele>592.85</ele>
        <time>2019-05-08T06:18:47Z</time>
      </trkpt>
      <trkpt lat="46.40137" lon="5.79195">
        <ele>592.82</ele>
        <time>2019-05-08T06:18:51Z</time>
      </trkpt>
      <trkpt lat="46.40125" lon="5.79186">
        <ele>592.79</ele>
        <time>2019-05-08T06:19:00Z</time>
      </trkpt>
      <trkpt lat="46.40116" lon="5.79179">
        <ele>592.79</ele>
        <time>2019-05-08T06:19:05Z</time>
      </trkpt>
      <trkpt lat="46.40095" lon="5.79172">
        <ele>592.77</ele>
        <time>2019-05-08T06:19:21Z</time>
      </trkpt>
      <trkpt lat="46.40075" lon="5.79158">
        <ele>592.72</ele>
        <time>2019-05-08T06:19:37Z</time>
      </trkpt>
      <trkpt lat="46.40047" lon="5.79155">
        <ele>592.67</ele>
        <time>2019-05-08T06:19:52Z</time>
      </trkpt>
      <trkpt lat="46.40024" lon="5.79135">
        <ele>594.48</ele>
        <time>2019-05-08T06:20:08Z</time>
      </trkpt>
      <trkpt lat="46.40004" lon="5.79119">
        <ele>596.04</ele>
        <time>2019-05-08T06:20:22Z</time>
      </trkpt>
      <trkpt lat="46.40003" lon="5.79118">
        <ele>596.83</ele>
        <time>2019-05-08T06:20:23Z</time>
      </trkpt>
      <trkpt lat="46.39982" lon="5.79107">
        <ele>598.42</ele>
        <time>2019-05-08T06:20:38Z</time>
      </trkpt>
      <trkpt lat="46.39974" lon="5.79101">
        <ele>598.42</ele>
        <time>2019-05-08T06:20:44Z</time>
      </trkpt>
      <trkpt lat="46.39967" lon="5.79096">
        <ele>599.16</ele>
        <time>2019-05-08T06:20:50Z</time>
      </trkpt>
      <trkpt lat="46.39959" lon="5.79089">
        <ele>599.13</ele>
        <time>2019-05-08T06:20:56Z</time>
      </trkpt>
      <trkpt lat="46.39951" lon="5.79078">
        <ele>599.87</ele>
        <time>2019-05-08T06:21:03Z</time>
      </trkpt>
      <trkpt lat="46.39933" lon="5.79065">
        <ele>599.87</ele>
        <time>2019-05-08T06:21:14Z</time>
      </trkpt>
      <trkpt lat="46.3992" lon="5.79057">
        <ele>599.89</ele>
        <time>2019-05-08T06:21:23Z</time>
      </trkpt>
      <trkpt lat="46.39914" lon="5.79051">
        <ele>599.89</ele>
        <time>2019-05-08T06:21:28Z</time>
      </trkpt>
      <trkpt lat="46.39892" lon="5.79029">
        <ele>599.98</ele>
        <time>2019-05-08T06:21:43Z</time>
      </trkpt>
      <trkpt lat="46.39873" lon="5.79013">
        <ele>600.03</ele>
        <time>2019-05-08T06:21:58Z</time>
      </trkpt>
      <trkpt lat="46.3987" lon="5.7901">
        <ele>600.04</ele>
        <time>2019-05-08T06:22:00Z</time>
      </trkpt>
      <trkpt lat="46.39862" lon="5.79006">
        <ele>600.06</ele>
        <time>2019-05-08T06:22:06Z</time>
      </trkpt>
      <trkpt lat="46.39842" lon="5.78989">
        <ele>600.07</ele>
        <time>2019-05-08T06:22:21Z</time>
      </trkpt>
      <trkpt lat="46.39824" lon="5.78975">
        <ele>600.14</ele>
        <time>2019-05-08T06:22:34Z</time>
      </trkpt>
      <trkpt lat="46.39805" lon="5.78962">
        <ele>600.2</ele>
        <time>2019-05-08T06:22:48Z</time>
      </trkpt>
      <trkpt lat="46.39803" lon="5.7896">
        <ele>600.2</ele>
        <time>2019-05-08T06:22:50Z</time>
      </trkpt>
      <trkpt lat="46.39795" lon="5.78954">
        <ele>600.22</ele>
        <time>2019-05-08T06:22:56Z</time>
      </trkpt>
      <trkpt lat="46.39789" lon="5.78949">
        <ele>600.24</ele>
        <time>2019-05-08T06:23:01Z</time>
      </trkpt>
      <trkpt lat="46.39767" lon="5.78934">
        <ele>600.31</ele>
        <time>2019-05-08T06:23:17Z</time>
      </trkpt>
      <trkpt lat="46.39746" lon="5.78916">
        <ele>600.43</ele>
        <time>2019-05-08T06:23:34Z</time>
      </trkpt>
      <trkpt lat="46.39728" lon="5.78901">
        <ele>600.5</ele>
        <time>2019-05-08T06:23:48Z</time>
      </trkpt>
      <trkpt lat="46.39708" lon="5.78888">
        <ele>600.58</ele>
        <time>2019-05-08T06:24:02Z</time>
      </trkpt>
      <trkpt lat="46.3969" lon="5.78873">
        <ele>598.36</ele>
        <time>2019-05-08T06:24:16Z</time>
      </trkpt>
      <trkpt lat="46.39684" lon="5.78866">
        <ele>597.39</ele>
        <time>2019-05-08T06:24:21Z</time>
      </trkpt>
      <trkpt lat="46.39673" lon="5.78841">
        <ele>594.77</ele>
        <time>2019-05-08T06:24:36Z</time>
      </trkpt>
      <trkpt lat="46.39667" lon="5.78827">
        <ele>593.93</ele>
        <time>2019-05-08T06:24:43Z</time>
      </trkpt>
      <trkpt lat="46.39658" lon="5.78798">
        <ele>592.25</ele>
        <time>2019-05-08T06:24:56Z</time>
      </trkpt>
      <trkpt lat="46.39657" lon="5.78794">
        <ele>592.25</ele>
        <time>2019-05-08T06:24:58Z</time>
      </trkpt>
      <trkpt lat="46.39656" lon="5.78791">
        <ele>591.4</ele>
        <time>2019-05-08T06:25:00Z</time>
      </trkpt>
      <trkpt lat="46.39645" lon="5.78765">
        <ele>590.54</ele>
        <time>2019-05-08T06:25:15Z</time>
      </trkpt>
      <trkpt lat="46.39636" lon="5.78745">
        <ele>590.44</ele>
        <time>2019-05-08T06:25:29Z</time>
      </trkpt>
      <trkpt lat="46.39632" lon="5.78735">
        <ele>590.35</ele>
        <time>2019-05-08T06:25:35Z</time>
      </trkpt>
      <trkpt lat="46.39627" lon="5.78723">
        <ele>590.23</ele>
        <time>2019-05-08T06:25:42Z</time>
      </trkpt>
      <trkpt lat="46.39623" lon="5.78716">
        <ele>590.16</ele>
        <time>2019-05-08T06:25:46Z</time>
      </trkpt>
      <trkpt lat="46.39615" lon="5.78692">
        <ele>589.89</ele>
        <time>2019-05-08T06:26:00Z</time>
      </trkpt>
      <trkpt lat="46.39605" lon="5.78665">
        <ele>589.55</ele>
        <time>2019-05-08T06:26:15Z</time>
      </trkpt>
      <trkpt lat="46.39594" lon="5.78642">
        <ele>589.14</ele>
        <time>2019-05-08T06:26:29Z</time>
      </trkpt>
      <trkpt lat="46.39589" lon="5.78636">
        <ele>589.04</ele>
        <time>2019-05-08T06:26:33Z</time>
      </trkpt>
      <trkpt lat="46.3957" lon="5.78617">
        <ele>588.7</ele>
        <time>2019-05-08T06:26:46Z</time>
      </trkpt>
      <trkpt lat="46.39548" lon="5.78598">
        <ele>587.53</ele>
        <time>2019-05-08T06:27:01Z</time>
      </trkpt>
      <trkpt lat="46.39527" lon="5.78583">
        <ele>586.2</ele>
        <time>2019-05-08T06:27:14Z</time>
      </trkpt>
      <trkpt lat="46.39512" lon="5.78574">
        <ele>585.17</ele>
        <time>2019-05-08T06:27:24Z</time>
      </trkpt>
      <trkpt lat="46.39504" lon="5.78567">
        <ele>585.08</ele>
        <time>2019-05-08T06:27:29Z</time>
      </trkpt>
      <trkpt lat="46.39485" lon="5.78551">
        <ele>583.32</ele>
        <time>2019-05-08T06:27:42Z</time>
      </trkpt>
      <trkpt lat="46.39463" lon="5.78533">
        <ele>582.26</ele>
        <time>2019-05-08T06:27:56Z</time>
      </trkpt>
      <trkpt lat="46.39439" lon="5.78516">
        <ele>581.24</ele>
        <time>2019-05-08T06:28:12Z</time>
      </trkpt>
      <trkpt lat="46.39415" lon="5.78495">
        <ele>581.12</ele>
        <time>2019-05-08T06:28:26Z</time>
      </trkpt>
      <trkpt lat="46.3939" lon="5.78476">
        <ele>580.22</ele>
        <time>2019-05-08T06:28:44Z</time>
      </trkpt>
      <trkpt lat="46.39369" lon="5.78462">
        <ele>579.37</ele>
        <time>2019-05-08T06:28:57Z</time>
      </trkpt>
      <trkpt lat="46.39352" lon="5.78451">
        <ele>579.33</ele>
        <time>2019-05-08T06:29:09Z</time>
      </trkpt>
      <trkpt lat="46.39334" lon="5.78441">
        <ele>578.56</ele>
        <time>2019-05-08T06:29:21Z</time>
      </trkpt>
      <trkpt lat="46.39313" lon="5.78427">
        <ele>577.72</ele>
        <time>2019-05-08T06:29:36Z</time>
      </trkpt>
      <trkpt lat="46.39288" lon="5.78405">
        <ele>576.75</ele>
        <time>2019-05-08T06:29:53Z</time>
      </trkpt>
      <trkpt lat="46.39266" lon="5.78392">
        <ele>575.04</ele>
        <time>2019-05-08T06:30:10Z</time>
      </trkpt>
      <trkpt lat="46.39247" lon="5.78377">
        <ele>574.3</ele>
        <time>2019-05-08T06:30:23Z</time>
      </trkpt>
      <trkpt lat="46.39248" lon="5.78371">
        <ele>573.56</ele>
        <time>2019-05-08T06:30:26Z</time>
      </trkpt>
      <trkpt lat="46.39249" lon="5.78368">
        <ele>573.57</ele>
        <time>2019-05-08T06:30:27Z</time>
      </trkpt>
      <trkpt lat="46.3925" lon="5.78365">
        <ele>573.57</ele>
        <time>2019-05-08T06:30:28Z</time>
      </trkpt>
      <trkpt lat="46.39245" lon="5.78337">
        <ele>573.67</ele>
        <time>2019-05-08T06:30:40Z</time>
      </trkpt>
      <trkpt lat="46.39225" lon="5.7832">
        <ele>573.7</ele>
        <time>2019-05-08T06:30:53Z</time>
      </trkpt>
      <trkpt lat="46.39204" lon="5.78299">
        <ele>573.8</ele>
        <time>2019-05-08T06:31:09Z</time>
      </trkpt>
      <trkpt lat="46.39191" lon="5.78281">
        <ele>576.19</ele>
        <time>2019-05-08T06:31:22Z</time>
      </trkpt>
      <trkpt lat="46.39191" lon="5.7828">
        <ele>576.2</ele>
        <time>2019-05-08T06:31:23Z</time>
      </trkpt>
      <trkpt lat="46.39187" lon="5.78261">
        <ele>578.04</ele>
        <time>2019-05-08T06:31:36Z</time>
      </trkpt>
      <trkpt lat="46.39186" lon="5.78236">
        <ele>579.68</ele>
        <time>2019-05-08T06:31:48Z</time>
      </trkpt>
      <trkpt lat="46.39186" lon="5.78234">
        <ele>580.45</ele>
        <time>2019-05-08T06:31:49Z</time>
      </trkpt>
      <trkpt lat="46.39185" lon="5.78215">
        <ele>581.22</ele>
        <time>2019-05-08T06:31:59Z</time>
      </trkpt>
      <trkpt lat="46.39181" lon="5.7818">
        <ele>582.04</ele>
        <time>2019-05-08T06:32:15Z</time>
      </trkpt>
      <trkpt lat="46.39179" lon="5.78152">
        <ele>583.79</ele>
        <time>2019-05-08T06:32:30Z</time>
      </trkpt>
      <trkpt lat="46.39175" lon="5.78122">
        <ele>584.63</ele>
        <time>2019-05-08T06:32:44Z</time>
      </trkpt>
      <trkpt lat="46.39172" lon="5.78088">
        <ele>585.35</ele>
        <time>2019-05-08T06:33:00Z</time>
      </trkpt>
      <trkpt lat="46.39155" lon="5.78053">
        <ele>585.24</ele>
        <time>2019-05-08T06:33:16Z</time>
      </trkpt>
      <trkpt lat="46.39149" lon="5.78038">
        <ele>582.78</ele>
        <time>2019-05-08T06:33:22Z</time>
      </trkpt>
      <trkpt lat="46.39139" lon="5.78009">
        <ele>582.03</ele>
        <time>2019-05-08T06:33:36Z</time>
      </trkpt>
      <trkpt lat="46.3913" lon="5.77975">
        <ele>582.15</ele>
        <time>2019-05-08T06:33:52Z</time>
      </trkpt>
      <trkpt lat="46.39127" lon="5.77957">
        <ele>582.18</ele>
        <time>2019-05-08T06:34:01Z</time>
      </trkpt>
      <trkpt lat="46.39127" lon="5.77955">
        <ele>582.18</ele>
        <time>2019-05-08T06:34:02Z</time>
      </trkpt>
      <trkpt lat="46.39127" lon="5.77953">
        <ele>582.18</ele>
        <time>2019-05-08T06:34:03Z</time>
      </trkpt>
      <trkpt lat="46.39127" lon="5.77945">
        <ele>582.19</ele>
        <time>2019-05-08T06:34:08Z</time>
      </trkpt>
      <trkpt lat="46.39125" lon="5.77938">
        <ele>584.57</ele>
        <time>2019-05-08T06:34:12Z</time>
      </trkpt>
      <trkpt lat="46.39125" lon="5.77935">
        <ele>584.59</ele>
        <time>2019-05-08T06:34:14Z</time>
      </trkpt>
      <trkpt lat="46.39125" lon="5.77933">
        <ele>584.59</ele>
        <time>2019-05-08T06:34:15Z</time>
      </trkpt>
      <trkpt lat="46.39125" lon="5.77931">
        <ele>584.59</ele>
        <time>2019-05-08T06:34:16Z</time>
      </trkpt>
      <trkpt lat="46.39125" lon="5.77929">
        <ele>584.59</ele>
        <time>2019-05-08T06:34:17Z</time>
      </trkpt>
      <trkpt lat="46.39119" lon="5.77897">
        <ele>585.4</ele>
        <time>2019-05-08T06:34:31Z</time>
      </trkpt>
      <trkpt lat="46.39116" lon="5.77867">
        <ele>587.99</ele>
        <time>2019-05-08T06:34:45Z</time>
      </trkpt>
      <trkpt lat="46.39105" lon="5.7784">
        <ele>589.64</ele>
        <time>2019-05-08T06:35:00Z</time>
      </trkpt>
      <trkpt lat="46.39096" lon="5.77822">
        <ele>592.2</ele>
        <time>2019-05-08T06:35:12Z</time>
      </trkpt>
      <trkpt lat="46.3908" lon="5.77804">
        <ele>593.07</ele>
        <time>2019-05-08T06:35:24Z</time>
      </trkpt>
      <trkpt lat="46.3906" lon="5.77782">
        <ele>595.65</ele>
        <time>2019-05-08T06:35:39Z</time>
      </trkpt>
      <trkpt lat="46.39042" lon="5.7776">
        <ele>595.68</ele>
        <time>2019-05-08T06:35:54Z</time>
      </trkpt>
      <trkpt lat="46.39024" lon="5.77742">
        <ele>595.75</ele>
        <time>2019-05-08T06:36:07Z</time>
      </trkpt>
      <trkpt lat="46.39011" lon="5.7773">
        <ele>593.54</ele>
        <time>2019-05-08T06:36:16Z</time>
      </trkpt>
      <trkpt lat="46.38994" lon="5.77713">
        <ele>592.84</ele>
        <time>2019-05-08T06:36:29Z</time>
      </trkpt>
      <trkpt lat="46.38972" lon="5.7769">
        <ele>591.42</ele>
        <time>2019-05-08T06:36:46Z</time>
      </trkpt>
      <trkpt lat="46.38954" lon="5.77673">
        <ele>589.81</ele>
        <time>2019-05-08T06:37:00Z</time>
      </trkpt>
      <trkpt lat="46.38932" lon="5.77654">
        <ele>588.18</ele>
        <time>2019-05-08T06:37:16Z</time>
      </trkpt>
      <trkpt lat="46.38906" lon="5.77644">
        <ele>585.83</ele>
        <time>2019-05-08T06:37:32Z</time>
      </trkpt>
      <trkpt lat="46.38889" lon="5.77642">
        <ele>584.29</ele>
        <time>2019-05-08T06:37:43Z</time>
      </trkpt>
      <trkpt lat="46.38868" lon="5.77647">
        <ele>583.58</ele>
        <time>2019-05-08T06:37:56Z</time>
      </trkpt>
      <trkpt lat="46.38855" lon="5.77659">
        <ele>582.82</ele>
        <time>2019-05-08T06:38:06Z</time>
      </trkpt>
      <trkpt lat="46.38849" lon="5.77663">
        <ele>582.84</ele>
        <time>2019-05-08T06:38:10Z</time>
      </trkpt>
      <trkpt lat="46.38839" lon="5.77674">
        <ele>582.11</ele>
        <time>2019-05-08T06:38:18Z</time>
      </trkpt>
      <trkpt lat="46.38832" lon="5.77686">
        <ele>582.15</ele>
        <time>2019-05-08T06:38:26Z</time>
      </trkpt>
      <trkpt lat="46.38814" lon="5.77707">
        <ele>581.42</ele>
        <time>2019-05-08T06:38:39Z</time>
      </trkpt>
      <trkpt lat="46.38797" lon="5.77733">
        <ele>581.48</ele>
        <time>2019-05-08T06:38:54Z</time>
      </trkpt>
      <trkpt lat="46.38786" lon="5.77759">
        <ele>581.47</ele>
        <time>2019-05-08T06:39:07Z</time>
      </trkpt>
      <trkpt lat="46.38779" lon="5.77794">
        <ele>580</ele>
        <time>2019-05-08T06:39:24Z</time>
      </trkpt>
      <trkpt lat="46.38771" lon="5.77819">
        <ele>578.41</ele>
        <time>2019-05-08T06:39:37Z</time>
      </trkpt>
      <trkpt lat="46.3876" lon="5.77847">
        <ele>575.87</ele>
        <time>2019-05-08T06:39:52Z</time>
      </trkpt>
      <trkpt lat="46.38748" lon="5.7788">
        <ele>573.41</ele>
        <time>2019-05-08T06:40:08Z</time>
      </trkpt>
      <trkpt lat="46.38734" lon="5.77913">
        <ele>570.76</ele>
        <time>2019-05-08T06:40:25Z</time>
      </trkpt>
      <trkpt lat="46.38721" lon="5.77929">
        <ele>570.06</ele>
        <time>2019-05-08T06:40:37Z</time>
      </trkpt>
      <trkpt lat="46.38716" lon="5.77932">
        <ele>570.08</ele>
        <time>2019-05-08T06:40:41Z</time>
      </trkpt>
      <trkpt lat="46.38711" lon="5.77937">
        <ele>570.11</ele>
        <time>2019-05-08T06:40:45Z</time>
      </trkpt>
      <trkpt lat="46.38701" lon="5.77936">
        <ele>569.35</ele>
        <time>2019-05-08T06:40:53Z</time>
      </trkpt>
      <trkpt lat="46.38679" lon="5.77928">
        <ele>568.44</ele>
        <time>2019-05-08T06:41:09Z</time>
      </trkpt>
      <trkpt lat="46.38664" lon="5.77914">
        <ele>566.77</ele>
        <time>2019-05-08T06:41:20Z</time>
      </trkpt>
      <trkpt lat="46.38641" lon="5.77899">
        <ele>566.8</ele>
        <time>2019-05-08T06:41:33Z</time>
      </trkpt>
      <trkpt lat="46.3862" lon="5.77888">
        <ele>565.83</ele>
        <time>2019-05-08T06:41:48Z</time>
      </trkpt>
      <trkpt lat="46.38598" lon="5.77875">
        <ele>564.3</ele>
        <time>2019-05-08T06:42:04Z</time>
      </trkpt>
      <trkpt lat="46.3858" lon="5.77867">
        <ele>562.82</ele>
        <time>2019-05-08T06:42:17Z</time>
      </trkpt>
      <trkpt lat="46.3856" lon="5.77856">
        <ele>561.89</ele>
        <time>2019-05-08T06:42:31Z</time>
      </trkpt>
      <trkpt lat="46.38536" lon="5.77844">
        <ele>561.9</ele>
        <time>2019-05-08T06:42:47Z</time>
      </trkpt>
      <trkpt lat="46.38521" lon="5.77839">
        <ele>561.91</ele>
        <time>2019-05-08T06:42:57Z</time>
      </trkpt>
      <trkpt lat="46.38518" lon="5.77833">
        <ele>561.91</ele>
        <time>2019-05-08T06:43:01Z</time>
      </trkpt>
      <trkpt lat="46.38517" lon="5.77798">
        <ele>561.92</ele>
        <time>2019-05-08T06:43:17Z</time>
      </trkpt>
      <trkpt lat="46.38516" lon="5.77788">
        <ele>561.91</ele>
        <time>2019-05-08T06:43:22Z</time>
      </trkpt>
      <trkpt lat="46.38514" lon="5.77781">
        <ele>564.16</ele>
        <time>2019-05-08T06:43:26Z</time>
      </trkpt>
      <trkpt lat="46.38501" lon="5.77761">
        <ele>564.91</ele>
        <time>2019-05-08T06:43:37Z</time>
      </trkpt>
      <trkpt lat="46.38494" lon="5.77747">
        <ele>565.75</ele>
        <time>2019-05-08T06:43:48Z</time>
      </trkpt>
      <trkpt lat="46.38491" lon="5.77724">
        <ele>565.66</ele>
        <time>2019-05-08T06:44:01Z</time>
      </trkpt>
      <trkpt lat="46.38474" lon="5.77699">
        <ele>567.1</ele>
        <time>2019-05-08T06:44:15Z</time>
      </trkpt>
      <trkpt lat="46.38469" lon="5.77695">
        <ele>567.09</ele>
        <time>2019-05-08T06:44:21Z</time>
      </trkpt>
      <trkpt lat="46.3844" lon="5.77687">
        <ele>566.91</ele>
        <time>2019-05-08T06:44:40Z</time>
      </trkpt>
      <trkpt lat="46.38416" lon="5.77672">
        <ele>566.83</ele>
        <time>2019-05-08T06:44:57Z</time>
      </trkpt>
      <trkpt lat="46.38403" lon="5.77654">
        <ele>567.64</ele>
        <time>2019-05-08T06:45:10Z</time>
      </trkpt>
      <trkpt lat="46.38388" lon="5.77628">
        <ele>568.51</ele>
        <time>2019-05-08T06:45:25Z</time>
      </trkpt>
      <trkpt lat="46.38376" lon="5.77601">
        <ele>568.53</ele>
        <time>2019-05-08T06:45:40Z</time>
      </trkpt>
      <trkpt lat="46.38369" lon="5.7759">
        <ele>569.38</ele>
        <time>2019-05-08T06:45:47Z</time>
      </trkpt>
      <trkpt lat="46.3836" lon="5.77563">
        <ele>571.1</ele>
        <time>2019-05-08T06:46:02Z</time>
      </trkpt>
      <trkpt lat="46.38358" lon="5.77555">
        <ele>571.11</ele>
        <time>2019-05-08T06:46:06Z</time>
      </trkpt>
      <trkpt lat="46.38353" lon="5.7753">
        <ele>571.11</ele>
        <time>2019-05-08T06:46:20Z</time>
      </trkpt>
      <trkpt lat="46.38346" lon="5.77501">
        <ele>571.12</ele>
        <time>2019-05-08T06:46:36Z</time>
      </trkpt>
      <trkpt lat="46.38338" lon="5.77474">
        <ele>571.95</ele>
        <time>2019-05-08T06:46:52Z</time>
      </trkpt>
      <trkpt lat="46.38331" lon="5.77448">
        <ele>573.51</ele>
        <time>2019-05-08T06:47:08Z</time>
      </trkpt>
      <trkpt lat="46.38328" lon="5.77436">
        <ele>573.52</ele>
        <time>2019-05-08T06:47:15Z</time>
      </trkpt>
      <trkpt lat="46.38317" lon="5.77417">
        <ele>574.29</ele>
        <time>2019-05-08T06:47:28Z</time>
      </trkpt>
      <trkpt lat="46.38298" lon="5.7739">
        <ele>575.79</ele>
        <time>2019-05-08T06:47:49Z</time>
      </trkpt>
      <trkpt lat="46.38277" lon="5.77366">
        <ele>577.45</ele>
        <time>2019-05-08T06:48:04Z</time>
      </trkpt>
      <trkpt lat="46.38272" lon="5.7736">
        <ele>577.43</ele>
        <time>2019-05-08T06:48:08Z</time>
      </trkpt>
      <trkpt lat="46.38259" lon="5.77335">
        <ele>577.37</ele>
        <time>2019-05-08T06:48:23Z</time>
      </trkpt>
      <trkpt lat="46.38256" lon="5.77329">
        <ele>577.35</ele>
        <time>2019-05-08T06:48:26Z</time>
      </trkpt>
      <trkpt lat="46.3825" lon="5.77308">
        <ele>578.08</ele>
        <time>2019-05-08T06:48:39Z</time>
      </trkpt>
      <trkpt lat="46.38243" lon="5.77289">
        <ele>578.89</ele>
        <time>2019-05-08T06:48:50Z</time>
      </trkpt>
      <trkpt lat="46.38242" lon="5.77282">
        <ele>579.7</ele>
        <time>2019-05-08T06:48:55Z</time>
      </trkpt>
      <trkpt lat="46.38244" lon="5.77275">
        <ele>580.42</ele>
        <time>2019-05-08T06:48:59Z</time>
      </trkpt>
      <trkpt lat="46.38251" lon="5.77251">
        <ele>581.89</ele>
        <time>2019-05-08T06:49:14Z</time>
      </trkpt>
      <trkpt lat="46.3825" lon="5.77237">
        <ele>583.54</ele>
        <time>2019-05-08T06:49:22Z</time>
      </trkpt>
      <trkpt lat="46.38243" lon="5.77213">
        <ele>583.3</ele>
        <time>2019-05-08T06:49:35Z</time>
      </trkpt>
      <trkpt lat="46.38238" lon="5.77183">
        <ele>584.64</ele>
        <time>2019-05-08T06:49:52Z</time>
      </trkpt>
      <trkpt lat="46.38231" lon="5.77159">
        <ele>585.34</ele>
        <time>2019-05-08T06:50:09Z</time>
      </trkpt>
      <trkpt lat="46.38214" lon="5.77143">
        <ele>585.86</ele>
        <time>2019-05-08T06:50:24Z</time>
      </trkpt>
      <trkpt lat="46.3819" lon="5.77141">
        <ele>586.35</ele>
        <time>2019-05-08T06:50:43Z</time>
      </trkpt>
      <trkpt lat="46.38161" lon="5.77141">
        <ele>586.86</ele>
        <time>2019-05-08T06:51:03Z</time>
      </trkpt>
      <trkpt lat="46.38136" lon="5.77147">
        <ele>586.57</ele>
        <time>2019-05-08T06:51:20Z</time>
      </trkpt>
      <trkpt lat="46.3811" lon="5.77153">
        <ele>587.11</ele>
        <time>2019-05-08T06:51:35Z</time>
      </trkpt>
      <trkpt lat="46.38087" lon="5.7716">
        <ele>588.38</ele>
        <time>2019-05-08T06:51:54Z</time>
      </trkpt>
      <trkpt lat="46.38059" lon="5.77162">
        <ele>588.76</ele>
        <time>2019-05-08T06:52:13Z</time>
      </trkpt>
      <trkpt lat="46.38044" lon="5.77167">
        <ele>588.57</ele>
        <time>2019-05-08T06:52:28Z</time>
      </trkpt>
      <trkpt lat="46.38012" lon="5.77171">
        <ele>589.87</ele>
        <time>2019-05-08T06:52:47Z</time>
      </trkpt>
      <trkpt lat="46.3801" lon="5.77172">
        <ele>589.85</ele>
        <time>2019-05-08T06:52:48Z</time>
      </trkpt>
      <trkpt lat="46.37981" lon="5.77165">
        <ele>590.42</ele>
        <time>2019-05-08T06:53:08Z</time>
      </trkpt>
      <trkpt lat="46.37965" lon="5.77159">
        <ele>591.84</ele>
        <time>2019-05-08T06:53:21Z</time>
      </trkpt>
      <trkpt lat="46.37932" lon="5.77148">
        <ele>593.32</ele>
        <time>2019-05-08T06:53:43Z</time>
      </trkpt>
      <trkpt lat="46.37903" lon="5.77136">
        <ele>593.8</ele>
        <time>2019-05-08T06:54:03Z</time>
      </trkpt>
      <trkpt lat="46.37879" lon="5.77136">
        <ele>593.57</ele>
        <time>2019-05-08T06:54:21Z</time>
      </trkpt>
      <trkpt lat="46.37852" lon="5.77142">
        <ele>594.91</ele>
        <time>2019-05-08T06:54:41Z</time>
      </trkpt>
      <trkpt lat="46.37819" lon="5.77138">
        <ele>596.36</ele>
        <time>2019-05-08T06:54:59Z</time>
      </trkpt>
      <trkpt lat="46.37788" lon="5.77132">
        <ele>596.78</ele>
        <time>2019-05-08T06:55:17Z</time>
      </trkpt>
      <trkpt lat="46.37771" lon="5.77129">
        <ele>597.35</ele>
        <time>2019-05-08T06:55:29Z</time>
      </trkpt>
      <trkpt lat="46.37745" lon="5.77115">
        <ele>597.89</ele>
        <time>2019-05-08T06:55:48Z</time>
      </trkpt>
      <trkpt lat="46.37717" lon="5.77104">
        <ele>599.25</ele>
        <time>2019-05-08T06:56:05Z</time>
      </trkpt>
      <trkpt lat="46.37692" lon="5.77093">
        <ele>598.92</ele>
        <time>2019-05-08T06:56:21Z</time>
      </trkpt>
      <trkpt lat="46.37677" lon="5.77084">
        <ele>598.73</ele>
        <time>2019-05-08T06:56:35Z</time>
      </trkpt>
      <trkpt lat="46.37663" lon="5.77085">
        <ele>599.41</ele>
        <time>2019-05-08T06:56:44Z</time>
      </trkpt>
      <trkpt lat="46.37643" lon="5.77083">
        <ele>599.15</ele>
        <time>2019-05-08T06:56:59Z</time>
      </trkpt>
      <trkpt lat="46.37622" lon="5.77083">
        <ele>599.74</ele>
        <time>2019-05-08T06:57:13Z</time>
      </trkpt>
      <trkpt lat="46.37604" lon="5.77074">
        <ele>599.51</ele>
        <time>2019-05-08T06:57:26Z</time>
      </trkpt>
      <trkpt lat="46.3759" lon="5.77058">
        <ele>599.3</ele>
        <time>2019-05-08T06:57:36Z</time>
      </trkpt>
      <trkpt lat="46.37564" lon="5.77063">
        <ele>599.02</ele>
        <time>2019-05-08T06:57:50Z</time>
      </trkpt>
      <trkpt lat="46.37534" lon="5.77058">
        <ele>598.79</ele>
        <time>2019-05-08T06:58:08Z</time>
      </trkpt>
      <trkpt lat="46.37508" lon="5.7705">
        <ele>598.57</ele>
        <time>2019-05-08T06:58:24Z</time>
      </trkpt>
      <trkpt lat="46.37485" lon="5.77036">
        <ele>598.28</ele>
        <time>2019-05-08T06:58:41Z</time>
      </trkpt>
      <trkpt lat="46.37468" lon="5.77021">
        <ele>598.02</ele>
        <time>2019-05-08T06:58:55Z</time>
      </trkpt>
      <trkpt lat="46.37449" lon="5.77">
        <ele>597.65</ele>
        <time>2019-05-08T06:59:13Z</time>
      </trkpt>
      <trkpt lat="46.37444" lon="5.76996">
        <ele>595.25</ele>
        <time>2019-05-08T06:59:16Z</time>
      </trkpt>
      <trkpt lat="46.37426" lon="5.76981">
        <ele>595.14</ele>
        <time>2019-05-08T06:59:26Z</time>
      </trkpt>
      <trkpt lat="46.37407" lon="5.76961">
        <ele>595.09</ele>
        <time>2019-05-08T06:59:38Z</time>
      </trkpt>
      <trkpt lat="46.37403" lon="5.76956">
        <ele>595.09</ele>
        <time>2019-05-08T06:59:42Z</time>
      </trkpt>
      <trkpt lat="46.37382" lon="5.76943">
        <ele>594.94</ele>
        <time>2019-05-08T07:00:01Z</time>
      </trkpt>
      <trkpt lat="46.37372" lon="5.76942">
        <ele>594.92</ele>
        <time>2019-05-08T07:00:06Z</time>
      </trkpt>
      <trkpt lat="46.3735" lon="5.7694">
        <ele>594.86</ele>
        <time>2019-05-08T07:00:19Z</time>
      </trkpt>
      <trkpt lat="46.37331" lon="5.76938">
        <ele>593.73</ele>
        <time>2019-05-08T07:00:35Z</time>
      </trkpt>
      <trkpt lat="46.37329" lon="5.76939">
        <ele>593.69</ele>
        <time>2019-05-08T07:00:38Z</time>
      </trkpt>
      <trkpt lat="46.37321" lon="5.76935">
        <ele>593.63</ele>
        <time>2019-05-08T07:00:46Z</time>
      </trkpt>
      <trkpt lat="46.37297" lon="5.76923">
        <ele>593.51</ele>
        <time>2019-05-08T07:01:07Z</time>
      </trkpt>
      <trkpt lat="46.37264" lon="5.76921">
        <ele>593.23</ele>
        <time>2019-05-08T07:01:24Z</time>
      </trkpt>
      <trkpt lat="46.37249" lon="5.76925">
        <ele>593.11</ele>
        <time>2019-05-08T07:01:36Z</time>
      </trkpt>
      <trkpt lat="46.37235" lon="5.76931">
        <ele>592.94</ele>
        <time>2019-05-08T07:01:46Z</time>
      </trkpt>
      <trkpt lat="46.37218" lon="5.7693">
        <ele>592.64</ele>
        <time>2019-05-08T07:02:04Z</time>
      </trkpt>
      <trkpt lat="46.37212" lon="5.7693">
        <ele>595.01</ele>
        <time>2019-05-08T07:02:10Z</time>
      </trkpt>
      <trkpt lat="46.37191" lon="5.76918">
        <ele>594.78</ele>
        <time>2019-05-08T07:02:26Z</time>
      </trkpt>
      <trkpt lat="46.3717" lon="5.76904">
        <ele>596.24</ele>
        <time>2019-05-08T07:02:43Z</time>
      </trkpt>
      <trkpt lat="46.37166" lon="5.769">
        <ele>596.22</ele>
        <time>2019-05-08T07:02:44Z</time>
      </trkpt>
      <trkpt lat="46.37164" lon="5.76899">
        <ele>595.9</ele>
        <time>2019-05-08T07:03:14Z</time>
      </trkpt>
      <trkpt lat="46.37161" lon="5.76879">
        <ele>597.64</ele>
        <time>2019-05-08T07:03:28Z</time>
      </trkpt>
      <trkpt lat="46.37157" lon="5.76855">
        <ele>598.44</ele>
        <time>2019-05-08T07:03:40Z</time>
      </trkpt>
      <trkpt lat="46.37152" lon="5.76835">
        <ele>599.22</ele>
        <time>2019-05-08T07:03:51Z</time>
      </trkpt>
      <trkpt lat="46.37151" lon="5.76831">
        <ele>599.19</ele>
        <time>2019-05-08T07:03:53Z</time>
      </trkpt>
      <trkpt lat="46.37148" lon="5.76822">
        <ele>600.05</ele>
        <time>2019-05-08T07:03:59Z</time>
      </trkpt>
      <trkpt lat="46.37145" lon="5.76814">
        <ele>600.81</ele>
        <time>2019-05-08T07:04:05Z</time>
      </trkpt>
      <trkpt lat="46.37142" lon="5.76798">
        <ele>600.79</ele>
        <time>2019-05-08T07:04:13Z</time>
      </trkpt>
      <trkpt lat="46.37149" lon="5.76773">
        <ele>602.57</ele>
        <time>2019-05-08T07:04:26Z</time>
      </trkpt>
      <trkpt lat="46.37149" lon="5.76767">
        <ele>602.55</ele>
        <time>2019-05-08T07:04:29Z</time>
      </trkpt>
      <trkpt lat="46.3715" lon="5.76758">
        <ele>603.32</ele>
        <time>2019-05-08T07:04:34Z</time>
      </trkpt>
      <trkpt lat="46.37152" lon="5.76731">
        <ele>603.18</ele>
        <time>2019-05-08T07:04:48Z</time>
      </trkpt>
      <trkpt lat="46.37151" lon="5.76701">
        <ele>603.15</ele>
        <time>2019-05-08T07:05:01Z</time>
      </trkpt>
      <trkpt lat="46.3715" lon="5.76692">
        <ele>604.04</ele>
        <time>2019-05-08T07:05:05Z</time>
      </trkpt>
      <trkpt lat="46.37142" lon="5.76665">
        <ele>604.72</ele>
        <time>2019-05-08T07:05:18Z</time>
      </trkpt>
      <trkpt lat="46.37141" lon="5.76654">
        <ele>604.68</ele>
        <time>2019-05-08T07:05:24Z</time>
      </trkpt>
      <trkpt lat="46.37136" lon="5.7664">
        <ele>605.37</ele>
        <time>2019-05-08T07:05:35Z</time>
      </trkpt>
      <trkpt lat="46.37127" lon="5.76628">
        <ele>605.3</ele>
        <time>2019-05-08T07:05:46Z</time>
      </trkpt>
      <trkpt lat="46.37117" lon="5.76621">
        <ele>606.15</ele>
        <time>2019-05-08T07:05:50Z</time>
      </trkpt>
      <trkpt lat="46.37104" lon="5.76614">
        <ele>607</ele>
        <time>2019-05-08T07:05:56Z</time>
      </trkpt>
      <trkpt lat="46.3708" lon="5.76606">
        <ele>609.41</ele>
        <time>2019-05-08T07:06:11Z</time>
      </trkpt>
      <trkpt lat="46.37062" lon="5.76587">
        <ele>610.92</ele>
        <time>2019-05-08T07:06:24Z</time>
      </trkpt>
      <trkpt lat="46.37051" lon="5.76575">
        <ele>611.76</ele>
        <time>2019-05-08T07:06:32Z</time>
      </trkpt>
      <trkpt lat="46.37031" lon="5.76554">
        <ele>611.72</ele>
        <time>2019-05-08T07:06:47Z</time>
      </trkpt>
      <trkpt lat="46.37016" lon="5.76528">
        <ele>612.59</ele>
        <time>2019-05-08T07:07:00Z</time>
      </trkpt>
      <trkpt lat="46.37008" lon="5.76509">
        <ele>613.57</ele>
        <time>2019-05-08T07:07:11Z</time>
      </trkpt>
      <trkpt lat="46.37006" lon="5.76506">
        <ele>613.58</ele>
        <time>2019-05-08T07:07:13Z</time>
      </trkpt>
      <trkpt lat="46.37001" lon="5.76497">
        <ele>613.58</ele>
        <time>2019-05-08T07:07:18Z</time>
      </trkpt>
      <trkpt lat="46.37" lon="5.76493">
        <ele>613.58</ele>
        <time>2019-05-08T07:07:20Z</time>
      </trkpt>
      <trkpt lat="46.36992" lon="5.76469">
        <ele>614.64</ele>
        <time>2019-05-08T07:07:34Z</time>
      </trkpt>
      <trkpt lat="46.36982" lon="5.76443">
        <ele>614.64</ele>
        <time>2019-05-08T07:07:47Z</time>
      </trkpt>
      <trkpt lat="46.36975" lon="5.76414">
        <ele>614.64</ele>
        <time>2019-05-08T07:08:00Z</time>
      </trkpt>
      <trkpt lat="46.36969" lon="5.76389">
        <ele>614.65</ele>
        <time>2019-05-08T07:08:14Z</time>
      </trkpt>
      <trkpt lat="46.36968" lon="5.76379">
        <ele>614.64</ele>
        <time>2019-05-08T07:08:18Z</time>
      </trkpt>
      <trkpt lat="46.36967" lon="5.76365">
        <ele>614.63</ele>
        <time>2019-05-08T07:08:23Z</time>
      </trkpt>
      <trkpt lat="46.36964" lon="5.76334">
        <ele>616.44</ele>
        <time>2019-05-08T07:08:36Z</time>
      </trkpt>
      <trkpt lat="46.36961" lon="5.76319">
        <ele>617.26</ele>
        <time>2019-05-08T07:08:43Z</time>
      </trkpt>
      <trkpt lat="46.36959" lon="5.76283">
        <ele>617.85</ele>
        <time>2019-05-08T07:09:00Z</time>
      </trkpt>
      <trkpt lat="46.36949" lon="5.76272">
        <ele>617.81</ele>
        <time>2019-05-08T07:09:06Z</time>
      </trkpt>
      <trkpt lat="46.36942" lon="5.76267">
        <ele>618.56</ele>
        <time>2019-05-08T07:09:09Z</time>
      </trkpt>
      <trkpt lat="46.36915" lon="5.76252">
        <ele>618.41</ele>
        <time>2019-05-08T07:09:23Z</time>
      </trkpt>
      <trkpt lat="46.36913" lon="5.7625">
        <ele>618.4</ele>
        <time>2019-05-08T07:09:24Z</time>
      </trkpt>
      <trkpt lat="46.36892" lon="5.76244">
        <ele>619.92</ele>
        <time>2019-05-08T07:09:36Z</time>
      </trkpt>
      <trkpt lat="46.36871" lon="5.76236">
        <ele>622.53</ele>
        <time>2019-05-08T07:09:50Z</time>
      </trkpt>
      <trkpt lat="46.36867" lon="5.76235">
        <ele>623.43</ele>
        <time>2019-05-08T07:09:53Z</time>
      </trkpt>
      <trkpt lat="46.36845" lon="5.76229">
        <ele>623.29</ele>
        <time>2019-05-08T07:10:05Z</time>
      </trkpt>
      <trkpt lat="46.36827" lon="5.76222">
        <ele>623.18</ele>
        <time>2019-05-08T07:10:17Z</time>
      </trkpt>
      <trkpt lat="46.3681" lon="5.76213">
        <ele>623.97</ele>
        <time>2019-05-08T07:10:29Z</time>
      </trkpt>
      <trkpt lat="46.36791" lon="5.76197">
        <ele>626.29</ele>
        <time>2019-05-08T07:10:45Z</time>
      </trkpt>
      <trkpt lat="46.36775" lon="5.7618">
        <ele>626.21</ele>
        <time>2019-05-08T07:10:55Z</time>
      </trkpt>
      <trkpt lat="46.3676" lon="5.76167">
        <ele>627.99</ele>
        <time>2019-05-08T07:11:04Z</time>
      </trkpt>
      <trkpt lat="46.36748" lon="5.76156">
        <ele>628.85</ele>
        <time>2019-05-08T07:11:12Z</time>
      </trkpt>
      <trkpt lat="46.36736" lon="5.76144">
        <ele>628.78</ele>
        <time>2019-05-08T07:11:20Z</time>
      </trkpt>
      <trkpt lat="46.36723" lon="5.76131">
        <ele>630.28</ele>
        <time>2019-05-08T07:11:32Z</time>
      </trkpt>
      <trkpt lat="46.36701" lon="5.76116">
        <ele>632.93</ele>
        <time>2019-05-08T07:11:47Z</time>
      </trkpt>
      <trkpt lat="46.36681" lon="5.76108">
        <ele>634.61</ele>
        <time>2019-05-08T07:11:58Z</time>
      </trkpt>
      <trkpt lat="46.36666" lon="5.7611">
        <ele>636.32</ele>
        <time>2019-05-08T07:12:08Z</time>
      </trkpt>
      <trkpt lat="46.3665" lon="5.76101">
        <ele>637.9</ele>
        <time>2019-05-08T07:12:20Z</time>
      </trkpt>
      <trkpt lat="46.36643" lon="5.76084">
        <ele>639.59</ele>
        <time>2019-05-08T07:12:34Z</time>
      </trkpt>
      <trkpt lat="46.36633" lon="5.76067">
        <ele>642.22</ele>
        <time>2019-05-08T07:12:48Z</time>
      </trkpt>
      <trkpt lat="46.36632" lon="5.76066">
        <ele>642.23</ele>
        <time>2019-05-08T07:12:49Z</time>
      </trkpt>
      <trkpt lat="46.36617" lon="5.7604">
        <ele>644.66</ele>
        <time>2019-05-08T07:13:05Z</time>
      </trkpt>
      <trkpt lat="46.36603" lon="5.76023">
        <ele>647.15</ele>
        <time>2019-05-08T07:13:18Z</time>
      </trkpt>
      <trkpt lat="46.3659" lon="5.76001">
        <ele>647.83</ele>
        <time>2019-05-08T07:13:33Z</time>
      </trkpt>
      <trkpt lat="46.36575" lon="5.7598">
        <ele>649.59</ele>
        <time>2019-05-08T07:13:46Z</time>
      </trkpt>
      <trkpt lat="46.36564" lon="5.75964">
        <ele>651.3</ele>
        <time>2019-05-08T07:14:00Z</time>
      </trkpt>
      <trkpt lat="46.3655" lon="5.75933">
        <ele>652.8</ele>
        <time>2019-05-08T07:14:14Z</time>
      </trkpt>
      <trkpt lat="46.36541" lon="5.75904">
        <ele>652.64</ele>
        <time>2019-05-08T07:14:29Z</time>
      </trkpt>
      <trkpt lat="46.36538" lon="5.759">
        <ele>652.61</ele>
        <time>2019-05-08T07:14:33Z</time>
      </trkpt>
      <trkpt lat="46.36544" lon="5.75863">
        <ele>652.47</ele>
        <time>2019-05-08T07:14:49Z</time>
      </trkpt>
      <trkpt lat="46.36545" lon="5.75857">
        <ele>649.85</ele>
        <time>2019-05-08T07:14:51Z</time>
      </trkpt>
      <trkpt lat="46.36545" lon="5.75813">
        <ele>647.23</ele>
        <time>2019-05-08T07:15:06Z</time>
      </trkpt>
      <trkpt lat="46.36545" lon="5.75771">
        <ele>645.72</ele>
        <time>2019-05-08T07:15:21Z</time>
      </trkpt>
      <trkpt lat="46.36548" lon="5.75745">
        <ele>644.14</ele>
        <time>2019-05-08T07:15:31Z</time>
      </trkpt>
      <trkpt lat="46.3656" lon="5.75725">
        <ele>643.42</ele>
        <time>2019-05-08T07:15:42Z</time>
      </trkpt>
      <trkpt lat="46.36566" lon="5.75722">
        <ele>642.5</ele>
        <time>2019-05-08T07:15:45Z</time>
      </trkpt>
      <trkpt lat="46.36568" lon="5.75722">
        <ele>642.53</ele>
        <time>2019-05-08T07:15:47Z</time>
      </trkpt>
      <trkpt lat="46.36589" lon="5.75714">
        <ele>640.96</ele>
        <time>2019-05-08T07:16:02Z</time>
      </trkpt>
      <trkpt lat="46.36606" lon="5.75698">
        <ele>640.09</ele>
        <time>2019-05-08T07:16:16Z</time>
      </trkpt>
      <trkpt lat="46.3661" lon="5.75689">
        <ele>640.09</ele>
        <time>2019-05-08T07:16:21Z</time>
      </trkpt>
      <trkpt lat="46.36617" lon="5.7568">
        <ele>639.15</ele>
        <time>2019-05-08T07:16:25Z</time>
      </trkpt>
      <trkpt lat="46.36625" lon="5.75671">
        <ele>639.13</ele>
        <time>2019-05-08T07:16:32Z</time>
      </trkpt>
      <trkpt lat="46.36626" lon="5.75671">
        <ele>639.12</ele>
        <time>2019-05-08T07:16:33Z</time>
      </trkpt>
      <trkpt lat="46.36627" lon="5.7567">
        <ele>639.13</ele>
        <time>2019-05-08T07:16:34Z</time>
      </trkpt>
      <trkpt lat="46.36633" lon="5.75654">
        <ele>639.1</ele>
        <time>2019-05-08T07:16:39Z</time>
      </trkpt>
      <trkpt lat="46.36635" lon="5.75653">
        <ele>639.1</ele>
        <time>2019-05-08T07:16:40Z</time>
      </trkpt>
      <trkpt lat="46.36637" lon="5.7565">
        <ele>639.1</ele>
        <time>2019-05-08T07:16:41Z</time>
      </trkpt>
      <trkpt lat="46.36639" lon="5.7565">
        <ele>639.1</ele>
        <time>2019-05-08T07:16:42Z</time>
      </trkpt>
      <trkpt lat="46.3666" lon="5.75636">
        <ele>638.16</ele>
        <time>2019-05-08T07:16:55Z</time>
      </trkpt>
      <trkpt lat="46.36662" lon="5.75635">
        <ele>638.13</ele>
        <time>2019-05-08T07:16:58Z</time>
      </trkpt>
      <trkpt lat="46.36665" lon="5.75626">
        <ele>638.09</ele>
        <time>2019-05-08T07:17:01Z</time>
      </trkpt>
      <trkpt lat="46.36673" lon="5.75612">
        <ele>638.02</ele>
        <time>2019-05-08T07:17:08Z</time>
      </trkpt>
      <trkpt lat="46.36677" lon="5.756">
        <ele>637.09</ele>
        <time>2019-05-08T07:17:14Z</time>
      </trkpt>
      <trkpt lat="46.36678" lon="5.75591">
        <ele>637.04</ele>
        <time>2019-05-08T07:17:17Z</time>
      </trkpt>
      <trkpt lat="46.36677" lon="5.75575">
        <ele>636.08</ele>
        <time>2019-05-08T07:17:21Z</time>
      </trkpt>
      <trkpt lat="46.36676" lon="5.75561">
        <ele>634.22</ele>
        <time>2019-05-08T07:17:27Z</time>
      </trkpt>
      <trkpt lat="46.36672" lon="5.75549">
        <ele>632.5</ele>
        <time>2019-05-08T07:17:32Z</time>
      </trkpt>
      <trkpt lat="46.3665" lon="5.75518">
        <ele>628.69</ele>
        <time>2019-05-08T07:17:48Z</time>
      </trkpt>
      <trkpt lat="46.36646" lon="5.75515">
        <ele>627.64</ele>
        <time>2019-05-08T07:17:51Z</time>
      </trkpt>
      <trkpt lat="46.36634" lon="5.75502">
        <ele>625.81</ele>
        <time>2019-05-08T07:17:58Z</time>
      </trkpt>
      <trkpt lat="46.36623" lon="5.75497">
        <ele>623.97</ele>
        <time>2019-05-08T07:18:04Z</time>
      </trkpt>
      <trkpt lat="46.36618" lon="5.75489">
        <ele>623.01</ele>
        <time>2019-05-08T07:18:08Z</time>
      </trkpt>
      <trkpt lat="46.366" lon="5.75461">
        <ele>622</ele>
        <time>2019-05-08T07:18:23Z</time>
      </trkpt>
      <trkpt lat="46.36599" lon="5.75458">
        <ele>622.03</ele>
        <time>2019-05-08T07:18:24Z</time>
      </trkpt>
      <trkpt lat="46.36597" lon="5.75447">
        <ele>622.02</ele>
        <time>2019-05-08T07:18:28Z</time>
      </trkpt>
      <trkpt lat="46.36597" lon="5.75418">
        <ele>622</ele>
        <time>2019-05-08T07:18:38Z</time>
      </trkpt>
      <trkpt lat="46.36598" lon="5.7541">
        <ele>621.99</ele>
        <time>2019-05-08T07:18:42Z</time>
      </trkpt>
      <trkpt lat="46.36597" lon="5.75396">
        <ele>621.19</ele>
        <time>2019-05-08T07:18:49Z</time>
      </trkpt>
      <trkpt lat="46.36576" lon="5.7538">
        <ele>619.18</ele>
        <time>2019-05-08T07:19:04Z</time>
      </trkpt>
      <trkpt lat="46.36554" lon="5.75364">
        <ele>616.09</ele>
        <time>2019-05-08T07:19:18Z</time>
      </trkpt>
      <trkpt lat="46.36549" lon="5.75332">
        <ele>613.93</ele>
        <time>2019-05-08T07:19:31Z</time>
      </trkpt>
      <trkpt lat="46.3655" lon="5.75323">
        <ele>612.36</ele>
        <time>2019-05-08T07:19:35Z</time>
      </trkpt>
      <trkpt lat="46.3655" lon="5.75309">
        <ele>612.36</ele>
        <time>2019-05-08T07:19:41Z</time>
      </trkpt>
      <trkpt lat="46.36551" lon="5.7528">
        <ele>607.73</ele>
        <time>2019-05-08T07:19:55Z</time>
      </trkpt>
      <trkpt lat="46.3655" lon="5.75275">
        <ele>606.89</ele>
        <time>2019-05-08T07:19:58Z</time>
      </trkpt>
      <trkpt lat="46.36547" lon="5.75251">
        <ele>603.42</ele>
        <time>2019-05-08T07:20:10Z</time>
      </trkpt>
      <trkpt lat="46.36538" lon="5.75233">
        <ele>602.39</ele>
        <time>2019-05-08T07:20:17Z</time>
      </trkpt>
      <trkpt lat="46.36529" lon="5.75233">
        <ele>600.85</ele>
        <time>2019-05-08T07:20:31Z</time>
      </trkpt>
      <trkpt lat="46.36522" lon="5.75228">
        <ele>600.89</ele>
        <time>2019-05-08T07:21:01Z</time>
      </trkpt>
      <trkpt lat="46.3652" lon="5.75223">
        <ele>600.97</ele>
        <time>2019-05-08T07:21:32Z</time>
      </trkpt>
      <trkpt lat="46.36518" lon="5.7522">
        <ele>601.07</ele>
        <time>2019-05-08T07:22:02Z</time>
      </trkpt>
      <trkpt lat="46.36517" lon="5.75222">
        <ele>601.17</ele>
        <time>2019-05-08T07:22:33Z</time>
      </trkpt>
      <trkpt lat="46.36516" lon="5.75222">
        <ele>601.27</ele>
        <time>2019-05-08T07:23:04Z</time>
      </trkpt>
      <trkpt lat="46.36514" lon="5.75218">
        <ele>601.38</ele>
        <time>2019-05-08T07:23:30Z</time>
      </trkpt>
      <trkpt lat="46.3651" lon="5.75222">
        <ele>601.49</ele>
        <time>2019-05-08T07:23:53Z</time>
      </trkpt>
      <trkpt lat="46.36517" lon="5.75226">
        <ele>601.61</ele>
        <time>2019-05-08T07:24:19Z</time>
      </trkpt>
      <trkpt lat="46.36525" lon="5.75223">
        <ele>601.69</ele>
        <time>2019-05-08T07:24:31Z</time>
      </trkpt>
      <trkpt lat="46.36515" lon="5.75209">
        <ele>600.14</ele>
        <time>2019-05-08T07:24:39Z</time>
      </trkpt>
      <trkpt lat="46.36508" lon="5.75199">
        <ele>599.41</ele>
        <time>2019-05-08T07:24:44Z</time>
      </trkpt>
      <trkpt lat="46.36502" lon="5.75194">
        <ele>599.45</ele>
        <time>2019-05-08T07:24:48Z</time>
      </trkpt>
      <trkpt lat="46.36499" lon="5.7519">
        <ele>599.47</ele>
        <time>2019-05-08T07:24:51Z</time>
      </trkpt>
      <trkpt lat="46.36496" lon="5.75183">
        <ele>598.61</ele>
        <time>2019-05-08T07:24:55Z</time>
      </trkpt>
      <trkpt lat="46.36481" lon="5.75161">
        <ele>598.67</ele>
        <time>2019-05-08T07:25:08Z</time>
      </trkpt>
      <trkpt lat="46.36463" lon="5.75136">
        <ele>598.72</ele>
        <time>2019-05-08T07:25:25Z</time>
      </trkpt>
      <trkpt lat="46.36459" lon="5.75133">
        <ele>598.71</ele>
        <time>2019-05-08T07:25:28Z</time>
      </trkpt>
      <trkpt lat="46.36451" lon="5.75123">
        <ele>598.66</ele>
        <time>2019-05-08T07:25:35Z</time>
      </trkpt>
      <trkpt lat="46.36448" lon="5.75108">
        <ele>598.63</ele>
        <time>2019-05-08T07:25:48Z</time>
      </trkpt>
      <trkpt lat="46.36445" lon="5.75105">
        <ele>598.76</ele>
        <time>2019-05-08T07:26:15Z</time>
      </trkpt>
      <trkpt lat="46.36441" lon="5.75107">
        <ele>598.85</ele>
        <time>2019-05-08T07:26:29Z</time>
      </trkpt>
      <trkpt lat="46.36419" lon="5.7509">
        <ele>597.9</ele>
        <time>2019-05-08T07:26:45Z</time>
      </trkpt>
      <trkpt lat="46.36404" lon="5.75079">
        <ele>597.12</ele>
        <time>2019-05-08T07:26:56Z</time>
      </trkpt>
      <trkpt lat="46.3639" lon="5.75065">
        <ele>594.44</ele>
        <time>2019-05-08T07:27:05Z</time>
      </trkpt>
      <trkpt lat="46.3638" lon="5.75048">
        <ele>591.44</ele>
        <time>2019-05-08T07:27:13Z</time>
      </trkpt>
      <trkpt lat="46.36359" lon="5.75033">
        <ele>588.98</ele>
        <time>2019-05-08T07:27:25Z</time>
      </trkpt>
      <trkpt lat="46.3635" lon="5.75029">
        <ele>588.23</ele>
        <time>2019-05-08T07:27:31Z</time>
      </trkpt>
      <trkpt lat="46.36344" lon="5.75015">
        <ele>586.54</ele>
        <time>2019-05-08T07:27:40Z</time>
      </trkpt>
      <trkpt lat="46.36345" lon="5.75011">
        <ele>585.32</ele>
        <time>2019-05-08T07:27:42Z</time>
      </trkpt>
      <trkpt lat="46.36347" lon="5.75007">
        <ele>585.36</ele>
        <time>2019-05-08T07:27:46Z</time>
      </trkpt>
      <trkpt lat="46.36359" lon="5.74985">
        <ele>580.76</ele>
        <time>2019-05-08T07:28:01Z</time>
      </trkpt>
      <trkpt lat="46.36374" lon="5.74967">
        <ele>578.67</ele>
        <time>2019-05-08T07:28:13Z</time>
      </trkpt>
      <trkpt lat="46.36375" lon="5.74966">
        <ele>578.67</ele>
        <time>2019-05-08T07:28:14Z</time>
      </trkpt>
      <trkpt lat="46.36375" lon="5.74963">
        <ele>577.68</ele>
        <time>2019-05-08T07:28:21Z</time>
      </trkpt>
      <trkpt lat="46.36378" lon="5.7496">
        <ele>576.85</ele>
        <time>2019-05-08T07:28:24Z</time>
      </trkpt>
      <trkpt lat="46.36385" lon="5.74956">
        <ele>576.87</ele>
        <time>2019-05-08T07:28:29Z</time>
      </trkpt>
      <trkpt lat="46.36407" lon="5.74935">
        <ele>576.97</ele>
        <time>2019-05-08T07:28:42Z</time>
      </trkpt>
      <trkpt lat="46.3641" lon="5.74924">
        <ele>579.26</ele>
        <time>2019-05-08T07:28:53Z</time>
      </trkpt>
      <trkpt lat="46.36413" lon="5.74904">
        <ele>582.59</ele>
        <time>2019-05-08T07:29:15Z</time>
      </trkpt>
      <trkpt lat="46.36415" lon="5.74892">
        <ele>585.64</ele>
        <time>2019-05-08T07:29:23Z</time>
      </trkpt>
      <trkpt lat="46.36416" lon="5.74878">
        <ele>586.66</ele>
        <time>2019-05-08T07:29:28Z</time>
      </trkpt>
      <trkpt lat="46.36417" lon="5.74857">
        <ele>591.29</ele>
        <time>2019-05-08T07:29:42Z</time>
      </trkpt>
      <trkpt lat="46.36409" lon="5.74831">
        <ele>594.94</ele>
        <time>2019-05-08T07:29:58Z</time>
      </trkpt>
      <trkpt lat="46.36398" lon="5.74811">
        <ele>598.15</ele>
        <time>2019-05-08T07:30:11Z</time>
      </trkpt>
      <trkpt lat="46.36389" lon="5.74794">
        <ele>601.79</ele>
        <time>2019-05-08T07:30:25Z</time>
      </trkpt>
      <trkpt lat="46.36389" lon="5.74782">
        <ele>602.56</ele>
        <time>2019-05-08T07:30:33Z</time>
      </trkpt>
      <trkpt lat="46.36399" lon="5.74772">
        <ele>601.04</ele>
        <time>2019-05-08T07:30:45Z</time>
      </trkpt>
      <trkpt lat="46.36399" lon="5.74771">
        <ele>608.71</ele>
        <time>2019-05-08T07:30:46Z</time>
      </trkpt>
      <trkpt lat="46.36409" lon="5.7476">
        <ele>608.58</ele>
        <time>2019-05-08T07:31:00Z</time>
      </trkpt>
      <trkpt lat="46.36424" lon="5.74752">
        <ele>611.59</ele>
        <time>2019-05-08T07:31:14Z</time>
      </trkpt>
      <trkpt lat="46.3644" lon="5.74744">
        <ele>615.22</ele>
        <time>2019-05-08T07:31:29Z</time>
      </trkpt>
      <trkpt lat="46.36453" lon="5.74735">
        <ele>617.69</ele>
        <time>2019-05-08T07:31:44Z</time>
      </trkpt>
      <trkpt lat="46.36456" lon="5.7473">
        <ele>618.75</ele>
        <time>2019-05-08T07:31:47Z</time>
      </trkpt>
      <trkpt lat="46.36468" lon="5.74718">
        <ele>622.09</ele>
        <time>2019-05-08T07:32:01Z</time>
      </trkpt>
      <trkpt lat="46.36477" lon="5.74706">
        <ele>625.57</ele>
        <time>2019-05-08T07:32:15Z</time>
      </trkpt>
      <trkpt lat="46.36477" lon="5.74705">
        <ele>625.55</ele>
        <time>2019-05-08T07:32:16Z</time>
      </trkpt>
      <trkpt lat="46.36482" lon="5.74698">
        <ele>628.85</ele>
        <time>2019-05-08T07:32:26Z</time>
      </trkpt>
      <trkpt lat="46.36488" lon="5.74679">
        <ele>631.53</ele>
        <time>2019-05-08T07:32:39Z</time>
      </trkpt>
      <trkpt lat="46.36499" lon="5.74663">
        <ele>633.47</ele>
        <time>2019-05-08T07:32:54Z</time>
      </trkpt>
      <trkpt lat="46.36503" lon="5.74659">
        <ele>633.47</ele>
        <time>2019-05-08T07:32:58Z</time>
      </trkpt>
      <trkpt lat="46.36519" lon="5.74649">
        <ele>633.31</ele>
        <time>2019-05-08T07:33:12Z</time>
      </trkpt>
      <trkpt lat="46.3652" lon="5.74648">
        <ele>629.27</ele>
        <time>2019-05-08T07:33:13Z</time>
      </trkpt>
      <trkpt lat="46.36522" lon="5.74647">
        <ele>633.27</ele>
        <time>2019-05-08T07:33:14Z</time>
      </trkpt>
      <trkpt lat="46.36534" lon="5.74643">
        <ele>633.15</ele>
        <time>2019-05-08T07:33:23Z</time>
      </trkpt>
      <trkpt lat="46.36539" lon="5.74642">
        <ele>630.41</ele>
        <time>2019-05-08T07:33:28Z</time>
      </trkpt>
      <trkpt lat="46.36559" lon="5.74625">
        <ele>629.73</ele>
        <time>2019-05-08T07:33:42Z</time>
      </trkpt>
      <trkpt lat="46.36581" lon="5.7459">
        <ele>628.86</ele>
        <time>2019-05-08T07:34:00Z</time>
      </trkpt>
      <trkpt lat="46.36594" lon="5.74559">
        <ele>627.98</ele>
        <time>2019-05-08T07:34:15Z</time>
      </trkpt>
      <trkpt lat="46.36597" lon="5.74557">
        <ele>628</ele>
        <time>2019-05-08T07:34:17Z</time>
      </trkpt>
      <trkpt lat="46.36601" lon="5.74553">
        <ele>627.21</ele>
        <time>2019-05-08T07:34:21Z</time>
      </trkpt>
      <trkpt lat="46.36607" lon="5.74553">
        <ele>627.17</ele>
        <time>2019-05-08T07:34:25Z</time>
      </trkpt>
      <trkpt lat="46.36617" lon="5.74548">
        <ele>627.14</ele>
        <time>2019-05-08T07:34:30Z</time>
      </trkpt>
      <trkpt lat="46.36628" lon="5.74539">
        <ele>626.33</ele>
        <time>2019-05-08T07:34:38Z</time>
      </trkpt>
      <trkpt lat="46.36647" lon="5.74526">
        <ele>626.25</ele>
        <time>2019-05-08T07:34:51Z</time>
      </trkpt>
      <trkpt lat="46.36672" lon="5.74522">
        <ele>626.15</ele>
        <time>2019-05-08T07:35:05Z</time>
      </trkpt>
      <trkpt lat="46.36694" lon="5.74524">
        <ele>626.03</ele>
        <time>2019-05-08T07:35:19Z</time>
      </trkpt>
      <trkpt lat="46.36699" lon="5.74526">
        <ele>628.26</ele>
        <time>2019-05-08T07:35:23Z</time>
      </trkpt>
      <trkpt lat="46.36727" lon="5.74525">
        <ele>629.65</ele>
        <time>2019-05-08T07:35:40Z</time>
      </trkpt>
      <trkpt lat="46.36751" lon="5.74521">
        <ele>630.33</ele>
        <time>2019-05-08T07:35:57Z</time>
      </trkpt>
      <trkpt lat="46.36761" lon="5.74521">
        <ele>630.16</ele>
        <time>2019-05-08T07:36:04Z</time>
      </trkpt>
      <trkpt lat="46.36774" lon="5.74516">
        <ele>630.62</ele>
        <time>2019-05-08T07:36:21Z</time>
      </trkpt>
      <trkpt lat="46.36786" lon="5.74513">
        <ele>631.88</ele>
        <time>2019-05-08T07:36:39Z</time>
      </trkpt>
      <trkpt lat="46.36796" lon="5.7452">
        <ele>631.76</ele>
        <time>2019-05-08T07:36:44Z</time>
      </trkpt>
      <trkpt lat="46.36817" lon="5.74529">
        <ele>631.34</ele>
        <time>2019-05-08T07:37:00Z</time>
      </trkpt>
      <trkpt lat="46.36836" lon="5.74542">
        <ele>631.04</ele>
        <time>2019-05-08T07:37:11Z</time>
      </trkpt>
      <trkpt lat="46.36853" lon="5.74555">
        <ele>630.65</ele>
        <time>2019-05-08T07:37:24Z</time>
      </trkpt>
      <trkpt lat="46.36862" lon="5.74566">
        <ele>630.35</ele>
        <time>2019-05-08T07:37:35Z</time>
      </trkpt>
      <trkpt lat="46.36871" lon="5.74588">
        <ele>629.85</ele>
        <time>2019-05-08T07:37:48Z</time>
      </trkpt>
      <trkpt lat="46.36881" lon="5.74613">
        <ele>629.15</ele>
        <time>2019-05-08T07:38:04Z</time>
      </trkpt>
      <trkpt lat="46.36903" lon="5.74643">
        <ele>629.28</ele>
        <time>2019-05-08T07:38:20Z</time>
      </trkpt>
      <trkpt lat="46.36926" lon="5.74645">
        <ele>628.51</ele>
        <time>2019-05-08T07:38:35Z</time>
      </trkpt>
      <trkpt lat="46.36945" lon="5.74651">
        <ele>627.96</ele>
        <time>2019-05-08T07:38:46Z</time>
      </trkpt>
      <trkpt lat="46.3697" lon="5.74659">
        <ele>627.26</ele>
        <time>2019-05-08T07:39:00Z</time>
      </trkpt>
      <trkpt lat="46.36991" lon="5.74666">
        <ele>626.6</ele>
        <time>2019-05-08T07:39:15Z</time>
      </trkpt>
      <trkpt lat="46.36995" lon="5.74665">
        <ele>626.51</ele>
        <time>2019-05-08T07:39:18Z</time>
      </trkpt>
      <trkpt lat="46.36999" lon="5.74666">
        <ele>626.37</ele>
        <time>2019-05-08T07:39:21Z</time>
      </trkpt>
      <trkpt lat="46.37008" lon="5.7467">
        <ele>623.84</ele>
        <time>2019-05-08T07:39:27Z</time>
      </trkpt>
      <trkpt lat="46.37033" lon="5.74674">
        <ele>622.41</ele>
        <time>2019-05-08T07:39:40Z</time>
      </trkpt>
      <trkpt lat="46.37061" lon="5.74666">
        <ele>621.95</ele>
        <time>2019-05-08T07:39:55Z</time>
      </trkpt>
      <trkpt lat="46.37081" lon="5.74678">
        <ele>623.91</ele>
        <time>2019-05-08T07:40:12Z</time>
      </trkpt>
      <trkpt lat="46.37104" lon="5.74691">
        <ele>623.96</ele>
        <time>2019-05-08T07:40:29Z</time>
      </trkpt>
      <trkpt lat="46.3712" lon="5.74714">
        <ele>624.86</ele>
        <time>2019-05-08T07:40:48Z</time>
      </trkpt>
      <trkpt lat="46.37139" lon="5.74733">
        <ele>624.92</ele>
        <time>2019-05-08T07:41:06Z</time>
      </trkpt>
      <trkpt lat="46.37161" lon="5.74748">
        <ele>626.52</ele>
        <time>2019-05-08T07:41:24Z</time>
      </trkpt>
      <trkpt lat="46.37182" lon="5.74763">
        <ele>627.2</ele>
        <time>2019-05-08T07:41:45Z</time>
      </trkpt>
      <trkpt lat="46.37204" lon="5.7477">
        <ele>627.48</ele>
        <time>2019-05-08T07:41:58Z</time>
      </trkpt>
      <trkpt lat="46.3723" lon="5.74772">
        <ele>629.29</ele>
        <time>2019-05-08T07:42:13Z</time>
      </trkpt>
      <trkpt lat="46.3725" lon="5.74781">
        <ele>630.22</ele>
        <time>2019-05-08T07:42:29Z</time>
      </trkpt>
      <trkpt lat="46.37253" lon="5.74782">
        <ele>630.14</ele>
        <time>2019-05-08T07:42:31Z</time>
      </trkpt>
      <trkpt lat="46.3726" lon="5.74782">
        <ele>630.64</ele>
        <time>2019-05-08T07:42:38Z</time>
      </trkpt>
      <trkpt lat="46.37269" lon="5.74787">
        <ele>631.16</ele>
        <time>2019-05-08T07:42:44Z</time>
      </trkpt>
      <trkpt lat="46.37303" lon="5.74792">
        <ele>633.08</ele>
        <time>2019-05-08T07:43:01Z</time>
      </trkpt>
      <trkpt lat="46.37305" lon="5.74791">
        <ele>633.05</ele>
        <time>2019-05-08T07:43:02Z</time>
      </trkpt>
      <trkpt lat="46.37325" lon="5.74789">
        <ele>636.09</ele>
        <time>2019-05-08T07:43:17Z</time>
      </trkpt>
      <trkpt lat="46.37346" lon="5.74792">
        <ele>637.43</ele>
        <time>2019-05-08T07:43:29Z</time>
      </trkpt>
      <trkpt lat="46.37369" lon="5.74793">
        <ele>638.76</ele>
        <time>2019-05-08T07:43:45Z</time>
      </trkpt>
      <trkpt lat="46.3739" lon="5.74803">
        <ele>640.2</ele>
        <time>2019-05-08T07:43:58Z</time>
      </trkpt>
      <trkpt lat="46.37403" lon="5.74809">
        <ele>640.9</ele>
        <time>2019-05-08T07:44:07Z</time>
      </trkpt>
      <trkpt lat="46.37428" lon="5.7482">
        <ele>642.36</ele>
        <time>2019-05-08T07:44:23Z</time>
      </trkpt>
      <trkpt lat="46.37457" lon="5.74843">
        <ele>643.02</ele>
        <time>2019-05-08T07:44:39Z</time>
      </trkpt>
      <trkpt lat="46.37477" lon="5.74869">
        <ele>643</ele>
        <time>2019-05-08T07:44:53Z</time>
      </trkpt>
      <trkpt lat="46.37481" lon="5.74878">
        <ele>643.04</ele>
        <time>2019-05-08T07:44:58Z</time>
      </trkpt>
      <trkpt lat="46.37499" lon="5.74903">
        <ele>643.11</ele>
        <time>2019-05-08T07:45:12Z</time>
      </trkpt>
      <trkpt lat="46.3752" lon="5.7492">
        <ele>644.81</ele>
        <time>2019-05-08T07:45:28Z</time>
      </trkpt>
      <trkpt lat="46.37537" lon="5.74934">
        <ele>646.47</ele>
        <time>2019-05-08T07:45:43Z</time>
      </trkpt>
      <trkpt lat="46.37554" lon="5.74961">
        <ele>647.36</ele>
        <time>2019-05-08T07:46:00Z</time>
      </trkpt>
      <trkpt lat="46.3756" lon="5.74974">
        <ele>648.18</ele>
        <time>2019-05-08T07:46:06Z</time>
      </trkpt>
      <trkpt lat="46.37572" lon="5.75009">
        <ele>648.22</ele>
        <time>2019-05-08T07:46:19Z</time>
      </trkpt>
      <trkpt lat="46.37578" lon="5.75027">
        <ele>649.02</ele>
        <time>2019-05-08T07:46:27Z</time>
      </trkpt>
      <trkpt lat="46.3758" lon="5.75031">
        <ele>649.03</ele>
        <time>2019-05-08T07:46:29Z</time>
      </trkpt>
      <trkpt lat="46.37593" lon="5.75059">
        <ele>650.61</ele>
        <time>2019-05-08T07:46:42Z</time>
      </trkpt>
      <trkpt lat="46.37595" lon="5.75061">
        <ele>651.46</ele>
        <time>2019-05-08T07:46:43Z</time>
      </trkpt>
      <trkpt lat="46.37602" lon="5.75072">
        <ele>652.22</ele>
        <time>2019-05-08T07:46:54Z</time>
      </trkpt>
      <trkpt lat="46.37616" lon="5.75095">
        <ele>653.77</ele>
        <time>2019-05-08T07:47:09Z</time>
      </trkpt>
      <trkpt lat="46.37632" lon="5.75122">
        <ele>657.14</ele>
        <time>2019-05-08T07:47:24Z</time>
      </trkpt>
      <trkpt lat="46.37633" lon="5.75123">
        <ele>657.13</ele>
        <time>2019-05-08T07:47:25Z</time>
      </trkpt>
      <trkpt lat="46.37645" lon="5.7514">
        <ele>658.82</ele>
        <time>2019-05-08T07:47:40Z</time>
      </trkpt>
      <trkpt lat="46.37651" lon="5.7517">
        <ele>661.4</ele>
        <time>2019-05-08T07:47:53Z</time>
      </trkpt>
      <trkpt lat="46.37636" lon="5.75188">
        <ele>663.29</ele>
        <time>2019-05-08T07:48:06Z</time>
      </trkpt>
      <trkpt lat="46.37629" lon="5.75205">
        <ele>664.2</ele>
        <time>2019-05-08T07:48:15Z</time>
      </trkpt>
      <trkpt lat="46.37611" lon="5.7523">
        <ele>667.26</ele>
        <time>2019-05-08T07:48:33Z</time>
      </trkpt>
      <trkpt lat="46.37597" lon="5.75255">
        <ele>670.12</ele>
        <time>2019-05-08T07:48:49Z</time>
      </trkpt>
      <trkpt lat="46.37585" lon="5.75275">
        <ele>672.89</ele>
        <time>2019-05-08T07:49:02Z</time>
      </trkpt>
      <trkpt lat="46.37582" lon="5.75284">
        <ele>674.02</ele>
        <time>2019-05-08T07:49:08Z</time>
      </trkpt>
      <trkpt lat="46.37579" lon="5.75289">
        <ele>674.97</ele>
        <time>2019-05-08T07:49:12Z</time>
      </trkpt>
      <trkpt lat="46.37559" lon="5.75304">
        <ele>677.83</ele>
        <time>2019-05-08T07:49:27Z</time>
      </trkpt>
      <trkpt lat="46.37543" lon="5.75319">
        <ele>677.89</ele>
        <time>2019-05-08T07:49:38Z</time>
      </trkpt>
      <trkpt lat="46.37535" lon="5.75354">
        <ele>678.04</ele>
        <time>2019-05-08T07:49:54Z</time>
      </trkpt>
      <trkpt lat="46.37519" lon="5.75385">
        <ele>678.19</ele>
        <time>2019-05-08T07:50:11Z</time>
      </trkpt>
      <trkpt lat="46.375" lon="5.7541">
        <ele>678.3</ele>
        <time>2019-05-08T07:50:27Z</time>
      </trkpt>
      <trkpt lat="46.37495" lon="5.75414">
        <ele>676.06</ele>
        <time>2019-05-08T07:50:31Z</time>
      </trkpt>
      <trkpt lat="46.37473" lon="5.75437">
        <ele>675.26</ele>
        <time>2019-05-08T07:50:48Z</time>
      </trkpt>
      <trkpt lat="46.37466" lon="5.75483">
        <ele>673.58</ele>
        <time>2019-05-08T07:51:05Z</time>
      </trkpt>
      <trkpt lat="46.37462" lon="5.75517">
        <ele>672.97</ele>
        <time>2019-05-08T07:51:20Z</time>
      </trkpt>
      <trkpt lat="46.37444" lon="5.75541">
        <ele>673.09</ele>
        <time>2019-05-08T07:51:35Z</time>
      </trkpt>
      <trkpt lat="46.37414" lon="5.7556">
        <ele>672.31</ele>
        <time>2019-05-08T07:51:55Z</time>
      </trkpt>
      <trkpt lat="46.37411" lon="5.75555">
        <ele>671.59</ele>
        <time>2019-05-08T07:52:00Z</time>
      </trkpt>
      <trkpt lat="46.37391" lon="5.75529">
        <ele>671.8</ele>
        <time>2019-05-08T07:52:18Z</time>
      </trkpt>
      <trkpt lat="46.37373" lon="5.75516">
        <ele>670.25</ele>
        <time>2019-05-08T07:52:33Z</time>
      </trkpt>
      <trkpt lat="46.37365" lon="5.75515">
        <ele>668.26</ele>
        <time>2019-05-08T07:52:41Z</time>
      </trkpt>
      <trkpt lat="46.37361" lon="5.75506">
        <ele>667.45</ele>
        <time>2019-05-08T07:52:47Z</time>
      </trkpt>
      <trkpt lat="46.37344" lon="5.75485">
        <ele>665.78</ele>
        <time>2019-05-08T07:53:02Z</time>
      </trkpt>
      <trkpt lat="46.37328" lon="5.75493">
        <ele>665.8</ele>
        <time>2019-05-08T07:53:17Z</time>
      </trkpt>
      <trkpt lat="46.37326" lon="5.75495">
        <ele>668.19</ele>
        <time>2019-05-08T07:53:19Z</time>
      </trkpt>
      <trkpt lat="46.37312" lon="5.75511">
        <ele>669.68</ele>
        <time>2019-05-08T07:53:32Z</time>
      </trkpt>
      <trkpt lat="46.37301" lon="5.75516">
        <ele>669.58</ele>
        <time>2019-05-08T07:53:42Z</time>
      </trkpt>
      <trkpt lat="46.37293" lon="5.7551">
        <ele>669.5</ele>
        <time>2019-05-08T07:53:47Z</time>
      </trkpt>
      <trkpt lat="46.37269" lon="5.75502">
        <ele>669.28</ele>
        <time>2019-05-08T07:54:01Z</time>
      </trkpt>
      <trkpt lat="46.37252" lon="5.755">
        <ele>669.07</ele>
        <time>2019-05-08T07:54:14Z</time>
      </trkpt>
      <trkpt lat="46.3725" lon="5.755">
        <ele>666.71</ele>
        <time>2019-05-08T07:54:16Z</time>
      </trkpt>
      <trkpt lat="46.37227" lon="5.75499">
        <ele>663.37</ele>
        <time>2019-05-08T07:54:32Z</time>
      </trkpt>
      <trkpt lat="46.37195" lon="5.75492">
        <ele>660.43</ele>
        <time>2019-05-08T07:54:52Z</time>
      </trkpt>
      <trkpt lat="46.37178" lon="5.75489">
        <ele>658.18</ele>
        <time>2019-05-08T07:55:01Z</time>
      </trkpt>
      <trkpt lat="46.37156" lon="5.75489">
        <ele>655.93</ele>
        <time>2019-05-08T07:55:13Z</time>
      </trkpt>
      <trkpt lat="46.37141" lon="5.75489">
        <ele>653.47</ele>
        <time>2019-05-08T07:55:23Z</time>
      </trkpt>
      <trkpt lat="46.37135" lon="5.75488">
        <ele>652.49</ele>
        <time>2019-05-08T07:55:27Z</time>
      </trkpt>
      <trkpt lat="46.37119" lon="5.7548">
        <ele>652.25</ele>
        <time>2019-05-08T07:55:34Z</time>
      </trkpt>
      <trkpt lat="46.37111" lon="5.75475">
        <ele>651.15</ele>
        <time>2019-05-08T07:55:37Z</time>
      </trkpt>
      <trkpt lat="46.37088" lon="5.7546">
        <ele>648.87</ele>
        <time>2019-05-08T07:55:49Z</time>
      </trkpt>
      <trkpt lat="46.37074" lon="5.75452">
        <ele>645.76</ele>
        <time>2019-05-08T07:55:57Z</time>
      </trkpt>
      <trkpt lat="46.37049" lon="5.75434">
        <ele>643.2</ele>
        <time>2019-05-08T07:56:11Z</time>
      </trkpt>
      <trkpt lat="46.3704" lon="5.75422">
        <ele>640.11</ele>
        <time>2019-05-08T07:56:18Z</time>
      </trkpt>
      <trkpt lat="46.37026" lon="5.75409">
        <ele>636.88</ele>
        <time>2019-05-08T07:56:29Z</time>
      </trkpt>
      <trkpt lat="46.3701" lon="5.75396">
        <ele>633.73</ele>
        <time>2019-05-08T07:56:41Z</time>
      </trkpt>
      <trkpt lat="46.36997" lon="5.75387">
        <ele>631.24</ele>
        <time>2019-05-08T07:56:52Z</time>
      </trkpt>
      <trkpt lat="46.36993" lon="5.75388">
        <ele>630.11</ele>
        <time>2019-05-08T07:56:56Z</time>
      </trkpt>
      <trkpt lat="46.36987" lon="5.75385">
        <ele>629.11</ele>
        <time>2019-05-08T07:57:00Z</time>
      </trkpt>
      <trkpt lat="46.36982" lon="5.75381">
        <ele>625.73</ele>
        <time>2019-05-08T07:57:11Z</time>
      </trkpt>
      <trkpt lat="46.36979" lon="5.75383">
        <ele>624.34</ele>
        <time>2019-05-08T07:57:14Z</time>
      </trkpt>
      <trkpt lat="46.3697" lon="5.75387">
        <ele>620.74</ele>
        <time>2019-05-08T07:57:24Z</time>
      </trkpt>
      <trkpt lat="46.3697" lon="5.75388">
        <ele>620.7</ele>
        <time>2019-05-08T07:57:25Z</time>
      </trkpt>
      <trkpt lat="46.36958" lon="5.75399">
        <ele>617.49</ele>
        <time>2019-05-08T07:57:36Z</time>
      </trkpt>
      <trkpt lat="46.36945" lon="5.75409">
        <ele>614.29</ele>
        <time>2019-05-08T07:57:46Z</time>
      </trkpt>
      <trkpt lat="46.36942" lon="5.75413">
        <ele>612.98</ele>
        <time>2019-05-08T07:57:50Z</time>
      </trkpt>
      <trkpt lat="46.36933" lon="5.7542">
        <ele>610.27</ele>
        <time>2019-05-08T07:57:58Z</time>
      </trkpt>
      <trkpt lat="46.36929" lon="5.75435">
        <ele>608.49</ele>
        <time>2019-05-08T07:58:03Z</time>
      </trkpt>
      <trkpt lat="46.36922" lon="5.75471">
        <ele>605.45</ele>
        <time>2019-05-08T07:58:15Z</time>
      </trkpt>
      <trkpt lat="46.36922" lon="5.7548">
        <ele>605.41</ele>
        <time>2019-05-08T07:58:18Z</time>
      </trkpt>
      <trkpt lat="46.36914" lon="5.75523">
        <ele>604.48</ele>
        <time>2019-05-08T07:58:35Z</time>
      </trkpt>
      <trkpt lat="46.36904" lon="5.75527">
        <ele>606.93</ele>
        <time>2019-05-08T07:58:40Z</time>
      </trkpt>
      <trkpt lat="46.36887" lon="5.75541">
        <ele>608.66</ele>
        <time>2019-05-08T07:58:54Z</time>
      </trkpt>
      <trkpt lat="46.36871" lon="5.75552">
        <ele>612.11</ele>
        <time>2019-05-08T07:59:09Z</time>
      </trkpt>
      <trkpt lat="46.3686" lon="5.75552">
        <ele>613.02</ele>
        <time>2019-05-08T07:59:21Z</time>
      </trkpt>
      <trkpt lat="46.36837" lon="5.75547">
        <ele>614.96</ele>
        <time>2019-05-08T07:59:42Z</time>
      </trkpt>
      <trkpt lat="46.3682" lon="5.75539">
        <ele>616.14</ele>
        <time>2019-05-08T07:59:57Z</time>
      </trkpt>
      <trkpt lat="46.36816" lon="5.75537">
        <ele>616.17</ele>
        <time>2019-05-08T08:00:00Z</time>
      </trkpt>
      <trkpt lat="46.3681" lon="5.75539">
        <ele>616.23</ele>
        <time>2019-05-08T08:00:06Z</time>
      </trkpt>
      <trkpt lat="46.36808" lon="5.7554">
        <ele>616.25</ele>
        <time>2019-05-08T08:00:08Z</time>
      </trkpt>
      <trkpt lat="46.36806" lon="5.75541">
        <ele>616.27</ele>
        <time>2019-05-08T08:00:10Z</time>
      </trkpt>
      <trkpt lat="46.36793" lon="5.75546">
        <ele>617.15</ele>
        <time>2019-05-08T08:00:20Z</time>
      </trkpt>
      <trkpt lat="46.36783" lon="5.75551">
        <ele>618.09</ele>
        <time>2019-05-08T08:00:28Z</time>
      </trkpt>
      <trkpt lat="46.36768" lon="5.75552">
        <ele>620.73</ele>
        <time>2019-05-08T08:00:49Z</time>
      </trkpt>
      <trkpt lat="46.36782" lon="5.75562">
        <ele>622.29</ele>
        <time>2019-05-08T08:01:07Z</time>
      </trkpt>
      <trkpt lat="46.36807" lon="5.7558">
        <ele>624.67</ele>
        <time>2019-05-08T08:01:25Z</time>
      </trkpt>
      <trkpt lat="46.36838" lon="5.75603">
        <ele>626.16</ele>
        <time>2019-05-08T08:01:42Z</time>
      </trkpt>
      <trkpt lat="46.36867" lon="5.7562">
        <ele>626.66</ele>
        <time>2019-05-08T08:01:59Z</time>
      </trkpt>
      <trkpt lat="46.36879" lon="5.75627">
        <ele>626.54</ele>
        <time>2019-05-08T08:02:08Z</time>
      </trkpt>
      <trkpt lat="46.36886" lon="5.7563">
        <ele>626.44</ele>
        <time>2019-05-08T08:02:15Z</time>
      </trkpt>
      <trkpt lat="46.36909" lon="5.7565">
        <ele>626.26</ele>
        <time>2019-05-08T08:02:29Z</time>
      </trkpt>
      <trkpt lat="46.36911" lon="5.75652">
        <ele>626.24</ele>
        <time>2019-05-08T08:02:30Z</time>
      </trkpt>
      <trkpt lat="46.36933" lon="5.75664">
        <ele>625.97</ele>
        <time>2019-05-08T08:02:49Z</time>
      </trkpt>
      <trkpt lat="46.36953" lon="5.75678">
        <ele>625.71</ele>
        <time>2019-05-08T08:03:08Z</time>
      </trkpt>
      <trkpt lat="46.36974" lon="5.75695">
        <ele>623.09</ele>
        <time>2019-05-08T08:03:20Z</time>
      </trkpt>
      <trkpt lat="46.37008" lon="5.75708">
        <ele>622.81</ele>
        <time>2019-05-08T08:03:35Z</time>
      </trkpt>
      <trkpt lat="46.37033" lon="5.75717">
        <ele>622.57</ele>
        <time>2019-05-08T08:03:51Z</time>
      </trkpt>
      <trkpt lat="46.37044" lon="5.75725">
        <ele>622.43</ele>
        <time>2019-05-08T08:03:58Z</time>
      </trkpt>
      <trkpt lat="46.37071" lon="5.75744">
        <ele>620.45</ele>
        <time>2019-05-08T08:04:16Z</time>
      </trkpt>
      <trkpt lat="46.37091" lon="5.75755">
        <ele>620.3</ele>
        <time>2019-05-08T08:04:27Z</time>
      </trkpt>
      <trkpt lat="46.37114" lon="5.75789">
        <ele>620.08</ele>
        <time>2019-05-08T08:04:42Z</time>
      </trkpt>
      <trkpt lat="46.37115" lon="5.75788">
        <ele>620.04</ele>
        <time>2019-05-08T08:04:44Z</time>
      </trkpt>
      <trkpt lat="46.37127" lon="5.75797">
        <ele>618.92</ele>
        <time>2019-05-08T08:04:55Z</time>
      </trkpt>
      <trkpt lat="46.37162" lon="5.75827">
        <ele>618.76</ele>
        <time>2019-05-08T08:05:09Z</time>
      </trkpt>
      <trkpt lat="46.3718" lon="5.7584">
        <ele>621.04</ele>
        <time>2019-05-08T08:05:19Z</time>
      </trkpt>
      <trkpt lat="46.37203" lon="5.75841">
        <ele>622.58</ele>
        <time>2019-05-08T08:05:31Z</time>
      </trkpt>
      <trkpt lat="46.37205" lon="5.75837">
        <ele>624.52</ele>
        <time>2019-05-08T08:05:34Z</time>
      </trkpt>
      <trkpt lat="46.37219" lon="5.75814">
        <ele>627.86</ele>
        <time>2019-05-08T08:05:51Z</time>
      </trkpt>
      <trkpt lat="46.37229" lon="5.75818">
        <ele>631.26</ele>
        <time>2019-05-08T08:06:06Z</time>
      </trkpt>
      <trkpt lat="46.37231" lon="5.75816">
        <ele>631.19</ele>
        <time>2019-05-08T08:06:11Z</time>
      </trkpt>
      <trkpt lat="46.37244" lon="5.75837">
        <ele>634.65</ele>
        <time>2019-05-08T08:06:31Z</time>
      </trkpt>
      <trkpt lat="46.37261" lon="5.75858">
        <ele>637.2</ele>
        <time>2019-05-08T08:06:48Z</time>
      </trkpt>
      <trkpt lat="46.37264" lon="5.75861">
        <ele>638.05</ele>
        <time>2019-05-08T08:06:51Z</time>
      </trkpt>
      <trkpt lat="46.37269" lon="5.75863">
        <ele>641.69</ele>
        <time>2019-05-08T08:07:03Z</time>
      </trkpt>
      <trkpt lat="46.3727" lon="5.75877">
        <ele>644.77</ele>
        <time>2019-05-08T08:07:18Z</time>
      </trkpt>
      <trkpt lat="46.37272" lon="5.75892">
        <ele>646.23</ele>
        <time>2019-05-08T08:07:30Z</time>
      </trkpt>
      <trkpt lat="46.37279" lon="5.75914">
        <ele>645.85</ele>
        <time>2019-05-08T08:07:45Z</time>
      </trkpt>
      <trkpt lat="46.37291" lon="5.75936">
        <ele>645.62</ele>
        <time>2019-05-08T08:07:59Z</time>
      </trkpt>
      <trkpt lat="46.37302" lon="5.75954">
        <ele>645.4</ele>
        <time>2019-05-08T08:08:10Z</time>
      </trkpt>
      <trkpt lat="46.37306" lon="5.75955">
        <ele>643.08</ele>
        <time>2019-05-08T08:08:12Z</time>
      </trkpt>
      <trkpt lat="46.37316" lon="5.7596">
        <ele>643.02</ele>
        <time>2019-05-08T08:08:18Z</time>
      </trkpt>
      <trkpt lat="46.37338" lon="5.75977">
        <ele>640.41</ele>
        <time>2019-05-08T08:08:36Z</time>
      </trkpt>
      <trkpt lat="46.37355" lon="5.75993">
        <ele>639.28</ele>
        <time>2019-05-08T08:08:49Z</time>
      </trkpt>
      <trkpt lat="46.37363" lon="5.76007">
        <ele>637.63</ele>
        <time>2019-05-08T08:08:55Z</time>
      </trkpt>
      <trkpt lat="46.3737" lon="5.76016">
        <ele>637.58</ele>
        <time>2019-05-08T08:09:01Z</time>
      </trkpt>
      <trkpt lat="46.37388" lon="5.76021">
        <ele>635.91</ele>
        <time>2019-05-08T08:09:19Z</time>
      </trkpt>
      <trkpt lat="46.37388" lon="5.76025">
        <ele>635.9</ele>
        <time>2019-05-08T08:09:24Z</time>
      </trkpt>
      <trkpt lat="46.3739" lon="5.7603">
        <ele>635.99</ele>
        <time>2019-05-08T08:09:31Z</time>
      </trkpt>
      <trkpt lat="46.37389" lon="5.76029">
        <ele>636.09</ele>
        <time>2019-05-08T08:09:51Z</time>
      </trkpt>
      <trkpt lat="46.37387" lon="5.7603">
        <ele>636.23</ele>
        <time>2019-05-08T08:10:17Z</time>
      </trkpt>
      <trkpt lat="46.37386" lon="5.76029">
        <ele>636.49</ele>
        <time>2019-05-08T08:10:46Z</time>
      </trkpt>
      <trkpt lat="46.37387" lon="5.7603">
        <ele>636.75</ele>
        <time>2019-05-08T08:11:07Z</time>
      </trkpt>
      <trkpt lat="46.37389" lon="5.76031">
        <ele>637.11</ele>
        <time>2019-05-08T08:11:33Z</time>
      </trkpt>
      <trkpt lat="46.37394" lon="5.76028">
        <ele>637.44</ele>
        <time>2019-05-08T08:11:59Z</time>
      </trkpt>
      <trkpt lat="46.37398" lon="5.76026">
        <ele>637.5</ele>
        <time>2019-05-08T08:12:04Z</time>
      </trkpt>
      <trkpt lat="46.37417" lon="5.76025">
        <ele>637.63</ele>
        <time>2019-05-08T08:12:15Z</time>
      </trkpt>
      <trkpt lat="46.37438" lon="5.7605">
        <ele>637.17</ele>
        <time>2019-05-08T08:12:31Z</time>
      </trkpt>
      <trkpt lat="46.3745" lon="5.76065">
        <ele>638.39</ele>
        <time>2019-05-08T08:12:41Z</time>
      </trkpt>
      <trkpt lat="46.37463" lon="5.76082">
        <ele>638.61</ele>
        <time>2019-05-08T08:12:52Z</time>
      </trkpt>
      <trkpt lat="46.37489" lon="5.76095">
        <ele>639</ele>
        <time>2019-05-08T08:13:07Z</time>
      </trkpt>
      <trkpt lat="46.37509" lon="5.76108">
        <ele>640.92</ele>
        <time>2019-05-08T08:13:20Z</time>
      </trkpt>
      <trkpt lat="46.37511" lon="5.76108">
        <ele>640.94</ele>
        <time>2019-05-08T08:13:21Z</time>
      </trkpt>
      <trkpt lat="46.37519" lon="5.76113">
        <ele>641.9</ele>
        <time>2019-05-08T08:13:27Z</time>
      </trkpt>
      <trkpt lat="46.37526" lon="5.76116">
        <ele>641.96</ele>
        <time>2019-05-08T08:13:31Z</time>
      </trkpt>
      <trkpt lat="46.37528" lon="5.76118">
        <ele>642.02</ele>
        <time>2019-05-08T08:13:33Z</time>
      </trkpt>
      <trkpt lat="46.37548" lon="5.76128">
        <ele>642.99</ele>
        <time>2019-05-08T08:13:47Z</time>
      </trkpt>
      <trkpt lat="46.37551" lon="5.7613">
        <ele>643.04</ele>
        <time>2019-05-08T08:13:50Z</time>
      </trkpt>
      <trkpt lat="46.37572" lon="5.76134">
        <ele>643.97</ele>
        <time>2019-05-08T08:14:03Z</time>
      </trkpt>
      <trkpt lat="46.37596" lon="5.7614">
        <ele>644.09</ele>
        <time>2019-05-08T08:14:18Z</time>
      </trkpt>
      <trkpt lat="46.37603" lon="5.7614">
        <ele>644.16</ele>
        <time>2019-05-08T08:14:22Z</time>
      </trkpt>
      <trkpt lat="46.37618" lon="5.76143">
        <ele>644.29</ele>
        <time>2019-05-08T08:14:32Z</time>
      </trkpt>
      <trkpt lat="46.37634" lon="5.76126">
        <ele>644.3</ele>
        <time>2019-05-08T08:14:42Z</time>
      </trkpt>
      <trkpt lat="46.3765" lon="5.76119">
        <ele>644.3</ele>
        <time>2019-05-08T08:14:51Z</time>
      </trkpt>
      <trkpt lat="46.37673" lon="5.76147">
        <ele>644.49</ele>
        <time>2019-05-08T08:15:10Z</time>
      </trkpt>
      <trkpt lat="46.37674" lon="5.76149">
        <ele>644.5</ele>
        <time>2019-05-08T08:15:11Z</time>
      </trkpt>
      <trkpt lat="46.37679" lon="5.76155">
        <ele>644.5</ele>
        <time>2019-05-08T08:15:15Z</time>
      </trkpt>
      <trkpt lat="46.37697" lon="5.76173">
        <ele>645.31</ele>
        <time>2019-05-08T08:15:29Z</time>
      </trkpt>
      <trkpt lat="46.37713" lon="5.76202">
        <ele>645.2</ele>
        <time>2019-05-08T08:15:45Z</time>
      </trkpt>
      <trkpt lat="46.3772" lon="5.76211">
        <ele>645.13</ele>
        <time>2019-05-08T08:15:50Z</time>
      </trkpt>
      <trkpt lat="46.37742" lon="5.76236">
        <ele>645.76</ele>
        <time>2019-05-08T08:16:06Z</time>
      </trkpt>
      <trkpt lat="46.37759" lon="5.76262">
        <ele>645.61</ele>
        <time>2019-05-08T08:16:21Z</time>
      </trkpt>
      <trkpt lat="46.37779" lon="5.76281">
        <ele>645.44</ele>
        <time>2019-05-08T08:16:34Z</time>
      </trkpt>
      <trkpt lat="46.37801" lon="5.76299">
        <ele>647.32</ele>
        <time>2019-05-08T08:16:48Z</time>
      </trkpt>
      <trkpt lat="46.37809" lon="5.76303">
        <ele>649.05</ele>
        <time>2019-05-08T08:16:54Z</time>
      </trkpt>
      <trkpt lat="46.37814" lon="5.76302">
        <ele>649.03</ele>
        <time>2019-05-08T08:16:57Z</time>
      </trkpt>
      <trkpt lat="46.37826" lon="5.76299">
        <ele>650.75</ele>
        <time>2019-05-08T08:17:04Z</time>
      </trkpt>
      <trkpt lat="46.37833" lon="5.76293">
        <ele>651.46</ele>
        <time>2019-05-08T08:17:10Z</time>
      </trkpt>
      <trkpt lat="46.37836" lon="5.76288">
        <ele>651.4</ele>
        <time>2019-05-08T08:17:13Z</time>
      </trkpt>
      <trkpt lat="46.37839" lon="5.76284">
        <ele>652.23</ele>
        <time>2019-05-08T08:17:19Z</time>
      </trkpt>
      <trkpt lat="46.37852" lon="5.7628">
        <ele>652.9</ele>
        <time>2019-05-08T08:17:28Z</time>
      </trkpt>
      <trkpt lat="46.37875" lon="5.7625">
        <ele>653.67</ele>
        <time>2019-05-08T08:17:43Z</time>
      </trkpt>
      <trkpt lat="46.37898" lon="5.76237">
        <ele>654.34</ele>
        <time>2019-05-08T08:17:57Z</time>
      </trkpt>
      <trkpt lat="46.37903" lon="5.76234">
        <ele>655.17</ele>
        <time>2019-05-08T08:18:00Z</time>
      </trkpt>
      <trkpt lat="46.37904" lon="5.76231">
        <ele>655.15</ele>
        <time>2019-05-08T08:18:01Z</time>
      </trkpt>
      <trkpt lat="46.37916" lon="5.76223">
        <ele>655.03</ele>
        <time>2019-05-08T08:18:09Z</time>
      </trkpt>
      <trkpt lat="46.37918" lon="5.76221">
        <ele>655.02</ele>
        <time>2019-05-08T08:18:10Z</time>
      </trkpt>
      <trkpt lat="46.3792" lon="5.7622">
        <ele>655</ele>
        <time>2019-05-08T08:18:11Z</time>
      </trkpt>
      <trkpt lat="46.37927" lon="5.76216">
        <ele>654.94</ele>
        <time>2019-05-08T08:18:15Z</time>
      </trkpt>
      <trkpt lat="46.3794" lon="5.76196">
        <ele>655.51</ele>
        <time>2019-05-08T08:18:26Z</time>
      </trkpt>
      <trkpt lat="46.37949" lon="5.76181">
        <ele>656.18</ele>
        <time>2019-05-08T08:18:37Z</time>
      </trkpt>
      <trkpt lat="46.37959" lon="5.7616">
        <ele>658.65</ele>
        <time>2019-05-08T08:18:50Z</time>
      </trkpt>
      <trkpt lat="46.3796" lon="5.76158">
        <ele>658.62</ele>
        <time>2019-05-08T08:18:51Z</time>
      </trkpt>
      <trkpt lat="46.37967" lon="5.76137">
        <ele>661.05</ele>
        <time>2019-05-08T08:19:03Z</time>
      </trkpt>
      <trkpt lat="46.37967" lon="5.76135">
        <ele>661</ele>
        <time>2019-05-08T08:19:04Z</time>
      </trkpt>
      <trkpt lat="46.37969" lon="5.76132">
        <ele>660.89</ele>
        <time>2019-05-08T08:19:06Z</time>
      </trkpt>
      <trkpt lat="46.37972" lon="5.7612">
        <ele>662.68</ele>
        <time>2019-05-08T08:19:14Z</time>
      </trkpt>
      <trkpt lat="46.37978" lon="5.76098">
        <ele>665.53</ele>
        <time>2019-05-08T08:19:26Z</time>
      </trkpt>
      <trkpt lat="46.37986" lon="5.76078">
        <ele>667.74</ele>
        <time>2019-05-08T08:19:38Z</time>
      </trkpt>
      <trkpt lat="46.37995" lon="5.76072">
        <ele>669.44</ele>
        <time>2019-05-08T08:19:45Z</time>
      </trkpt>
      <trkpt lat="46.38001" lon="5.76068">
        <ele>670.79</ele>
        <time>2019-05-08T08:19:51Z</time>
      </trkpt>
      <trkpt lat="46.38021" lon="5.76073">
        <ele>672.99</ele>
        <time>2019-05-08T08:20:06Z</time>
      </trkpt>
      <trkpt lat="46.38034" lon="5.76077">
        <ele>674.08</ele>
        <time>2019-05-08T08:20:21Z</time>
      </trkpt>
      <trkpt lat="46.38054" lon="5.76081">
        <ele>677.41</ele>
        <time>2019-05-08T08:20:42Z</time>
      </trkpt>
      <trkpt lat="46.38068" lon="5.76084">
        <ele>680.57</ele>
        <time>2019-05-08T08:20:56Z</time>
      </trkpt>
      <trkpt lat="46.3809" lon="5.76088">
        <ele>683.21</ele>
        <time>2019-05-08T08:21:13Z</time>
      </trkpt>
      <trkpt lat="46.38101" lon="5.7609">
        <ele>685.36</ele>
        <time>2019-05-08T08:21:26Z</time>
      </trkpt>
      <trkpt lat="46.38109" lon="5.7609">
        <ele>687.58</ele>
        <time>2019-05-08T08:21:39Z</time>
      </trkpt>
      <trkpt lat="46.38125" lon="5.76089">
        <ele>690.03</ele>
        <time>2019-05-08T08:22:00Z</time>
      </trkpt>
      <trkpt lat="46.38131" lon="5.76083">
        <ele>691.98</ele>
        <time>2019-05-08T08:22:15Z</time>
      </trkpt>
      <trkpt lat="46.38134" lon="5.76081">
        <ele>692.7</ele>
        <time>2019-05-08T08:22:19Z</time>
      </trkpt>
      <trkpt lat="46.38144" lon="5.76075">
        <ele>694.9</ele>
        <time>2019-05-08T08:22:34Z</time>
      </trkpt>
      <trkpt lat="46.38146" lon="5.76075">
        <ele>695.54</ele>
        <time>2019-05-08T08:22:37Z</time>
      </trkpt>
      <trkpt lat="46.38159" lon="5.76066">
        <ele>696.5</ele>
        <time>2019-05-08T08:22:57Z</time>
      </trkpt>
      <trkpt lat="46.38161" lon="5.76065">
        <ele>696.46</ele>
        <time>2019-05-08T08:22:58Z</time>
      </trkpt>
      <trkpt lat="46.38164" lon="5.76063">
        <ele>696.26</ele>
        <time>2019-05-08T08:23:03Z</time>
      </trkpt>
      <trkpt lat="46.38171" lon="5.76067">
        <ele>696.8</ele>
        <time>2019-05-08T08:23:09Z</time>
      </trkpt>
      <trkpt lat="46.3818" lon="5.76072">
        <ele>696.54</ele>
        <time>2019-05-08T08:23:17Z</time>
      </trkpt>
      <trkpt lat="46.38201" lon="5.76069">
        <ele>697.59</ele>
        <time>2019-05-08T08:23:36Z</time>
      </trkpt>
      <trkpt lat="46.3824" lon="5.76064">
        <ele>701.23</ele>
        <time>2019-05-08T08:23:55Z</time>
      </trkpt>
      <trkpt lat="46.38258" lon="5.76062">
        <ele>703.89</ele>
        <time>2019-05-08T08:24:07Z</time>
      </trkpt>
      <trkpt lat="46.38262" lon="5.76067">
        <ele>705.44</ele>
        <time>2019-05-08T08:24:14Z</time>
      </trkpt>
      <trkpt lat="46.38263" lon="5.76069">
        <ele>706.89</ele>
        <time>2019-05-08T08:24:20Z</time>
      </trkpt>
      <trkpt lat="46.38281" lon="5.76083">
        <ele>710.05</ele>
        <time>2019-05-08T08:24:36Z</time>
      </trkpt>
      <trkpt lat="46.38303" lon="5.76085">
        <ele>713.52</ele>
        <time>2019-05-08T08:24:52Z</time>
      </trkpt>
      <trkpt lat="46.38317" lon="5.76092">
        <ele>716.7</ele>
        <time>2019-05-08T08:25:08Z</time>
      </trkpt>
      <trkpt lat="46.38328" lon="5.76096">
        <ele>719.79</ele>
        <time>2019-05-08T08:25:22Z</time>
      </trkpt>
      <trkpt lat="46.38332" lon="5.76097">
        <ele>720.53</ele>
        <time>2019-05-08T08:25:26Z</time>
      </trkpt>
      <trkpt lat="46.38335" lon="5.76097">
        <ele>722.44</ele>
        <time>2019-05-08T08:25:32Z</time>
      </trkpt>
      <trkpt lat="46.38338" lon="5.76099">
        <ele>723.19</ele>
        <time>2019-05-08T08:25:36Z</time>
      </trkpt>
      <trkpt lat="46.38346" lon="5.76103">
        <ele>725.67</ele>
        <time>2019-05-08T08:25:48Z</time>
      </trkpt>
      <trkpt lat="46.3835" lon="5.76105">
        <ele>726.42</ele>
        <time>2019-05-08T08:25:51Z</time>
      </trkpt>
      <trkpt lat="46.38367" lon="5.76113">
        <ele>729.76</ele>
        <time>2019-05-08T08:26:05Z</time>
      </trkpt>
      <trkpt lat="46.38385" lon="5.76129">
        <ele>731.77</ele>
        <time>2019-05-08T08:26:19Z</time>
      </trkpt>
      <trkpt lat="46.38404" lon="5.76146">
        <ele>734.78</ele>
        <time>2019-05-08T08:26:37Z</time>
      </trkpt>
      <trkpt lat="46.38415" lon="5.76155">
        <ele>735.43</ele>
        <time>2019-05-08T08:26:50Z</time>
      </trkpt>
      <trkpt lat="46.38432" lon="5.76163">
        <ele>738.55</ele>
        <time>2019-05-08T08:27:05Z</time>
      </trkpt>
      <trkpt lat="46.38435" lon="5.76163">
        <ele>738.48</ele>
        <time>2019-05-08T08:27:08Z</time>
      </trkpt>
      <trkpt lat="46.38453" lon="5.76172">
        <ele>739.72</ele>
        <time>2019-05-08T08:27:24Z</time>
      </trkpt>
      <trkpt lat="46.38475" lon="5.76164">
        <ele>742.09</ele>
        <time>2019-05-08T08:27:41Z</time>
      </trkpt>
      <trkpt lat="46.38494" lon="5.7616">
        <ele>742.58</ele>
        <time>2019-05-08T08:27:55Z</time>
      </trkpt>
      <trkpt lat="46.38509" lon="5.7616">
        <ele>742.19</ele>
        <time>2019-05-08T08:28:11Z</time>
      </trkpt>
      <trkpt lat="46.38522" lon="5.76155">
        <ele>742</ele>
        <time>2019-05-08T08:28:21Z</time>
      </trkpt>
      <trkpt lat="46.38524" lon="5.76155">
        <ele>741.96</ele>
        <time>2019-05-08T08:28:23Z</time>
      </trkpt>
      <trkpt lat="46.38527" lon="5.76155">
        <ele>741.92</ele>
        <time>2019-05-08T08:28:25Z</time>
      </trkpt>
      <trkpt lat="46.38542" lon="5.76151">
        <ele>741.68</ele>
        <time>2019-05-08T08:28:36Z</time>
      </trkpt>
      <trkpt lat="46.38549" lon="5.76148">
        <ele>741.57</ele>
        <time>2019-05-08T08:28:42Z</time>
      </trkpt>
      <trkpt lat="46.38552" lon="5.76147">
        <ele>741.52</ele>
        <time>2019-05-08T08:28:45Z</time>
      </trkpt>
      <trkpt lat="46.38579" lon="5.76145">
        <ele>741.25</ele>
        <time>2019-05-08T08:29:00Z</time>
      </trkpt>
      <trkpt lat="46.38587" lon="5.76147">
        <ele>738.79</ele>
        <time>2019-05-08T08:29:07Z</time>
      </trkpt>
      <trkpt lat="46.38598" lon="5.7615">
        <ele>738.69</ele>
        <time>2019-05-08T08:29:12Z</time>
      </trkpt>
      <trkpt lat="46.38628" lon="5.76157">
        <ele>738.37</ele>
        <time>2019-05-08T08:29:28Z</time>
      </trkpt>
      <trkpt lat="46.38631" lon="5.7616">
        <ele>738.34</ele>
        <time>2019-05-08T08:29:30Z</time>
      </trkpt>
      <trkpt lat="46.38641" lon="5.76164">
        <ele>738.19</ele>
        <time>2019-05-08T08:29:37Z</time>
      </trkpt>
      <trkpt lat="46.38665" lon="5.76173">
        <ele>737.84</ele>
        <time>2019-05-08T08:29:50Z</time>
      </trkpt>
      <trkpt lat="46.38685" lon="5.76166">
        <ele>737.45</ele>
        <time>2019-05-08T08:30:06Z</time>
      </trkpt>
      <trkpt lat="46.38684" lon="5.76165">
        <ele>737.4</ele>
        <time>2019-05-08T08:30:08Z</time>
      </trkpt>
      <trkpt lat="46.38677" lon="5.76148">
        <ele>737.11</ele>
        <time>2019-05-08T08:30:19Z</time>
      </trkpt>
      <trkpt lat="46.38667" lon="5.76133">
        <ele>733.81</ele>
        <time>2019-05-08T08:30:28Z</time>
      </trkpt>
      <trkpt lat="46.38666" lon="5.76131">
        <ele>733.79</ele>
        <time>2019-05-08T08:30:29Z</time>
      </trkpt>
      <trkpt lat="46.38665" lon="5.76131">
        <ele>733.77</ele>
        <time>2019-05-08T08:30:30Z</time>
      </trkpt>
      <trkpt lat="46.38662" lon="5.76129">
        <ele>732.5</ele>
        <time>2019-05-08T08:30:33Z</time>
      </trkpt>
      <trkpt lat="46.38655" lon="5.76122">
        <ele>730.75</ele>
        <time>2019-05-08T08:30:38Z</time>
      </trkpt>
      <trkpt lat="46.38649" lon="5.76117">
        <ele>729.92</ele>
        <time>2019-05-08T08:30:42Z</time>
      </trkpt>
      <trkpt lat="46.38641" lon="5.761">
        <ele>728.97</ele>
        <time>2019-05-08T08:30:48Z</time>
      </trkpt>
      <trkpt lat="46.38626" lon="5.76075">
        <ele>726.92</ele>
        <time>2019-05-08T08:30:58Z</time>
      </trkpt>
      <trkpt lat="46.38618" lon="5.76054">
        <ele>726.8</ele>
        <time>2019-05-08T08:31:10Z</time>
      </trkpt>
      <trkpt lat="46.3861" lon="5.76032">
        <ele>723.72</ele>
        <time>2019-05-08T08:31:19Z</time>
      </trkpt>
      <trkpt lat="46.38602" lon="5.76008">
        <ele>722.62</ele>
        <time>2019-05-08T08:31:31Z</time>
      </trkpt>
      <trkpt lat="46.38601" lon="5.75985">
        <ele>722.52</ele>
        <time>2019-05-08T08:31:41Z</time>
      </trkpt>
      <trkpt lat="46.386" lon="5.75975">
        <ele>722.28</ele>
        <time>2019-05-08T08:31:59Z</time>
      </trkpt>
      <trkpt lat="46.38603" lon="5.75957">
        <ele>724.6</ele>
        <time>2019-05-08T08:32:11Z</time>
      </trkpt>
      <trkpt lat="46.38604" lon="5.75954">
        <ele>724.62</ele>
        <time>2019-05-08T08:32:13Z</time>
      </trkpt>
      <trkpt lat="46.38604" lon="5.75934">
        <ele>727.13</ele>
        <time>2019-05-08T08:32:27Z</time>
      </trkpt>
      <trkpt lat="46.38604" lon="5.75898">
        <ele>730.46</ele>
        <time>2019-05-08T08:32:39Z</time>
      </trkpt>
      <trkpt lat="46.38603" lon="5.75874">
        <ele>733.9</ele>
        <time>2019-05-08T08:32:51Z</time>
      </trkpt>
      <trkpt lat="46.38599" lon="5.75859">
        <ele>735.46</ele>
        <time>2019-05-08T08:33:03Z</time>
      </trkpt>
      <trkpt lat="46.38598" lon="5.75837">
        <ele>738.58</ele>
        <time>2019-05-08T08:33:14Z</time>
      </trkpt>
      <trkpt lat="46.38593" lon="5.75816">
        <ele>741.11</ele>
        <time>2019-05-08T08:33:28Z</time>
      </trkpt>
      <trkpt lat="46.38591" lon="5.75811">
        <ele>742.13</ele>
        <time>2019-05-08T08:33:31Z</time>
      </trkpt>
      <trkpt lat="46.38591" lon="5.75806">
        <ele>742.11</ele>
        <time>2019-05-08T08:33:32Z</time>
      </trkpt>
      <trkpt lat="46.38585" lon="5.75789">
        <ele>744.5</ele>
        <time>2019-05-08T08:33:44Z</time>
      </trkpt>
      <trkpt lat="46.38579" lon="5.75771">
        <ele>745.93</ele>
        <time>2019-05-08T08:33:58Z</time>
      </trkpt>
      <trkpt lat="46.38569" lon="5.75747">
        <ele>748.19</ele>
        <time>2019-05-08T08:34:15Z</time>
      </trkpt>
      <trkpt lat="46.38572" lon="5.75727">
        <ele>749.62</ele>
        <time>2019-05-08T08:34:29Z</time>
      </trkpt>
      <trkpt lat="46.38576" lon="5.75724">
        <ele>749.58</ele>
        <time>2019-05-08T08:34:32Z</time>
      </trkpt>
      <trkpt lat="46.38587" lon="5.75704">
        <ele>751.31</ele>
        <time>2019-05-08T08:34:46Z</time>
      </trkpt>
      <trkpt lat="46.38596" lon="5.75684">
        <ele>752.06</ele>
        <time>2019-05-08T08:34:57Z</time>
      </trkpt>
      <trkpt lat="46.38604" lon="5.75673">
        <ele>751.95</ele>
        <time>2019-05-08T08:35:03Z</time>
      </trkpt>
      <trkpt lat="46.3861" lon="5.75664">
        <ele>751.86</ele>
        <time>2019-05-08T08:35:08Z</time>
      </trkpt>
      <trkpt lat="46.3862" lon="5.75644">
        <ele>751.7</ele>
        <time>2019-05-08T08:35:20Z</time>
      </trkpt>
      <trkpt lat="46.38635" lon="5.75639">
        <ele>751.52</ele>
        <time>2019-05-08T08:35:32Z</time>
      </trkpt>
      <trkpt lat="46.38654" lon="5.75653">
        <ele>751.36</ele>
        <time>2019-05-08T08:35:45Z</time>
      </trkpt>
      <trkpt lat="46.38658" lon="5.75657">
        <ele>751.26</ele>
        <time>2019-05-08T08:35:52Z</time>
      </trkpt>
      <trkpt lat="46.38662" lon="5.75659">
        <ele>751.23</ele>
        <time>2019-05-08T08:35:54Z</time>
      </trkpt>
      <trkpt lat="46.38677" lon="5.75659">
        <ele>751.1</ele>
        <time>2019-05-08T08:36:05Z</time>
      </trkpt>
      <trkpt lat="46.38685" lon="5.75658">
        <ele>751.99</ele>
        <time>2019-05-08T08:36:10Z</time>
      </trkpt>
      <trkpt lat="46.38701" lon="5.75648">
        <ele>752.51</ele>
        <time>2019-05-08T08:36:25Z</time>
      </trkpt>
      <trkpt lat="46.38709" lon="5.75639">
        <ele>753.88</ele>
        <time>2019-05-08T08:36:32Z</time>
      </trkpt>
      <trkpt lat="46.38712" lon="5.75633">
        <ele>753.82</ele>
        <time>2019-05-08T08:36:35Z</time>
      </trkpt>
      <trkpt lat="46.38723" lon="5.75614">
        <ele>753.48</ele>
        <time>2019-05-08T08:36:48Z</time>
      </trkpt>
      <trkpt lat="46.38732" lon="5.75585">
        <ele>753.14</ele>
        <time>2019-05-08T08:37:00Z</time>
      </trkpt>
      <trkpt lat="46.38738" lon="5.75524">
        <ele>754.34</ele>
        <time>2019-05-08T08:37:19Z</time>
      </trkpt>
      <trkpt lat="46.38751" lon="5.75503">
        <ele>754.81</ele>
        <time>2019-05-08T08:37:34Z</time>
      </trkpt>
      <trkpt lat="46.38757" lon="5.75495">
        <ele>754.69</ele>
        <time>2019-05-08T08:37:39Z</time>
      </trkpt>
      <trkpt lat="46.38764" lon="5.75473">
        <ele>754.46</ele>
        <time>2019-05-08T08:37:48Z</time>
      </trkpt>
      <trkpt lat="46.38775" lon="5.75458">
        <ele>754.26</ele>
        <time>2019-05-08T08:37:57Z</time>
      </trkpt>
      <trkpt lat="46.38787" lon="5.75442">
        <ele>754.08</ele>
        <time>2019-05-08T08:38:08Z</time>
      </trkpt>
      <trkpt lat="46.38793" lon="5.75436">
        <ele>754.8</ele>
        <time>2019-05-08T08:38:13Z</time>
      </trkpt>
      <trkpt lat="46.38809" lon="5.75434">
        <ele>758.58</ele>
        <time>2019-05-08T08:38:26Z</time>
      </trkpt>
      <trkpt lat="46.38813" lon="5.75431">
        <ele>759.68</ele>
        <time>2019-05-08T08:38:30Z</time>
      </trkpt>
      <trkpt lat="46.38826" lon="5.75421">
        <ele>762.94</ele>
        <time>2019-05-08T08:38:41Z</time>
      </trkpt>
      <trkpt lat="46.38829" lon="5.7541">
        <ele>765.03</ele>
        <time>2019-05-08T08:38:51Z</time>
      </trkpt>
      <trkpt lat="46.38832" lon="5.754">
        <ele>767.41</ele>
        <time>2019-05-08T08:39:04Z</time>
      </trkpt>
      <trkpt lat="46.38838" lon="5.75386">
        <ele>770.23</ele>
        <time>2019-05-08T08:39:16Z</time>
      </trkpt>
      <trkpt lat="46.3884" lon="5.75384">
        <ele>770.25</ele>
        <time>2019-05-08T08:39:18Z</time>
      </trkpt>
      <trkpt lat="46.38844" lon="5.7538">
        <ele>771.89</ele>
        <time>2019-05-08T08:39:28Z</time>
      </trkpt>
      <trkpt lat="46.38861" lon="5.75366">
        <ele>775.09</ele>
        <time>2019-05-08T08:39:45Z</time>
      </trkpt>
      <trkpt lat="46.38869" lon="5.7536">
        <ele>775.9</ele>
        <time>2019-05-08T08:39:52Z</time>
      </trkpt>
      <trkpt lat="46.38872" lon="5.75357">
        <ele>776.84</ele>
        <time>2019-05-08T08:39:56Z</time>
      </trkpt>
      <trkpt lat="46.38891" lon="5.75335">
        <ele>779.98</ele>
        <time>2019-05-08T08:40:15Z</time>
      </trkpt>
      <trkpt lat="46.38912" lon="5.75315">
        <ele>782.61</ele>
        <time>2019-05-08T08:40:32Z</time>
      </trkpt>
      <trkpt lat="46.38927" lon="5.75298">
        <ele>785.96</ele>
        <time>2019-05-08T08:40:48Z</time>
      </trkpt>
      <trkpt lat="46.38936" lon="5.75302">
        <ele>787.84</ele>
        <time>2019-05-08T08:41:02Z</time>
      </trkpt>
      <trkpt lat="46.38938" lon="5.75302">
        <ele>788</ele>
        <time>2019-05-08T08:41:04Z</time>
      </trkpt>
      <trkpt lat="46.38956" lon="5.75301">
        <ele>791.37</ele>
        <time>2019-05-08T08:41:19Z</time>
      </trkpt>
      <trkpt lat="46.3898" lon="5.753">
        <ele>794.95</ele>
        <time>2019-05-08T08:41:35Z</time>
      </trkpt>
      <trkpt lat="46.38989" lon="5.75294">
        <ele>797.59</ele>
        <time>2019-05-08T08:41:46Z</time>
      </trkpt>
      <trkpt lat="46.38999" lon="5.75296">
        <ele>798.89</ele>
        <time>2019-05-08T08:41:54Z</time>
      </trkpt>
      <trkpt lat="46.39004" lon="5.75296">
        <ele>799.55</ele>
        <time>2019-05-08T08:41:58Z</time>
      </trkpt>
      <trkpt lat="46.39006" lon="5.75298">
        <ele>799.77</ele>
        <time>2019-05-08T08:42:01Z</time>
      </trkpt>
      <trkpt lat="46.39011" lon="5.75299">
        <ele>800.64</ele>
        <time>2019-05-08T08:42:05Z</time>
      </trkpt>
      <trkpt lat="46.39018" lon="5.753">
        <ele>801.46</ele>
        <time>2019-05-08T08:42:11Z</time>
      </trkpt>
      <trkpt lat="46.3903" lon="5.75291">
        <ele>802.47</ele>
        <time>2019-05-08T08:42:21Z</time>
      </trkpt>
      <trkpt lat="46.39036" lon="5.75271">
        <ele>804.37</ele>
        <time>2019-05-08T08:42:30Z</time>
      </trkpt>
      <trkpt lat="46.39045" lon="5.75251">
        <ele>808.07</ele>
        <time>2019-05-08T08:42:43Z</time>
      </trkpt>
      <trkpt lat="46.39047" lon="5.75248">
        <ele>808.34</ele>
        <time>2019-05-08T08:42:47Z</time>
      </trkpt>
      <trkpt lat="46.39054" lon="5.75247">
        <ele>809.45</ele>
        <time>2019-05-08T08:43:01Z</time>
      </trkpt>
      <trkpt lat="46.39055" lon="5.75251">
        <ele>811.06</ele>
        <time>2019-05-08T08:43:29Z</time>
      </trkpt>
      <trkpt lat="46.39055" lon="5.75253">
        <ele>811.12</ele>
        <time>2019-05-08T08:43:31Z</time>
      </trkpt>
      <trkpt lat="46.39057" lon="5.75261">
        <ele>811.25</ele>
        <time>2019-05-08T08:43:35Z</time>
      </trkpt>
      <trkpt lat="46.39061" lon="5.75272">
        <ele>812.42</ele>
        <time>2019-05-08T08:43:42Z</time>
      </trkpt>
      <trkpt lat="46.39062" lon="5.75277">
        <ele>813.44</ele>
        <time>2019-05-08T08:43:45Z</time>
      </trkpt>
      <trkpt lat="46.39056" lon="5.75304">
        <ele>815.65</ele>
        <time>2019-05-08T08:43:58Z</time>
      </trkpt>
      <trkpt lat="46.39049" lon="5.75327">
        <ele>816.8</ele>
        <time>2019-05-08T08:44:10Z</time>
      </trkpt>
      <trkpt lat="46.39048" lon="5.75334">
        <ele>817.7</ele>
        <time>2019-05-08T08:44:14Z</time>
      </trkpt>
      <trkpt lat="46.39047" lon="5.75354">
        <ele>818.83</ele>
        <time>2019-05-08T08:44:23Z</time>
      </trkpt>
      <trkpt lat="46.39048" lon="5.75386">
        <ele>819.1</ele>
        <time>2019-05-08T08:44:37Z</time>
      </trkpt>
      <trkpt lat="46.3905" lon="5.75395">
        <ele>819.19</ele>
        <time>2019-05-08T08:44:41Z</time>
      </trkpt>
      <trkpt lat="46.3905" lon="5.75404">
        <ele>820.2</ele>
        <time>2019-05-08T08:44:45Z</time>
      </trkpt>
      <trkpt lat="46.39045" lon="5.75429">
        <ele>820.42</ele>
        <time>2019-05-08T08:44:54Z</time>
      </trkpt>
      <trkpt lat="46.39044" lon="5.7546">
        <ele>821.54</ele>
        <time>2019-05-08T08:45:07Z</time>
      </trkpt>
      <trkpt lat="46.39043" lon="5.7547">
        <ele>821.62</ele>
        <time>2019-05-08T08:45:11Z</time>
      </trkpt>
      <trkpt lat="46.3904" lon="5.75491">
        <ele>821.77</ele>
        <time>2019-05-08T08:45:20Z</time>
      </trkpt>
      <trkpt lat="46.39038" lon="5.75498">
        <ele>819.56</ele>
        <time>2019-05-08T08:45:23Z</time>
      </trkpt>
      <trkpt lat="46.39037" lon="5.75504">
        <ele>818.63</ele>
        <time>2019-05-08T08:45:26Z</time>
      </trkpt>
      <trkpt lat="46.39037" lon="5.75529">
        <ele>816.83</ele>
        <time>2019-05-08T08:45:36Z</time>
      </trkpt>
      <trkpt lat="46.39042" lon="5.75569">
        <ele>814.72</ele>
        <time>2019-05-08T08:45:51Z</time>
      </trkpt>
      <trkpt lat="46.39046" lon="5.75606">
        <ele>811.62</ele>
        <time>2019-05-08T08:46:04Z</time>
      </trkpt>
      <trkpt lat="46.39043" lon="5.75616">
        <ele>809.78</ele>
        <time>2019-05-08T08:46:06Z</time>
      </trkpt>
      <trkpt lat="46.39035" lon="5.75629">
        <ele>812.54</ele>
        <time>2019-05-08T08:46:10Z</time>
      </trkpt>
      <trkpt lat="46.39035" lon="5.75633">
        <ele>812.56</ele>
        <time>2019-05-08T08:46:11Z</time>
      </trkpt>
      <trkpt lat="46.39036" lon="5.75637">
        <ele>812.56</ele>
        <time>2019-05-08T08:46:12Z</time>
      </trkpt>
      <trkpt lat="46.39037" lon="5.7564">
        <ele>812.53</ele>
        <time>2019-05-08T08:46:13Z</time>
      </trkpt>
      <trkpt lat="46.39039" lon="5.75642">
        <ele>812.54</ele>
        <time>2019-05-08T08:46:14Z</time>
      </trkpt>
      <trkpt lat="46.3904" lon="5.75644">
        <ele>809.56</ele>
        <time>2019-05-08T08:46:15Z</time>
      </trkpt>
      <trkpt lat="46.39042" lon="5.75645">
        <ele>808.77</ele>
        <time>2019-05-08T08:46:16Z</time>
      </trkpt>
      <trkpt lat="46.39044" lon="5.75647">
        <ele>808.78</ele>
        <time>2019-05-08T08:46:17Z</time>
      </trkpt>
      <trkpt lat="46.3905" lon="5.75651">
        <ele>806.81</ele>
        <time>2019-05-08T08:46:20Z</time>
      </trkpt>
      <trkpt lat="46.39059" lon="5.75661">
        <ele>805.85</ele>
        <time>2019-05-08T08:46:25Z</time>
      </trkpt>
      <trkpt lat="46.3906" lon="5.75663">
        <ele>805.92</ele>
        <time>2019-05-08T08:46:26Z</time>
      </trkpt>
      <trkpt lat="46.39061" lon="5.75665">
        <ele>805.07</ele>
        <time>2019-05-08T08:46:27Z</time>
      </trkpt>
      <trkpt lat="46.39063" lon="5.75666">
        <ele>805.1</ele>
        <time>2019-05-08T08:46:28Z</time>
      </trkpt>
      <trkpt lat="46.39064" lon="5.75667">
        <ele>805.13</ele>
        <time>2019-05-08T08:46:29Z</time>
      </trkpt>
      <trkpt lat="46.39084" lon="5.75673">
        <ele>804.87</ele>
        <time>2019-05-08T08:46:40Z</time>
      </trkpt>
      <trkpt lat="46.39111" lon="5.75673">
        <ele>803.78</ele>
        <time>2019-05-08T08:46:55Z</time>
      </trkpt>
      <trkpt lat="46.39121" lon="5.75676">
        <ele>803.15</ele>
        <time>2019-05-08T08:47:02Z</time>
      </trkpt>
      <trkpt lat="46.39123" lon="5.75677">
        <ele>803.17</ele>
        <time>2019-05-08T08:47:03Z</time>
      </trkpt>
      <trkpt lat="46.39144" lon="5.75681">
        <ele>801.75</ele>
        <time>2019-05-08T08:47:17Z</time>
      </trkpt>
      <trkpt lat="46.39174" lon="5.7568">
        <ele>802.25</ele>
        <time>2019-05-08T08:47:31Z</time>
      </trkpt>
      <trkpt lat="46.392" lon="5.75688">
        <ele>802.64</ele>
        <time>2019-05-08T08:47:44Z</time>
      </trkpt>
      <trkpt lat="46.39223" lon="5.75706">
        <ele>803.03</ele>
        <time>2019-05-08T08:47:59Z</time>
      </trkpt>
      <trkpt lat="46.39224" lon="5.75707">
        <ele>803.05</ele>
        <time>2019-05-08T08:48:00Z</time>
      </trkpt>
      <trkpt lat="46.39226" lon="5.75708">
        <ele>803.08</ele>
        <time>2019-05-08T08:48:01Z</time>
      </trkpt>
      <trkpt lat="46.39235" lon="5.75713">
        <ele>805.6</ele>
        <time>2019-05-08T08:48:10Z</time>
      </trkpt>
      <trkpt lat="46.39244" lon="5.75719">
        <ele>806.58</ele>
        <time>2019-05-08T08:48:16Z</time>
      </trkpt>
      <trkpt lat="46.39258" lon="5.75724">
        <ele>807.57</ele>
        <time>2019-05-08T08:48:27Z</time>
      </trkpt>
      <trkpt lat="46.39278" lon="5.75729">
        <ele>807.56</ele>
        <time>2019-05-08T08:48:39Z</time>
      </trkpt>
      <trkpt lat="46.3929" lon="5.75726">
        <ele>805.26</ele>
        <time>2019-05-08T08:48:46Z</time>
      </trkpt>
      <trkpt lat="46.39291" lon="5.75725">
        <ele>805.27</ele>
        <time>2019-05-08T08:48:47Z</time>
      </trkpt>
      <trkpt lat="46.39312" lon="5.75733">
        <ele>804.44</ele>
        <time>2019-05-08T08:49:01Z</time>
      </trkpt>
      <trkpt lat="46.39322" lon="5.75738">
        <ele>804.56</ele>
        <time>2019-05-08T08:49:08Z</time>
      </trkpt>
      <trkpt lat="46.39332" lon="5.75742">
        <ele>804.65</ele>
        <time>2019-05-08T08:49:16Z</time>
      </trkpt>
      <trkpt lat="46.39355" lon="5.75744">
        <ele>804.83</ele>
        <time>2019-05-08T08:49:30Z</time>
      </trkpt>
      <trkpt lat="46.3936" lon="5.75743">
        <ele>804.86</ele>
        <time>2019-05-08T08:49:33Z</time>
      </trkpt>
      <trkpt lat="46.39378" lon="5.75732">
        <ele>804.91</ele>
        <time>2019-05-08T08:49:43Z</time>
      </trkpt>
      <trkpt lat="46.39387" lon="5.7572">
        <ele>804.97</ele>
        <time>2019-05-08T08:49:55Z</time>
      </trkpt>
      <trkpt lat="46.39405" lon="5.75716">
        <ele>805.14</ele>
        <time>2019-05-08T08:50:07Z</time>
      </trkpt>
      <trkpt lat="46.39407" lon="5.75716">
        <ele>805.15</ele>
        <time>2019-05-08T08:50:08Z</time>
      </trkpt>
      <trkpt lat="46.39431" lon="5.7572">
        <ele>805.25</ele>
        <time>2019-05-08T08:50:20Z</time>
      </trkpt>
      <trkpt lat="46.39442" lon="5.75721">
        <ele>807.61</ele>
        <time>2019-05-08T08:50:26Z</time>
      </trkpt>
      <trkpt lat="46.39461" lon="5.75725">
        <ele>808.56</ele>
        <time>2019-05-08T08:50:37Z</time>
      </trkpt>
      <trkpt lat="46.39483" lon="5.75729">
        <ele>810.29</ele>
        <time>2019-05-08T08:50:50Z</time>
      </trkpt>
      <trkpt lat="46.39485" lon="5.7573">
        <ele>810.29</ele>
        <time>2019-05-08T08:50:51Z</time>
      </trkpt>
      <trkpt lat="46.39487" lon="5.7573">
        <ele>811.32</ele>
        <time>2019-05-08T08:50:52Z</time>
      </trkpt>
      <trkpt lat="46.3949" lon="5.75731">
        <ele>811.34</ele>
        <time>2019-05-08T08:50:54Z</time>
      </trkpt>
      <trkpt lat="46.39511" lon="5.75737">
        <ele>814.06</ele>
        <time>2019-05-08T08:51:06Z</time>
      </trkpt>
      <trkpt lat="46.39516" lon="5.75739">
        <ele>814.1</ele>
        <time>2019-05-08T08:51:09Z</time>
      </trkpt>
      <trkpt lat="46.39518" lon="5.75739">
        <ele>814.08</ele>
        <time>2019-05-08T08:51:10Z</time>
      </trkpt>
      <trkpt lat="46.3952" lon="5.7574">
        <ele>814.09</ele>
        <time>2019-05-08T08:51:11Z</time>
      </trkpt>
      <trkpt lat="46.39522" lon="5.75741">
        <ele>814.11</ele>
        <time>2019-05-08T08:51:12Z</time>
      </trkpt>
      <trkpt lat="46.39524" lon="5.75743">
        <ele>814.13</ele>
        <time>2019-05-08T08:51:13Z</time>
      </trkpt>
      <trkpt lat="46.39526" lon="5.75743">
        <ele>814.15</ele>
        <time>2019-05-08T08:51:14Z</time>
      </trkpt>
      <trkpt lat="46.39528" lon="5.75744">
        <ele>814.14</ele>
        <time>2019-05-08T08:51:15Z</time>
      </trkpt>
      <trkpt lat="46.39547" lon="5.75746">
        <ele>815.07</ele>
        <time>2019-05-08T08:51:27Z</time>
      </trkpt>
      <trkpt lat="46.39561" lon="5.7574">
        <ele>817.15</ele>
        <time>2019-05-08T08:51:38Z</time>
      </trkpt>
      <trkpt lat="46.39571" lon="5.75736">
        <ele>818.07</ele>
        <time>2019-05-08T08:51:44Z</time>
      </trkpt>
      <trkpt lat="46.39588" lon="5.75735">
        <ele>820.68</ele>
        <time>2019-05-08T08:51:55Z</time>
      </trkpt>
      <trkpt lat="46.39603" lon="5.75734">
        <ele>823.52</ele>
        <time>2019-05-08T08:52:05Z</time>
      </trkpt>
      <trkpt lat="46.39606" lon="5.75735">
        <ele>823.58</ele>
        <time>2019-05-08T08:52:07Z</time>
      </trkpt>
      <trkpt lat="46.39621" lon="5.75754">
        <ele>823.52</ele>
        <time>2019-05-08T08:52:19Z</time>
      </trkpt>
      <trkpt lat="46.39626" lon="5.75761">
        <ele>823.47</ele>
        <time>2019-05-08T08:52:23Z</time>
      </trkpt>
      <trkpt lat="46.39628" lon="5.75762">
        <ele>823.46</ele>
        <time>2019-05-08T08:52:24Z</time>
      </trkpt>
      <trkpt lat="46.39637" lon="5.75774">
        <ele>823.5</ele>
        <time>2019-05-08T08:52:32Z</time>
      </trkpt>
      <trkpt lat="46.3964" lon="5.75776">
        <ele>823.5</ele>
        <time>2019-05-08T08:52:34Z</time>
      </trkpt>
      <trkpt lat="46.39643" lon="5.75779">
        <ele>823.5</ele>
        <time>2019-05-08T08:52:36Z</time>
      </trkpt>
      <trkpt lat="46.39645" lon="5.7578">
        <ele>823.5</ele>
        <time>2019-05-08T08:52:37Z</time>
      </trkpt>
      <trkpt lat="46.39655" lon="5.7579">
        <ele>821.02</ele>
        <time>2019-05-08T08:52:45Z</time>
      </trkpt>
      <trkpt lat="46.39674" lon="5.75809">
        <ele>820.05</ele>
        <time>2019-05-08T08:53:01Z</time>
      </trkpt>
      <trkpt lat="46.39694" lon="5.75815">
        <ele>819.11</ele>
        <time>2019-05-08T08:53:13Z</time>
      </trkpt>
      <trkpt lat="46.39698" lon="5.75819">
        <ele>819.09</ele>
        <time>2019-05-08T08:53:15Z</time>
      </trkpt>
      <trkpt lat="46.39718" lon="5.75832">
        <ele>818.13</ele>
        <time>2019-05-08T08:53:27Z</time>
      </trkpt>
      <trkpt lat="46.39743" lon="5.75855">
        <ele>817.12</ele>
        <time>2019-05-08T08:53:44Z</time>
      </trkpt>
      <trkpt lat="46.39752" lon="5.75859">
        <ele>816.22</ele>
        <time>2019-05-08T08:53:48Z</time>
      </trkpt>
      <trkpt lat="46.39764" lon="5.75862">
        <ele>816.13</ele>
        <time>2019-05-08T08:53:53Z</time>
      </trkpt>
      <trkpt lat="46.39775" lon="5.75888">
        <ele>815</ele>
        <time>2019-05-08T08:54:05Z</time>
      </trkpt>
      <trkpt lat="46.39777" lon="5.75893">
        <ele>814.98</ele>
        <time>2019-05-08T08:54:07Z</time>
      </trkpt>
      <trkpt lat="46.39791" lon="5.75919">
        <ele>812.64</ele>
        <time>2019-05-08T08:54:17Z</time>
      </trkpt>
      <trkpt lat="46.39793" lon="5.75924">
        <ele>812.61</ele>
        <time>2019-05-08T08:54:19Z</time>
      </trkpt>
      <trkpt lat="46.39799" lon="5.75936">
        <ele>813.86</ele>
        <time>2019-05-08T08:54:24Z</time>
      </trkpt>
      <trkpt lat="46.39804" lon="5.75943">
        <ele>811.18</ele>
        <time>2019-05-08T08:54:27Z</time>
      </trkpt>
      <trkpt lat="46.39814" lon="5.75958">
        <ele>811.03</ele>
        <time>2019-05-08T08:54:32Z</time>
      </trkpt>
      <trkpt lat="46.39821" lon="5.75964">
        <ele>809.8</ele>
        <time>2019-05-08T08:54:35Z</time>
      </trkpt>
      <trkpt lat="46.39824" lon="5.75974">
        <ele>809.58</ele>
        <time>2019-05-08T08:54:39Z</time>
      </trkpt>
      <trkpt lat="46.39831" lon="5.75985">
        <ele>809.43</ele>
        <time>2019-05-08T08:54:43Z</time>
      </trkpt>
      <trkpt lat="46.39836" lon="5.75996">
        <ele>808.59</ele>
        <time>2019-05-08T08:54:47Z</time>
      </trkpt>
      <trkpt lat="46.39851" lon="5.76018">
        <ele>807.69</ele>
        <time>2019-05-08T08:54:57Z</time>
      </trkpt>
      <trkpt lat="46.39865" lon="5.76042">
        <ele>807.6</ele>
        <time>2019-05-08T08:55:06Z</time>
      </trkpt>
      <trkpt lat="46.39874" lon="5.7605">
        <ele>806.76</ele>
        <time>2019-05-08T08:55:12Z</time>
      </trkpt>
      <trkpt lat="46.39887" lon="5.76067">
        <ele>806.69</ele>
        <time>2019-05-08T08:55:21Z</time>
      </trkpt>
      <trkpt lat="46.399" lon="5.76072">
        <ele>806.66</ele>
        <time>2019-05-08T08:55:28Z</time>
      </trkpt>
      <trkpt lat="46.39903" lon="5.76079">
        <ele>806.61</ele>
        <time>2019-05-08T08:55:32Z</time>
      </trkpt>
      <trkpt lat="46.39907" lon="5.76084">
        <ele>806.58</ele>
        <time>2019-05-08T08:55:36Z</time>
      </trkpt>
      <trkpt lat="46.39913" lon="5.761">
        <ele>806.51</ele>
        <time>2019-05-08T08:55:46Z</time>
      </trkpt>
      <trkpt lat="46.39914" lon="5.76119">
        <ele>806.41</ele>
        <time>2019-05-08T08:55:55Z</time>
      </trkpt>
      <trkpt lat="46.39916" lon="5.76125">
        <ele>806.37</ele>
        <time>2019-05-08T08:55:58Z</time>
      </trkpt>
      <trkpt lat="46.39917" lon="5.76134">
        <ele>808.74</ele>
        <time>2019-05-08T08:56:01Z</time>
      </trkpt>
      <trkpt lat="46.39925" lon="5.76143">
        <ele>808.65</ele>
        <time>2019-05-08T08:56:07Z</time>
      </trkpt>
      <trkpt lat="46.39935" lon="5.76161">
        <ele>811.85</ele>
        <time>2019-05-08T08:56:24Z</time>
      </trkpt>
      <trkpt lat="46.39952" lon="5.76168">
        <ele>813.44</ele>
        <time>2019-05-08T08:56:37Z</time>
      </trkpt>
      <trkpt lat="46.39973" lon="5.76182">
        <ele>814.94</ele>
        <time>2019-05-08T08:56:53Z</time>
      </trkpt>
      <trkpt lat="46.39994" lon="5.76187">
        <ele>815.64</ele>
        <time>2019-05-08T08:57:07Z</time>
      </trkpt>
      <trkpt lat="46.40014" lon="5.76197">
        <ele>816.47</ele>
        <time>2019-05-08T08:57:21Z</time>
      </trkpt>
      <trkpt lat="46.40022" lon="5.76202">
        <ele>816.43</ele>
        <time>2019-05-08T08:57:27Z</time>
      </trkpt>
      <trkpt lat="46.40032" lon="5.76216">
        <ele>816.39</ele>
        <time>2019-05-08T08:57:38Z</time>
      </trkpt>
      <trkpt lat="46.40033" lon="5.76225">
        <ele>816.4</ele>
        <time>2019-05-08T08:57:43Z</time>
      </trkpt>
      <trkpt lat="46.40039" lon="5.76238">
        <ele>816.4</ele>
        <time>2019-05-08T08:57:49Z</time>
      </trkpt>
      <trkpt lat="46.40045" lon="5.76242">
        <ele>816.42</ele>
        <time>2019-05-08T08:57:54Z</time>
      </trkpt>
      <trkpt lat="46.40074" lon="5.76251">
        <ele>819.09</ele>
        <time>2019-05-08T08:58:11Z</time>
      </trkpt>
      <trkpt lat="46.40084" lon="5.76254">
        <ele>819.06</ele>
        <time>2019-05-08T08:58:16Z</time>
      </trkpt>
      <trkpt lat="46.40088" lon="5.76255">
        <ele>819.05</ele>
        <time>2019-05-08T08:58:18Z</time>
      </trkpt>
      <trkpt lat="46.4011" lon="5.7626">
        <ele>818.96</ele>
        <time>2019-05-08T08:58:31Z</time>
      </trkpt>
      <trkpt lat="46.40123" lon="5.76265">
        <ele>818.96</ele>
        <time>2019-05-08T08:58:40Z</time>
      </trkpt>
      <trkpt lat="46.40139" lon="5.76273">
        <ele>818.97</ele>
        <time>2019-05-08T08:58:50Z</time>
      </trkpt>
      <trkpt lat="46.40142" lon="5.76274">
        <ele>818.97</ele>
        <time>2019-05-08T08:58:52Z</time>
      </trkpt>
      <trkpt lat="46.40146" lon="5.76276">
        <ele>818.98</ele>
        <time>2019-05-08T08:58:55Z</time>
      </trkpt>
      <trkpt lat="46.40158" lon="5.76275">
        <ele>818.99</ele>
        <time>2019-05-08T08:59:01Z</time>
      </trkpt>
      <trkpt lat="46.40166" lon="5.76276">
        <ele>818.98</ele>
        <time>2019-05-08T08:59:06Z</time>
      </trkpt>
      <trkpt lat="46.40169" lon="5.76278">
        <ele>818.99</ele>
        <time>2019-05-08T08:59:08Z</time>
      </trkpt>
      <trkpt lat="46.40185" lon="5.76288">
        <ele>818.98</ele>
        <time>2019-05-08T08:59:19Z</time>
      </trkpt>
      <trkpt lat="46.40187" lon="5.76296">
        <ele>819.01</ele>
        <time>2019-05-08T08:59:22Z</time>
      </trkpt>
      <trkpt lat="46.40188" lon="5.76304">
        <ele>819.01</ele>
        <time>2019-05-08T08:59:25Z</time>
      </trkpt>
      <trkpt lat="46.40199" lon="5.76329">
        <ele>819.1</ele>
        <time>2019-05-08T08:59:38Z</time>
      </trkpt>
      <trkpt lat="46.40201" lon="5.76335">
        <ele>819.9</ele>
        <time>2019-05-08T08:59:41Z</time>
      </trkpt>
      <trkpt lat="46.40204" lon="5.76347">
        <ele>819.94</ele>
        <time>2019-05-08T08:59:46Z</time>
      </trkpt>
      <trkpt lat="46.40207" lon="5.76353">
        <ele>819.95</ele>
        <time>2019-05-08T08:59:50Z</time>
      </trkpt>
      <trkpt lat="46.4021" lon="5.76362">
        <ele>819.94</ele>
        <time>2019-05-08T08:59:54Z</time>
      </trkpt>
      <trkpt lat="46.40211" lon="5.76373">
        <ele>819.92</ele>
        <time>2019-05-08T08:59:59Z</time>
      </trkpt>
      <trkpt lat="46.4021" lon="5.76385">
        <ele>817.41</ele>
        <time>2019-05-08T09:00:03Z</time>
      </trkpt>
      <trkpt lat="46.40214" lon="5.7641">
        <ele>816.72</ele>
        <time>2019-05-08T09:00:13Z</time>
      </trkpt>
      <trkpt lat="46.40225" lon="5.7643">
        <ele>816.87</ele>
        <time>2019-05-08T09:00:23Z</time>
      </trkpt>
      <trkpt lat="46.40236" lon="5.76437">
        <ele>816.94</ele>
        <time>2019-05-08T09:00:29Z</time>
      </trkpt>
      <trkpt lat="46.40247" lon="5.76445">
        <ele>817.04</ele>
        <time>2019-05-08T09:00:35Z</time>
      </trkpt>
      <trkpt lat="46.40261" lon="5.76457">
        <ele>817.16</ele>
        <time>2019-05-08T09:00:44Z</time>
      </trkpt>
      <trkpt lat="46.40268" lon="5.7646">
        <ele>817.24</ele>
        <time>2019-05-08T09:00:49Z</time>
      </trkpt>
      <trkpt lat="46.4027" lon="5.76463">
        <ele>816.53</ele>
        <time>2019-05-08T09:00:51Z</time>
      </trkpt>
      <trkpt lat="46.40277" lon="5.76468">
        <ele>816.66</ele>
        <time>2019-05-08T09:00:56Z</time>
      </trkpt>
      <trkpt lat="46.40285" lon="5.76476">
        <ele>816.8</ele>
        <time>2019-05-08T09:01:02Z</time>
      </trkpt>
      <trkpt lat="46.40289" lon="5.76482">
        <ele>816.89</ele>
        <time>2019-05-08T09:01:06Z</time>
      </trkpt>
      <trkpt lat="46.40301" lon="5.76492">
        <ele>816.21</ele>
        <time>2019-05-08T09:01:15Z</time>
      </trkpt>
      <trkpt lat="46.40303" lon="5.76493">
        <ele>816.23</ele>
        <time>2019-05-08T09:01:16Z</time>
      </trkpt>
      <trkpt lat="46.40304" lon="5.76494">
        <ele>816.26</ele>
        <time>2019-05-08T09:01:17Z</time>
      </trkpt>
      <trkpt lat="46.40306" lon="5.76496">
        <ele>816.29</ele>
        <time>2019-05-08T09:01:18Z</time>
      </trkpt>
      <trkpt lat="46.40307" lon="5.76498">
        <ele>816.31</ele>
        <time>2019-05-08T09:01:19Z</time>
      </trkpt>
      <trkpt lat="46.40308" lon="5.76499">
        <ele>816.35</ele>
        <time>2019-05-08T09:01:20Z</time>
      </trkpt>
      <trkpt lat="46.40309" lon="5.765">
        <ele>816.37</ele>
        <time>2019-05-08T09:01:21Z</time>
      </trkpt>
      <trkpt lat="46.40311" lon="5.76501">
        <ele>816.41</ele>
        <time>2019-05-08T09:01:22Z</time>
      </trkpt>
      <trkpt lat="46.40312" lon="5.76502">
        <ele>816.44</ele>
        <time>2019-05-08T09:01:23Z</time>
      </trkpt>
      <trkpt lat="46.40314" lon="5.76503">
        <ele>816.47</ele>
        <time>2019-05-08T09:01:24Z</time>
      </trkpt>
      <trkpt lat="46.40315" lon="5.76504">
        <ele>816.49</ele>
        <time>2019-05-08T09:01:25Z</time>
      </trkpt>
      <trkpt lat="46.40316" lon="5.76505">
        <ele>816.53</ele>
        <time>2019-05-08T09:01:26Z</time>
      </trkpt>
      <trkpt lat="46.40317" lon="5.76506">
        <ele>816.56</ele>
        <time>2019-05-08T09:01:27Z</time>
      </trkpt>
      <trkpt lat="46.40318" lon="5.76507">
        <ele>816.59</ele>
        <time>2019-05-08T09:01:28Z</time>
      </trkpt>
      <trkpt lat="46.4032" lon="5.76508">
        <ele>816.63</ele>
        <time>2019-05-08T09:01:29Z</time>
      </trkpt>
      <trkpt lat="46.40322" lon="5.7651">
        <ele>816.66</ele>
        <time>2019-05-08T09:01:30Z</time>
      </trkpt>
      <trkpt lat="46.40323" lon="5.7651">
        <ele>816.7</ele>
        <time>2019-05-08T09:01:31Z</time>
      </trkpt>
      <trkpt lat="46.40324" lon="5.76512">
        <ele>816.73</ele>
        <time>2019-05-08T09:01:32Z</time>
      </trkpt>
      <trkpt lat="46.40325" lon="5.76513">
        <ele>816.75</ele>
        <time>2019-05-08T09:01:33Z</time>
      </trkpt>
      <trkpt lat="46.40327" lon="5.76515">
        <ele>816.78</ele>
        <time>2019-05-08T09:01:34Z</time>
      </trkpt>
      <trkpt lat="46.40328" lon="5.76517">
        <ele>816.81</ele>
        <time>2019-05-08T09:01:35Z</time>
      </trkpt>
      <trkpt lat="46.4033" lon="5.76518">
        <ele>816.84</ele>
        <time>2019-05-08T09:01:36Z</time>
      </trkpt>
      <trkpt lat="46.40331" lon="5.76519">
        <ele>816.87</ele>
        <time>2019-05-08T09:01:37Z</time>
      </trkpt>
      <trkpt lat="46.40332" lon="5.76518">
        <ele>816.91</ele>
        <time>2019-05-08T09:01:38Z</time>
      </trkpt>
      <trkpt lat="46.40333" lon="5.76518">
        <ele>816.94</ele>
        <time>2019-05-08T09:01:39Z</time>
      </trkpt>
      <trkpt lat="46.40334" lon="5.76518">
        <ele>816.97</ele>
        <time>2019-05-08T09:01:40Z</time>
      </trkpt>
      <trkpt lat="46.40339" lon="5.7652">
        <ele>817.08</ele>
        <time>2019-05-08T09:01:44Z</time>
      </trkpt>
      <trkpt lat="46.4034" lon="5.76521">
        <ele>817.11</ele>
        <time>2019-05-08T09:01:45Z</time>
      </trkpt>
      <trkpt lat="46.40341" lon="5.76521">
        <ele>817.14</ele>
        <time>2019-05-08T09:01:46Z</time>
      </trkpt>
      <trkpt lat="46.40342" lon="5.76522">
        <ele>817.17</ele>
        <time>2019-05-08T09:01:47Z</time>
      </trkpt>
      <trkpt lat="46.40351" lon="5.76529">
        <ele>817.42</ele>
        <time>2019-05-08T09:01:56Z</time>
      </trkpt>
      <trkpt lat="46.40351" lon="5.7653">
        <ele>817.45</ele>
        <time>2019-05-08T09:01:57Z</time>
      </trkpt>
      <trkpt lat="46.40352" lon="5.76532">
        <ele>817.47</ele>
        <time>2019-05-08T09:01:58Z</time>
      </trkpt>
      <trkpt lat="46.40356" lon="5.76536">
        <ele>817.58</ele>
        <time>2019-05-08T09:02:02Z</time>
      </trkpt>
      <trkpt lat="46.40364" lon="5.7654">
        <ele>817.75</ele>
        <time>2019-05-08T09:02:09Z</time>
      </trkpt>
      <trkpt lat="46.40366" lon="5.76541">
        <ele>817.77</ele>
        <time>2019-05-08T09:02:10Z</time>
      </trkpt>
      <trkpt lat="46.40384" lon="5.76547">
        <ele>820.63</ele>
        <time>2019-05-08T09:02:21Z</time>
      </trkpt>
      <trkpt lat="46.40385" lon="5.76548">
        <ele>820.63</ele>
        <time>2019-05-08T09:02:22Z</time>
      </trkpt>
      <trkpt lat="46.40389" lon="5.76549">
        <ele>820.68</ele>
        <time>2019-05-08T09:02:24Z</time>
      </trkpt>
      <trkpt lat="46.40393" lon="5.76554">
        <ele>821.49</ele>
        <time>2019-05-08T09:02:27Z</time>
      </trkpt>
      <trkpt lat="46.40394" lon="5.76556">
        <ele>821.5</ele>
        <time>2019-05-08T09:02:28Z</time>
      </trkpt>
      <trkpt lat="46.40395" lon="5.76558">
        <ele>821.53</ele>
        <time>2019-05-08T09:02:29Z</time>
      </trkpt>
      <trkpt lat="46.40396" lon="5.76561">
        <ele>821.62</ele>
        <time>2019-05-08T09:02:31Z</time>
      </trkpt>
      <trkpt lat="46.40397" lon="5.76563">
        <ele>821.63</ele>
        <time>2019-05-08T09:02:32Z</time>
      </trkpt>
      <trkpt lat="46.40399" lon="5.76569">
        <ele>822.44</ele>
        <time>2019-05-08T09:02:35Z</time>
      </trkpt>
      <trkpt lat="46.404" lon="5.76571">
        <ele>822.48</ele>
        <time>2019-05-08T09:02:36Z</time>
      </trkpt>
      <trkpt lat="46.40401" lon="5.76572">
        <ele>822.5</ele>
        <time>2019-05-08T09:02:37Z</time>
      </trkpt>
      <trkpt lat="46.40402" lon="5.76573">
        <ele>822.51</ele>
        <time>2019-05-08T09:02:38Z</time>
      </trkpt>
      <trkpt lat="46.40403" lon="5.76574">
        <ele>823.31</ele>
        <time>2019-05-08T09:02:39Z</time>
      </trkpt>
      <trkpt lat="46.40409" lon="5.76585">
        <ele>823.42</ele>
        <time>2019-05-08T09:02:46Z</time>
      </trkpt>
      <trkpt lat="46.40409" lon="5.76588">
        <ele>823.44</ele>
        <time>2019-05-08T09:02:47Z</time>
      </trkpt>
      <trkpt lat="46.4041" lon="5.7659">
        <ele>823.46</ele>
        <time>2019-05-08T09:02:48Z</time>
      </trkpt>
      <trkpt lat="46.40412" lon="5.76597">
        <ele>824.47</ele>
        <time>2019-05-08T09:02:52Z</time>
      </trkpt>
      <trkpt lat="46.40413" lon="5.76601">
        <ele>824.5</ele>
        <time>2019-05-08T09:02:54Z</time>
      </trkpt>
      <trkpt lat="46.40413" lon="5.76603">
        <ele>824.51</ele>
        <time>2019-05-08T09:02:55Z</time>
      </trkpt>
      <trkpt lat="46.40418" lon="5.76629">
        <ele>824.68</ele>
        <time>2019-05-08T09:03:06Z</time>
      </trkpt>
      <trkpt lat="46.40419" lon="5.7663">
        <ele>824.7</ele>
        <time>2019-05-08T09:03:07Z</time>
      </trkpt>
      <trkpt lat="46.40419" lon="5.76632">
        <ele>824.72</ele>
        <time>2019-05-08T09:03:08Z</time>
      </trkpt>
      <trkpt lat="46.4042" lon="5.76635">
        <ele>824.74</ele>
        <time>2019-05-08T09:03:09Z</time>
      </trkpt>
      <trkpt lat="46.4042" lon="5.76638">
        <ele>824.75</ele>
        <time>2019-05-08T09:03:10Z</time>
      </trkpt>
      <trkpt lat="46.40424" lon="5.76666">
        <ele>825.01</ele>
        <time>2019-05-08T09:03:22Z</time>
      </trkpt>
      <trkpt lat="46.40427" lon="5.76688">
        <ele>825.2</ele>
        <time>2019-05-08T09:03:33Z</time>
      </trkpt>
      <trkpt lat="46.4043" lon="5.76692">
        <ele>825.24</ele>
        <time>2019-05-08T09:03:35Z</time>
      </trkpt>
      <trkpt lat="46.40429" lon="5.76711">
        <ele>825.5</ele>
        <time>2019-05-08T09:03:49Z</time>
      </trkpt>
      <trkpt lat="46.40432" lon="5.76736">
        <ele>825.69</ele>
        <time>2019-05-08T09:04:01Z</time>
      </trkpt>
      <trkpt lat="46.40438" lon="5.7676">
        <ele>827.65</ele>
        <time>2019-05-08T09:04:15Z</time>
      </trkpt>
      <trkpt lat="46.40446" lon="5.76786">
        <ele>829.31</ele>
        <time>2019-05-08T09:04:30Z</time>
      </trkpt>
      <trkpt lat="46.40424" lon="5.76812">
        <ele>829.31</ele>
        <time>2019-05-08T09:04:47Z</time>
      </trkpt>
      <trkpt lat="46.40424" lon="5.76814">
        <ele>829.32</ele>
        <time>2019-05-08T09:04:48Z</time>
      </trkpt>
      <trkpt lat="46.40422" lon="5.76817">
        <ele>829.32</ele>
        <time>2019-05-08T09:04:49Z</time>
      </trkpt>
      <trkpt lat="46.40422" lon="5.76819">
        <ele>829.32</ele>
        <time>2019-05-08T09:04:50Z</time>
      </trkpt>
      <trkpt lat="46.40421" lon="5.76822">
        <ele>829.32</ele>
        <time>2019-05-08T09:04:51Z</time>
      </trkpt>
      <trkpt lat="46.40418" lon="5.76825">
        <ele>829.32</ele>
        <time>2019-05-08T09:04:52Z</time>
      </trkpt>
      <trkpt lat="46.40416" lon="5.76834">
        <ele>826.89</ele>
        <time>2019-05-08T09:04:56Z</time>
      </trkpt>
      <trkpt lat="46.40411" lon="5.76868">
        <ele>823.18</ele>
        <time>2019-05-08T09:05:08Z</time>
      </trkpt>
      <trkpt lat="46.40416" lon="5.76895">
        <ele>819.82</ele>
        <time>2019-05-08T09:05:19Z</time>
      </trkpt>
      <trkpt lat="46.4042" lon="5.76918">
        <ele>818.32</ele>
        <time>2019-05-08T09:05:28Z</time>
      </trkpt>
      <trkpt lat="46.40413" lon="5.76938">
        <ele>816.01</ele>
        <time>2019-05-08T09:05:41Z</time>
      </trkpt>
      <trkpt lat="46.40388" lon="5.76947">
        <ele>814.47</ele>
        <time>2019-05-08T09:05:56Z</time>
      </trkpt>
      <trkpt lat="46.40373" lon="5.76951">
        <ele>814.54</ele>
        <time>2019-05-08T09:06:04Z</time>
      </trkpt>
      <trkpt lat="46.40364" lon="5.76949">
        <ele>814.56</ele>
        <time>2019-05-08T09:06:09Z</time>
      </trkpt>
      <trkpt lat="46.40354" lon="5.76949">
        <ele>814.61</ele>
        <time>2019-05-08T09:06:16Z</time>
      </trkpt>
      <trkpt lat="46.40334" lon="5.76938">
        <ele>813.07</ele>
        <time>2019-05-08T09:06:30Z</time>
      </trkpt>
      <trkpt lat="46.40316" lon="5.76934">
        <ele>812.29</ele>
        <time>2019-05-08T09:06:45Z</time>
      </trkpt>
      <trkpt lat="46.40315" lon="5.76935">
        <ele>812.29</ele>
        <time>2019-05-08T09:06:46Z</time>
      </trkpt>
      <trkpt lat="46.40294" lon="5.76933">
        <ele>810.55</ele>
        <time>2019-05-08T09:07:01Z</time>
      </trkpt>
      <trkpt lat="46.40279" lon="5.76924">
        <ele>808.97</ele>
        <time>2019-05-08T09:07:15Z</time>
      </trkpt>
      <trkpt lat="46.40264" lon="5.76913">
        <ele>807.17</ele>
        <time>2019-05-08T09:07:27Z</time>
      </trkpt>
      <trkpt lat="46.40258" lon="5.76909">
        <ele>805.53</ele>
        <time>2019-05-08T09:07:32Z</time>
      </trkpt>
      <trkpt lat="46.40249" lon="5.76909">
        <ele>804.77</ele>
        <time>2019-05-08T09:07:38Z</time>
      </trkpt>
      <trkpt lat="46.40234" lon="5.769">
        <ele>802.78</ele>
        <time>2019-05-08T09:07:49Z</time>
      </trkpt>
      <trkpt lat="46.40226" lon="5.76898">
        <ele>801.96</ele>
        <time>2019-05-08T09:07:54Z</time>
      </trkpt>
      <trkpt lat="46.40219" lon="5.76896">
        <ele>800.84</ele>
        <time>2019-05-08T09:07:59Z</time>
      </trkpt>
      <trkpt lat="46.402" lon="5.76905">
        <ele>800.59</ele>
        <time>2019-05-08T09:08:14Z</time>
      </trkpt>
      <trkpt lat="46.40197" lon="5.76905">
        <ele>800.55</ele>
        <time>2019-05-08T09:08:16Z</time>
      </trkpt>
      <trkpt lat="46.40193" lon="5.76909">
        <ele>800.48</ele>
        <time>2019-05-08T09:08:19Z</time>
      </trkpt>
      <trkpt lat="46.40189" lon="5.76906">
        <ele>800.43</ele>
        <time>2019-05-08T09:08:21Z</time>
      </trkpt>
      <trkpt lat="46.40176" lon="5.76907">
        <ele>800.15</ele>
        <time>2019-05-08T09:08:33Z</time>
      </trkpt>
      <trkpt lat="46.40151" lon="5.76907">
        <ele>799.82</ele>
        <time>2019-05-08T09:08:47Z</time>
      </trkpt>
      <trkpt lat="46.40148" lon="5.76907">
        <ele>799.76</ele>
        <time>2019-05-08T09:08:49Z</time>
      </trkpt>
      <trkpt lat="46.4014" lon="5.76909">
        <ele>799.66</ele>
        <time>2019-05-08T09:08:54Z</time>
      </trkpt>
      <trkpt lat="46.4012" lon="5.76903">
        <ele>799.45</ele>
        <time>2019-05-08T09:09:04Z</time>
      </trkpt>
      <trkpt lat="46.40115" lon="5.76901">
        <ele>801.64</ele>
        <time>2019-05-08T09:09:07Z</time>
      </trkpt>
      <trkpt lat="46.40112" lon="5.76899">
        <ele>801.59</ele>
        <time>2019-05-08T09:09:09Z</time>
      </trkpt>
      <trkpt lat="46.40091" lon="5.76891">
        <ele>802.17</ele>
        <time>2019-05-08T09:09:24Z</time>
      </trkpt>
      <trkpt lat="46.40084" lon="5.76889">
        <ele>802.82</ele>
        <time>2019-05-08T09:09:29Z</time>
      </trkpt>
      <trkpt lat="46.40062" lon="5.76874">
        <ele>803.4</ele>
        <time>2019-05-08T09:09:42Z</time>
      </trkpt>
      <trkpt lat="46.40042" lon="5.76867">
        <ele>803.98</ele>
        <time>2019-05-08T09:09:58Z</time>
      </trkpt>
      <trkpt lat="46.40017" lon="5.76839">
        <ele>805.28</ele>
        <time>2019-05-08T09:10:12Z</time>
      </trkpt>
      <trkpt lat="46.40016" lon="5.76838">
        <ele>805.27</ele>
        <time>2019-05-08T09:10:13Z</time>
      </trkpt>
      <trkpt lat="46.40013" lon="5.76833">
        <ele>805.22</ele>
        <time>2019-05-08T09:10:16Z</time>
      </trkpt>
      <trkpt lat="46.39993" lon="5.76797">
        <ele>807.62</ele>
        <time>2019-05-08T09:10:32Z</time>
      </trkpt>
      <trkpt lat="46.39966" lon="5.76782">
        <ele>808.19</ele>
        <time>2019-05-08T09:10:50Z</time>
      </trkpt>
      <trkpt lat="46.3994" lon="5.76763">
        <ele>808.82</ele>
        <time>2019-05-08T09:11:08Z</time>
      </trkpt>
      <trkpt lat="46.39917" lon="5.76741">
        <ele>809.47</ele>
        <time>2019-05-08T09:11:25Z</time>
      </trkpt>
      <trkpt lat="46.39914" lon="5.76739">
        <ele>809.45</ele>
        <time>2019-05-08T09:11:27Z</time>
      </trkpt>
      <trkpt lat="46.39891" lon="5.7674">
        <ele>810.08</ele>
        <time>2019-05-08T09:11:43Z</time>
      </trkpt>
      <trkpt lat="46.39877" lon="5.76748">
        <ele>809.94</ele>
        <time>2019-05-08T09:11:55Z</time>
      </trkpt>
      <trkpt lat="46.39866" lon="5.76753">
        <ele>809.86</ele>
        <time>2019-05-08T09:12:05Z</time>
      </trkpt>
      <trkpt lat="46.39847" lon="5.76756">
        <ele>809.73</ele>
        <time>2019-05-08T09:12:18Z</time>
      </trkpt>
      <trkpt lat="46.39845" lon="5.76754">
        <ele>809.72</ele>
        <time>2019-05-08T09:12:20Z</time>
      </trkpt>
      <trkpt lat="46.39837" lon="5.76754">
        <ele>809.64</ele>
        <time>2019-05-08T09:12:43Z</time>
      </trkpt>
      <trkpt lat="46.39834" lon="5.76752">
        <ele>809.98</ele>
        <time>2019-05-08T09:13:18Z</time>
      </trkpt>
      <trkpt lat="46.39838" lon="5.76749">
        <ele>810.47</ele>
        <time>2019-05-08T09:13:44Z</time>
      </trkpt>
      <trkpt lat="46.39838" lon="5.76751">
        <ele>810.52</ele>
        <time>2019-05-08T09:13:46Z</time>
      </trkpt>
      <trkpt lat="46.39838" lon="5.76743">
        <ele>810.83</ele>
        <time>2019-05-08T09:13:58Z</time>
      </trkpt>
      <trkpt lat="46.39829" lon="5.76737">
        <ele>812.16</ele>
        <time>2019-05-08T09:14:06Z</time>
      </trkpt>
      <trkpt lat="46.39822" lon="5.7673">
        <ele>814.98</ele>
        <time>2019-05-08T09:14:13Z</time>
      </trkpt>
      <trkpt lat="46.39807" lon="5.76712">
        <ele>817.96</ele>
        <time>2019-05-08T09:14:29Z</time>
      </trkpt>
      <trkpt lat="46.39795" lon="5.76703">
        <ele>821.75</ele>
        <time>2019-05-08T09:14:42Z</time>
      </trkpt>
      <trkpt lat="46.39782" lon="5.76693">
        <ele>824.09</ele>
        <time>2019-05-08T09:15:01Z</time>
      </trkpt>
      <trkpt lat="46.39776" lon="5.76687">
        <ele>821.71</ele>
        <time>2019-05-08T09:15:10Z</time>
      </trkpt>
      <trkpt lat="46.39772" lon="5.7668">
        <ele>820.91</ele>
        <time>2019-05-08T09:15:15Z</time>
      </trkpt>
      <trkpt lat="46.39757" lon="5.7666">
        <ele>820.04</ele>
        <time>2019-05-08T09:15:33Z</time>
      </trkpt>
      <trkpt lat="46.39754" lon="5.76661">
        <ele>820.04</ele>
        <time>2019-05-08T09:15:36Z</time>
      </trkpt>
      <trkpt lat="46.39741" lon="5.76647">
        <ele>815.31</ele>
        <time>2019-05-08T09:15:49Z</time>
      </trkpt>
      <trkpt lat="46.3974" lon="5.76646">
        <ele>815.3</ele>
        <time>2019-05-08T09:15:50Z</time>
      </trkpt>
      <trkpt lat="46.39737" lon="5.76642">
        <ele>812.07</ele>
        <time>2019-05-08T09:15:53Z</time>
      </trkpt>
      <trkpt lat="46.39737" lon="5.76641">
        <ele>812.06</ele>
        <time>2019-05-08T09:15:54Z</time>
      </trkpt>
      <trkpt lat="46.39737" lon="5.76638">
        <ele>815.32</ele>
        <time>2019-05-08T09:15:56Z</time>
      </trkpt>
      <trkpt lat="46.39736" lon="5.76632">
        <ele>817.19</ele>
        <time>2019-05-08T09:15:59Z</time>
      </trkpt>
      <trkpt lat="46.39729" lon="5.76628">
        <ele>819.63</ele>
        <time>2019-05-08T09:16:04Z</time>
      </trkpt>
      <trkpt lat="46.39723" lon="5.76616">
        <ele>819.55</ele>
        <time>2019-05-08T09:16:10Z</time>
      </trkpt>
      <trkpt lat="46.39717" lon="5.76607">
        <ele>817.14</ele>
        <time>2019-05-08T09:16:15Z</time>
      </trkpt>
      <trkpt lat="46.39709" lon="5.76599">
        <ele>815.01</ele>
        <time>2019-05-08T09:16:22Z</time>
      </trkpt>
      <trkpt lat="46.39706" lon="5.76595">
        <ele>813.75</ele>
        <time>2019-05-08T09:16:25Z</time>
      </trkpt>
      <trkpt lat="46.397" lon="5.76585">
        <ele>812</ele>
        <time>2019-05-08T09:16:31Z</time>
      </trkpt>
      <trkpt lat="46.39697" lon="5.76576">
        <ele>809.99</ele>
        <time>2019-05-08T09:16:34Z</time>
      </trkpt>
      <trkpt lat="46.3968" lon="5.76548">
        <ele>811.39</ele>
        <time>2019-05-08T09:16:49Z</time>
      </trkpt>
      <trkpt lat="46.39668" lon="5.76519">
        <ele>814.06</ele>
        <time>2019-05-08T09:17:04Z</time>
      </trkpt>
      <trkpt lat="46.39651" lon="5.76501">
        <ele>814.65</ele>
        <time>2019-05-08T09:17:19Z</time>
      </trkpt>
      <trkpt lat="46.39646" lon="5.76496">
        <ele>812.15</ele>
        <time>2019-05-08T09:17:25Z</time>
      </trkpt>
      <trkpt lat="46.39636" lon="5.76488">
        <ele>809.03</ele>
        <time>2019-05-08T09:17:32Z</time>
      </trkpt>
      <trkpt lat="46.39623" lon="5.76456">
        <ele>805.95</ele>
        <time>2019-05-08T09:17:46Z</time>
      </trkpt>
      <trkpt lat="46.39612" lon="5.76456">
        <ele>808.43</ele>
        <time>2019-05-08T09:17:58Z</time>
      </trkpt>
      <trkpt lat="46.39611" lon="5.76456">
        <ele>808.47</ele>
        <time>2019-05-08T09:17:59Z</time>
      </trkpt>
      <trkpt lat="46.39603" lon="5.76462">
        <ele>805.83</ele>
        <time>2019-05-08T09:18:14Z</time>
      </trkpt>
      <trkpt lat="46.39592" lon="5.76467">
        <ele>801.53</ele>
        <time>2019-05-08T09:18:25Z</time>
      </trkpt>
      <trkpt lat="46.3959" lon="5.76466">
        <ele>799.11</ele>
        <time>2019-05-08T09:18:27Z</time>
      </trkpt>
      <trkpt lat="46.39583" lon="5.76459">
        <ele>799.1</ele>
        <time>2019-05-08T09:18:31Z</time>
      </trkpt>
      <trkpt lat="46.39574" lon="5.76454">
        <ele>798.19</ele>
        <time>2019-05-08T09:18:36Z</time>
      </trkpt>
      <trkpt lat="46.39568" lon="5.76448">
        <ele>796.63</ele>
        <time>2019-05-08T09:18:40Z</time>
      </trkpt>
      <trkpt lat="46.39545" lon="5.7644">
        <ele>795.37</ele>
        <time>2019-05-08T09:18:53Z</time>
      </trkpt>
      <trkpt lat="46.39524" lon="5.76428">
        <ele>793.61</ele>
        <time>2019-05-08T09:19:02Z</time>
      </trkpt>
      <trkpt lat="46.39503" lon="5.76431">
        <ele>789.68</ele>
        <time>2019-05-08T09:19:15Z</time>
      </trkpt>
      <trkpt lat="46.39502" lon="5.76431">
        <ele>789.41</ele>
        <time>2019-05-08T09:19:16Z</time>
      </trkpt>
      <trkpt lat="46.39488" lon="5.76431">
        <ele>785.95</ele>
        <time>2019-05-08T09:19:25Z</time>
      </trkpt>
      <trkpt lat="46.39487" lon="5.76431">
        <ele>785.72</ele>
        <time>2019-05-08T09:19:26Z</time>
      </trkpt>
      <trkpt lat="46.39481" lon="5.76429">
        <ele>784.8</ele>
        <time>2019-05-08T09:19:32Z</time>
      </trkpt>
      <trkpt lat="46.39474" lon="5.76425">
        <ele>783.08</ele>
        <time>2019-05-08T09:19:36Z</time>
      </trkpt>
      <trkpt lat="46.39466" lon="5.76418">
        <ele>779.41</ele>
        <time>2019-05-08T09:19:43Z</time>
      </trkpt>
      <trkpt lat="46.39462" lon="5.76418">
        <ele>777.66</ele>
        <time>2019-05-08T09:19:47Z</time>
      </trkpt>
      <trkpt lat="46.39459" lon="5.76418">
        <ele>776.3</ele>
        <time>2019-05-08T09:19:51Z</time>
      </trkpt>
      <trkpt lat="46.39464" lon="5.76427">
        <ele>775.15</ele>
        <time>2019-05-08T09:19:59Z</time>
      </trkpt>
      <trkpt lat="46.39465" lon="5.76429">
        <ele>774.83</ele>
        <time>2019-05-08T09:20:01Z</time>
      </trkpt>
      <trkpt lat="46.39465" lon="5.7644">
        <ele>770.73</ele>
        <time>2019-05-08T09:20:09Z</time>
      </trkpt>
      <trkpt lat="46.39464" lon="5.76446">
        <ele>770.73</ele>
        <time>2019-05-08T09:20:10Z</time>
      </trkpt>
      <trkpt lat="46.39457" lon="5.76479">
        <ele>767.59</ele>
        <time>2019-05-08T09:20:25Z</time>
      </trkpt>
      <trkpt lat="46.39472" lon="5.76515">
        <ele>764.68</ele>
        <time>2019-05-08T09:20:42Z</time>
      </trkpt>
      <trkpt lat="46.39476" lon="5.76517">
        <ele>761.64</ele>
        <time>2019-05-08T09:20:46Z</time>
      </trkpt>
      <trkpt lat="46.39476" lon="5.76518">
        <ele>760.34</ele>
        <time>2019-05-08T09:20:48Z</time>
      </trkpt>
      <trkpt lat="46.39478" lon="5.76522">
        <ele>763.08</ele>
        <time>2019-05-08T09:20:50Z</time>
      </trkpt>
      <trkpt lat="46.39479" lon="5.76526">
        <ele>763.28</ele>
        <time>2019-05-08T09:20:51Z</time>
      </trkpt>
      <trkpt lat="46.39479" lon="5.76527">
        <ele>763.03</ele>
        <time>2019-05-08T09:20:53Z</time>
      </trkpt>
      <trkpt lat="46.39481" lon="5.76534">
        <ele>760.95</ele>
        <time>2019-05-08T09:20:56Z</time>
      </trkpt>
      <trkpt lat="46.39482" lon="5.7654">
        <ele>759.67</ele>
        <time>2019-05-08T09:20:59Z</time>
      </trkpt>
      <trkpt lat="46.39491" lon="5.76552">
        <ele>759.74</ele>
        <time>2019-05-08T09:21:08Z</time>
      </trkpt>
      <trkpt lat="46.39484" lon="5.76571">
        <ele>759.65</ele>
        <time>2019-05-08T09:21:14Z</time>
      </trkpt>
      <trkpt lat="46.39487" lon="5.76601">
        <ele>759.52</ele>
        <time>2019-05-08T09:21:27Z</time>
      </trkpt>
      <trkpt lat="46.39495" lon="5.7662">
        <ele>762.33</ele>
        <time>2019-05-08T09:21:30Z</time>
      </trkpt>
      <trkpt lat="46.39515" lon="5.76647">
        <ele>762</ele>
        <time>2019-05-08T09:21:42Z</time>
      </trkpt>
      <trkpt lat="46.3952" lon="5.76654">
        <ele>759.74</ele>
        <time>2019-05-08T09:21:45Z</time>
      </trkpt>
      <trkpt lat="46.39521" lon="5.76656">
        <ele>758.4</ele>
        <time>2019-05-08T09:21:46Z</time>
      </trkpt>
      <trkpt lat="46.39523" lon="5.7666">
        <ele>757.07</ele>
        <time>2019-05-08T09:21:48Z</time>
      </trkpt>
      <trkpt lat="46.39525" lon="5.76662">
        <ele>760.43</ele>
        <time>2019-05-08T09:21:50Z</time>
      </trkpt>
      <trkpt lat="46.39528" lon="5.76677">
        <ele>761.3</ele>
        <time>2019-05-08T09:21:58Z</time>
      </trkpt>
      <trkpt lat="46.39527" lon="5.76681">
        <ele>761.38</ele>
        <time>2019-05-08T09:22:01Z</time>
      </trkpt>
      <trkpt lat="46.39532" lon="5.76696">
        <ele>761.4</ele>
        <time>2019-05-08T09:22:08Z</time>
      </trkpt>
      <trkpt lat="46.39538" lon="5.76701">
        <ele>761.37</ele>
        <time>2019-05-08T09:22:12Z</time>
      </trkpt>
      <trkpt lat="46.39547" lon="5.76715">
        <ele>758.97</ele>
        <time>2019-05-08T09:22:20Z</time>
      </trkpt>
      <trkpt lat="46.3955" lon="5.76723">
        <ele>758.92</ele>
        <time>2019-05-08T09:22:26Z</time>
      </trkpt>
      <trkpt lat="46.39553" lon="5.76726">
        <ele>758.06</ele>
        <time>2019-05-08T09:22:28Z</time>
      </trkpt>
      <trkpt lat="46.3956" lon="5.76748">
        <ele>755.68</ele>
        <time>2019-05-08T09:22:38Z</time>
      </trkpt>
      <trkpt lat="46.39565" lon="5.7677">
        <ele>755.4</ele>
        <time>2019-05-08T09:22:47Z</time>
      </trkpt>
      <trkpt lat="46.39572" lon="5.76778">
        <ele>754.49</ele>
        <time>2019-05-08T09:22:51Z</time>
      </trkpt>
      <trkpt lat="46.39584" lon="5.76813">
        <ele>754.53</ele>
        <time>2019-05-08T09:23:01Z</time>
      </trkpt>
      <trkpt lat="46.39593" lon="5.76832">
        <ele>754.43</ele>
        <time>2019-05-08T09:23:05Z</time>
      </trkpt>
      <trkpt lat="46.39597" lon="5.76834">
        <ele>754.47</ele>
        <time>2019-05-08T09:23:08Z</time>
      </trkpt>
      <trkpt lat="46.39598" lon="5.76837">
        <ele>754.46</ele>
        <time>2019-05-08T09:23:10Z</time>
      </trkpt>
      <trkpt lat="46.39603" lon="5.7684">
        <ele>754.47</ele>
        <time>2019-05-08T09:23:13Z</time>
      </trkpt>
      <trkpt lat="46.39609" lon="5.76851">
        <ele>754.27</ele>
        <time>2019-05-08T09:23:21Z</time>
      </trkpt>
      <trkpt lat="46.3962" lon="5.76865">
        <ele>752.5</ele>
        <time>2019-05-08T09:23:34Z</time>
      </trkpt>
      <trkpt lat="46.3962" lon="5.76866">
        <ele>752.54</ele>
        <time>2019-05-08T09:23:35Z</time>
      </trkpt>
      <trkpt lat="46.39623" lon="5.76869">
        <ele>751.44</ele>
        <time>2019-05-08T09:23:38Z</time>
      </trkpt>
      <trkpt lat="46.3963" lon="5.76892">
        <ele>750.47</ele>
        <time>2019-05-08T09:23:45Z</time>
      </trkpt>
      <trkpt lat="46.39633" lon="5.76905">
        <ele>749.51</ele>
        <time>2019-05-08T09:23:49Z</time>
      </trkpt>
      <trkpt lat="46.39668" lon="5.76946">
        <ele>747.27</ele>
        <time>2019-05-08T09:24:01Z</time>
      </trkpt>
      <trkpt lat="46.39669" lon="5.76949">
        <ele>745.28</ele>
        <time>2019-05-08T09:24:03Z</time>
      </trkpt>
      <trkpt lat="46.39673" lon="5.76954">
        <ele>743.82</ele>
        <time>2019-05-08T09:24:13Z</time>
      </trkpt>
      <trkpt lat="46.3968" lon="5.76953">
        <ele>743.9</ele>
        <time>2019-05-08T09:24:14Z</time>
      </trkpt>
      <trkpt lat="46.39685" lon="5.76958">
        <ele>742.9</ele>
        <time>2019-05-08T09:24:17Z</time>
      </trkpt>
      <trkpt lat="46.39689" lon="5.76966">
        <ele>740.56</ele>
        <time>2019-05-08T09:24:23Z</time>
      </trkpt>
      <trkpt lat="46.3969" lon="5.76967">
        <ele>740.55</ele>
        <time>2019-05-08T09:24:24Z</time>
      </trkpt>
      <trkpt lat="46.39692" lon="5.76969">
        <ele>739.03</ele>
        <time>2019-05-08T09:24:26Z</time>
      </trkpt>
      <trkpt lat="46.39717" lon="5.76983">
        <ele>735.48</ele>
        <time>2019-05-08T09:24:38Z</time>
      </trkpt>
      <trkpt lat="46.39719" lon="5.76984">
        <ele>735.48</ele>
        <time>2019-05-08T09:24:39Z</time>
      </trkpt>
      <trkpt lat="46.39726" lon="5.77">
        <ele>733.71</ele>
        <time>2019-05-08T09:24:46Z</time>
      </trkpt>
      <trkpt lat="46.39729" lon="5.77004">
        <ele>732.09</ele>
        <time>2019-05-08T09:24:49Z</time>
      </trkpt>
      <trkpt lat="46.39735" lon="5.77023">
        <ele>731.52</ele>
        <time>2019-05-08T09:24:54Z</time>
      </trkpt>
      <trkpt lat="46.39737" lon="5.77026">
        <ele>730.53</ele>
        <time>2019-05-08T09:24:56Z</time>
      </trkpt>
      <trkpt lat="46.39747" lon="5.77028">
        <ele>729.6</ele>
        <time>2019-05-08T09:25:01Z</time>
      </trkpt>
      <trkpt lat="46.39762" lon="5.7704">
        <ele>726.7</ele>
        <time>2019-05-08T09:25:11Z</time>
      </trkpt>
      <trkpt lat="46.39764" lon="5.77045">
        <ele>725.54</ele>
        <time>2019-05-08T09:25:14Z</time>
      </trkpt>
      <trkpt lat="46.39764" lon="5.77047">
        <ele>724.35</ele>
        <time>2019-05-08T09:25:16Z</time>
      </trkpt>
      <trkpt lat="46.39766" lon="5.77058">
        <ele>724.33</ele>
        <time>2019-05-08T09:25:19Z</time>
      </trkpt>
      <trkpt lat="46.39767" lon="5.77067">
        <ele>723.03</ele>
        <time>2019-05-08T09:25:21Z</time>
      </trkpt>
      <trkpt lat="46.39767" lon="5.77095">
        <ele>722.32</ele>
        <time>2019-05-08T09:25:24Z</time>
      </trkpt>
      <trkpt lat="46.39767" lon="5.77106">
        <ele>720.92</ele>
        <time>2019-05-08T09:25:26Z</time>
      </trkpt>
      <trkpt lat="46.39777" lon="5.77168">
        <ele>716.49</ele>
        <time>2019-05-08T09:25:39Z</time>
      </trkpt>
      <trkpt lat="46.39778" lon="5.77171">
        <ele>716.5</ele>
        <time>2019-05-08T09:25:40Z</time>
      </trkpt>
      <trkpt lat="46.39788" lon="5.77186">
        <ele>715.76</ele>
        <time>2019-05-08T09:25:47Z</time>
      </trkpt>
      <trkpt lat="46.39798" lon="5.77192">
        <ele>715.75</ele>
        <time>2019-05-08T09:25:52Z</time>
      </trkpt>
      <trkpt lat="46.39809" lon="5.772">
        <ele>715.88</ele>
        <time>2019-05-08T09:25:57Z</time>
      </trkpt>
      <trkpt lat="46.39824" lon="5.77229">
        <ele>716.07</ele>
        <time>2019-05-08T09:26:08Z</time>
      </trkpt>
      <trkpt lat="46.39832" lon="5.77238">
        <ele>716.2</ele>
        <time>2019-05-08T09:26:13Z</time>
      </trkpt>
      <trkpt lat="46.39843" lon="5.77256">
        <ele>716.36</ele>
        <time>2019-05-08T09:26:23Z</time>
      </trkpt>
      <trkpt lat="46.39849" lon="5.77279">
        <ele>716.47</ele>
        <time>2019-05-08T09:26:33Z</time>
      </trkpt>
      <trkpt lat="46.39846" lon="5.77324">
        <ele>714.71</ele>
        <time>2019-05-08T09:26:45Z</time>
      </trkpt>
      <trkpt lat="46.39848" lon="5.77331">
        <ele>713.44</ele>
        <time>2019-05-08T09:26:47Z</time>
      </trkpt>
      <trkpt lat="46.39854" lon="5.77342">
        <ele>713.48</ele>
        <time>2019-05-08T09:26:50Z</time>
      </trkpt>
      <trkpt lat="46.39856" lon="5.77345">
        <ele>713.47</ele>
        <time>2019-05-08T09:26:51Z</time>
      </trkpt>
      <trkpt lat="46.39859" lon="5.77348">
        <ele>713.48</ele>
        <time>2019-05-08T09:26:52Z</time>
      </trkpt>
      <trkpt lat="46.39861" lon="5.7735">
        <ele>712.6</ele>
        <time>2019-05-08T09:26:53Z</time>
      </trkpt>
      <trkpt lat="46.39864" lon="5.77353">
        <ele>712.63</ele>
        <time>2019-05-08T09:26:54Z</time>
      </trkpt>
      <trkpt lat="46.39866" lon="5.77356">
        <ele>712.62</ele>
        <time>2019-05-08T09:26:55Z</time>
      </trkpt>
      <trkpt lat="46.39868" lon="5.77357">
        <ele>712.67</ele>
        <time>2019-05-08T09:26:56Z</time>
      </trkpt>
      <trkpt lat="46.39871" lon="5.77359">
        <ele>712.68</ele>
        <time>2019-05-08T09:26:57Z</time>
      </trkpt>
      <trkpt lat="46.39872" lon="5.77361">
        <ele>712.73</ele>
        <time>2019-05-08T09:26:58Z</time>
      </trkpt>
      <trkpt lat="46.39874" lon="5.77362">
        <ele>712.77</ele>
        <time>2019-05-08T09:26:59Z</time>
      </trkpt>
      <trkpt lat="46.39875" lon="5.77363">
        <ele>712.82</ele>
        <time>2019-05-08T09:27:00Z</time>
      </trkpt>
      <trkpt lat="46.39877" lon="5.77365">
        <ele>712.86</ele>
        <time>2019-05-08T09:27:01Z</time>
      </trkpt>
      <trkpt lat="46.39879" lon="5.77366">
        <ele>712.91</ele>
        <time>2019-05-08T09:27:02Z</time>
      </trkpt>
      <trkpt lat="46.39881" lon="5.77368">
        <ele>712.94</ele>
        <time>2019-05-08T09:27:03Z</time>
      </trkpt>
      <trkpt lat="46.39897" lon="5.77371">
        <ele>713.07</ele>
        <time>2019-05-08T09:27:07Z</time>
      </trkpt>
      <trkpt lat="46.39899" lon="5.77373">
        <ele>713.08</ele>
        <time>2019-05-08T09:27:08Z</time>
      </trkpt>
      <trkpt lat="46.3992" lon="5.77394">
        <ele>711.81</ele>
        <time>2019-05-08T09:27:23Z</time>
      </trkpt>
      <trkpt lat="46.39922" lon="5.77397">
        <ele>711.85</ele>
        <time>2019-05-08T09:27:25Z</time>
      </trkpt>
      <trkpt lat="46.39923" lon="5.77398">
        <ele>711.88</ele>
        <time>2019-05-08T09:27:26Z</time>
      </trkpt>
      <trkpt lat="46.39924" lon="5.774">
        <ele>711.9</ele>
        <time>2019-05-08T09:27:27Z</time>
      </trkpt>
      <trkpt lat="46.39935" lon="5.77421">
        <ele>710.53</ele>
        <time>2019-05-08T09:27:38Z</time>
      </trkpt>
      <trkpt lat="46.39937" lon="5.77423">
        <ele>710.55</ele>
        <time>2019-05-08T09:27:39Z</time>
      </trkpt>
      <trkpt lat="46.39937" lon="5.77425">
        <ele>709.62</ele>
        <time>2019-05-08T09:27:40Z</time>
      </trkpt>
      <trkpt lat="46.39939" lon="5.77427">
        <ele>709.65</ele>
        <time>2019-05-08T09:27:41Z</time>
      </trkpt>
      <trkpt lat="46.3994" lon="5.77429">
        <ele>709.67</ele>
        <time>2019-05-08T09:27:42Z</time>
      </trkpt>
      <trkpt lat="46.39949" lon="5.77442">
        <ele>708.15</ele>
        <time>2019-05-08T09:27:50Z</time>
      </trkpt>
      <trkpt lat="46.3995" lon="5.77444">
        <ele>708.16</ele>
        <time>2019-05-08T09:27:51Z</time>
      </trkpt>
      <trkpt lat="46.39952" lon="5.77445">
        <ele>708.19</ele>
        <time>2019-05-08T09:27:52Z</time>
      </trkpt>
      <trkpt lat="46.39953" lon="5.77446">
        <ele>708.23</ele>
        <time>2019-05-08T09:27:53Z</time>
      </trkpt>
      <trkpt lat="46.39954" lon="5.77447">
        <ele>708.25</ele>
        <time>2019-05-08T09:27:54Z</time>
      </trkpt>
      <trkpt lat="46.39955" lon="5.77449">
        <ele>707.24</ele>
        <time>2019-05-08T09:27:55Z</time>
      </trkpt>
      <trkpt lat="46.39956" lon="5.7745">
        <ele>707.27</ele>
        <time>2019-05-08T09:27:56Z</time>
      </trkpt>
      <trkpt lat="46.39957" lon="5.77451">
        <ele>707.31</ele>
        <time>2019-05-08T09:27:57Z</time>
      </trkpt>
      <trkpt lat="46.39959" lon="5.77452">
        <ele>707.34</ele>
        <time>2019-05-08T09:27:58Z</time>
      </trkpt>
      <trkpt lat="46.3996" lon="5.77454">
        <ele>706.49</ele>
        <time>2019-05-08T09:27:59Z</time>
      </trkpt>
      <trkpt lat="46.39961" lon="5.77456">
        <ele>706.55</ele>
        <time>2019-05-08T09:28:00Z</time>
      </trkpt>
      <trkpt lat="46.39962" lon="5.77457">
        <ele>706.56</ele>
        <time>2019-05-08T09:28:01Z</time>
      </trkpt>
      <trkpt lat="46.39967" lon="5.77476">
        <ele>703.47</ele>
        <time>2019-05-08T09:28:13Z</time>
      </trkpt>
      <trkpt lat="46.39971" lon="5.77495">
        <ele>700.39</ele>
        <time>2019-05-08T09:28:28Z</time>
      </trkpt>
      <trkpt lat="46.39968" lon="5.77506">
        <ele>697.55</ele>
        <time>2019-05-08T09:28:37Z</time>
      </trkpt>
      <trkpt lat="46.39967" lon="5.77508">
        <ele>697.57</ele>
        <time>2019-05-08T09:28:38Z</time>
      </trkpt>
      <trkpt lat="46.39966" lon="5.7751">
        <ele>697.62</ele>
        <time>2019-05-08T09:28:39Z</time>
      </trkpt>
      <trkpt lat="46.39965" lon="5.77514">
        <ele>696.62</ele>
        <time>2019-05-08T09:28:41Z</time>
      </trkpt>
      <trkpt lat="46.39965" lon="5.77516">
        <ele>696.66</ele>
        <time>2019-05-08T09:28:42Z</time>
      </trkpt>
      <trkpt lat="46.39966" lon="5.77523">
        <ele>695.73</ele>
        <time>2019-05-08T09:28:48Z</time>
      </trkpt>
      <trkpt lat="46.39968" lon="5.77529">
        <ele>692.7</ele>
        <time>2019-05-08T09:28:55Z</time>
      </trkpt>
      <trkpt lat="46.3997" lon="5.77551">
        <ele>689.92</ele>
        <time>2019-05-08T09:29:11Z</time>
      </trkpt>
      <trkpt lat="46.39971" lon="5.77563">
        <ele>687.58</ele>
        <time>2019-05-08T09:29:26Z</time>
      </trkpt>
      <trkpt lat="46.39968" lon="5.77586">
        <ele>684.27</ele>
        <time>2019-05-08T09:29:41Z</time>
      </trkpt>
      <trkpt lat="46.39964" lon="5.77607">
        <ele>681.83</ele>
        <time>2019-05-08T09:29:58Z</time>
      </trkpt>
      <trkpt lat="46.39968" lon="5.77654">
        <ele>678.7</ele>
        <time>2019-05-08T09:30:13Z</time>
      </trkpt>
      <trkpt lat="46.39968" lon="5.77657">
        <ele>678.72</ele>
        <time>2019-05-08T09:30:14Z</time>
      </trkpt>
      <trkpt lat="46.39969" lon="5.77667">
        <ele>677.92</ele>
        <time>2019-05-08T09:30:19Z</time>
      </trkpt>
      <trkpt lat="46.39975" lon="5.77684">
        <ele>675.47</ele>
        <time>2019-05-08T09:30:30Z</time>
      </trkpt>
      <trkpt lat="46.39979" lon="5.77699">
        <ele>675.5</ele>
        <time>2019-05-08T09:30:35Z</time>
      </trkpt>
      <trkpt lat="46.39978" lon="5.77738">
        <ele>673</ele>
        <time>2019-05-08T09:30:46Z</time>
      </trkpt>
      <trkpt lat="46.39978" lon="5.77778">
        <ele>669.87</ele>
        <time>2019-05-08T09:31:01Z</time>
      </trkpt>
      <trkpt lat="46.39972" lon="5.77812">
        <ele>667.28</ele>
        <time>2019-05-08T09:31:15Z</time>
      </trkpt>
      <trkpt lat="46.39974" lon="5.77816">
        <ele>665.57</ele>
        <time>2019-05-08T09:31:18Z</time>
      </trkpt>
      <trkpt lat="46.39977" lon="5.77847">
        <ele>663.41</ele>
        <time>2019-05-08T09:31:33Z</time>
      </trkpt>
      <trkpt lat="46.39976" lon="5.77877">
        <ele>659.89</ele>
        <time>2019-05-08T09:31:47Z</time>
      </trkpt>
      <trkpt lat="46.3997" lon="5.77895">
        <ele>657.95</ele>
        <time>2019-05-08T09:31:55Z</time>
      </trkpt>
      <trkpt lat="46.39956" lon="5.77899">
        <ele>654.77</ele>
        <time>2019-05-08T09:32:07Z</time>
      </trkpt>
      <trkpt lat="46.39956" lon="5.77899">
        <ele>654.91</ele>
        <time>2019-05-08T09:32:15Z</time>
      </trkpt>
      <trkpt lat="46.39951" lon="5.77897">
        <ele>655</ele>
        <time>2019-05-08T09:32:19Z</time>
      </trkpt>
      <trkpt lat="46.3993" lon="5.77908">
        <ele>651.61</ele>
        <time>2019-05-08T09:32:35Z</time>
      </trkpt>
      <trkpt lat="46.39917" lon="5.77927">
        <ele>649.39</ele>
        <time>2019-05-08T09:32:48Z</time>
      </trkpt>
      <trkpt lat="46.39914" lon="5.77947">
        <ele>646.77</ele>
        <time>2019-05-08T09:33:02Z</time>
      </trkpt>
      <trkpt lat="46.39914" lon="5.77959">
        <ele>646.01</ele>
        <time>2019-05-08T09:33:07Z</time>
      </trkpt>
      <trkpt lat="46.39911" lon="5.77986">
        <ele>642.58</ele>
        <time>2019-05-08T09:33:22Z</time>
      </trkpt>
      <trkpt lat="46.39904" lon="5.78009">
        <ele>640.17</ele>
        <time>2019-05-08T09:33:38Z</time>
      </trkpt>
      <trkpt lat="46.39903" lon="5.78012">
        <ele>639.32</ele>
        <time>2019-05-08T09:33:39Z</time>
      </trkpt>
      <trkpt lat="46.39902" lon="5.78022">
        <ele>639.34</ele>
        <time>2019-05-08T09:33:42Z</time>
      </trkpt>
      <trkpt lat="46.39893" lon="5.78049">
        <ele>635.78</ele>
        <time>2019-05-08T09:33:57Z</time>
      </trkpt>
      <trkpt lat="46.39891" lon="5.78058">
        <ele>632.36</ele>
        <time>2019-05-08T09:34:08Z</time>
      </trkpt>
      <trkpt lat="46.39887" lon="5.78063">
        <ele>630.48</ele>
        <time>2019-05-08T09:34:14Z</time>
      </trkpt>
      <trkpt lat="46.39878" lon="5.78074">
        <ele>626.59</ele>
        <time>2019-05-08T09:34:23Z</time>
      </trkpt>
      <trkpt lat="46.39861" lon="5.78067">
        <ele>624.21</ele>
        <time>2019-05-08T09:34:36Z</time>
      </trkpt>
      <trkpt lat="46.3985" lon="5.7806">
        <ele>623.57</ele>
        <time>2019-05-08T09:34:43Z</time>
      </trkpt>
      <trkpt lat="46.39846" lon="5.78059">
        <ele>622.74</ele>
        <time>2019-05-08T09:34:46Z</time>
      </trkpt>
      <trkpt lat="46.39855" lon="5.78084">
        <ele>620.53</ele>
        <time>2019-05-08T09:35:01Z</time>
      </trkpt>
      <trkpt lat="46.39866" lon="5.7811">
        <ele>619.04</ele>
        <time>2019-05-08T09:35:14Z</time>
      </trkpt>
      <trkpt lat="46.39878" lon="5.78134">
        <ele>616.68</ele>
        <time>2019-05-08T09:35:28Z</time>
      </trkpt>
      <trkpt lat="46.39885" lon="5.78143">
        <ele>616.05</ele>
        <time>2019-05-08T09:35:34Z</time>
      </trkpt>
      <trkpt lat="46.39902" lon="5.78164">
        <ele>614.71</ele>
        <time>2019-05-08T09:35:49Z</time>
      </trkpt>
      <trkpt lat="46.39923" lon="5.78193">
        <ele>612.37</ele>
        <time>2019-05-08T09:36:04Z</time>
      </trkpt>
      <trkpt lat="46.39944" lon="5.78228">
        <ele>610.05</ele>
        <time>2019-05-08T09:36:20Z</time>
      </trkpt>
      <trkpt lat="46.39962" lon="5.78263">
        <ele>607.72</ele>
        <time>2019-05-08T09:36:37Z</time>
      </trkpt>
      <trkpt lat="46.39978" lon="5.78296">
        <ele>606.19</ele>
        <time>2019-05-08T09:36:52Z</time>
      </trkpt>
      <trkpt lat="46.39983" lon="5.78308">
        <ele>605.5</ele>
        <time>2019-05-08T09:36:57Z</time>
      </trkpt>
      <trkpt lat="46.4" lon="5.7833">
        <ele>603.09</ele>
        <time>2019-05-08T09:37:12Z</time>
      </trkpt>
      <trkpt lat="46.40007" lon="5.78341">
        <ele>602.38</ele>
        <time>2019-05-08T09:37:19Z</time>
      </trkpt>
      <trkpt lat="46.40023" lon="5.78369">
        <ele>600.17</ele>
        <time>2019-05-08T09:37:34Z</time>
      </trkpt>
      <trkpt lat="46.40024" lon="5.78372">
        <ele>600.21</ele>
        <time>2019-05-08T09:37:36Z</time>
      </trkpt>
      <trkpt lat="46.40037" lon="5.78391">
        <ele>598.76</ele>
        <time>2019-05-08T09:37:47Z</time>
      </trkpt>
      <trkpt lat="46.40053" lon="5.78415">
        <ele>596.98</ele>
        <time>2019-05-08T09:38:01Z</time>
      </trkpt>
      <trkpt lat="46.40069" lon="5.78441">
        <ele>595.46</ele>
        <time>2019-05-08T09:38:16Z</time>
      </trkpt>
      <trkpt lat="46.40085" lon="5.78472">
        <ele>594.01</ele>
        <time>2019-05-08T09:38:31Z</time>
      </trkpt>
      <trkpt lat="46.401" lon="5.78501">
        <ele>592.56</ele>
        <time>2019-05-08T09:38:45Z</time>
      </trkpt>
      <trkpt lat="46.40112" lon="5.78523">
        <ele>592.1</ele>
        <time>2019-05-08T09:39:00Z</time>
      </trkpt>
      <trkpt lat="46.40119" lon="5.78538">
        <ele>591.49</ele>
        <time>2019-05-08T09:39:12Z</time>
      </trkpt>
      <trkpt lat="46.40131" lon="5.78555">
        <ele>589.68</ele>
        <time>2019-05-08T09:39:28Z</time>
      </trkpt>
      <trkpt lat="46.4014" lon="5.78582">
        <ele>586.15</ele>
        <time>2019-05-08T09:39:43Z</time>
      </trkpt>
      <trkpt lat="46.40151" lon="5.78605">
        <ele>582.99</ele>
        <time>2019-05-08T09:39:56Z</time>
      </trkpt>
      <trkpt lat="46.40158" lon="5.7862">
        <ele>581.42</ele>
        <time>2019-05-08T09:40:04Z</time>
      </trkpt>
      <trkpt lat="46.40172" lon="5.78643">
        <ele>580.87</ele>
        <time>2019-05-08T09:40:17Z</time>
      </trkpt>
      <trkpt lat="46.40184" lon="5.78674">
        <ele>577.64</ele>
        <time>2019-05-08T09:40:34Z</time>
      </trkpt>
      <trkpt lat="46.40194" lon="5.78695">
        <ele>577.79</ele>
        <time>2019-05-08T09:40:45Z</time>
      </trkpt>
      <trkpt lat="46.40197" lon="5.78702">
        <ele>577.02</ele>
        <time>2019-05-08T09:40:49Z</time>
      </trkpt>
      <trkpt lat="46.40207" lon="5.78726">
        <ele>575.53</ele>
        <time>2019-05-08T09:41:03Z</time>
      </trkpt>
      <trkpt lat="46.40224" lon="5.78749">
        <ele>574.15</ele>
        <time>2019-05-08T09:41:19Z</time>
      </trkpt>
      <trkpt lat="46.40229" lon="5.78756">
        <ele>573.37</ele>
        <time>2019-05-08T09:41:23Z</time>
      </trkpt>
      <trkpt lat="46.40233" lon="5.78761">
        <ele>572.33</ele>
        <time>2019-05-08T09:41:26Z</time>
      </trkpt>
      <trkpt lat="46.40247" lon="5.78776">
        <ele>572.41</ele>
        <time>2019-05-08T09:41:37Z</time>
      </trkpt>
      <trkpt lat="46.4025" lon="5.78788">
        <ele>571.51</ele>
        <time>2019-05-08T09:41:41Z</time>
      </trkpt>
      <trkpt lat="46.40263" lon="5.78812">
        <ele>570.48</ele>
        <time>2019-05-08T09:41:54Z</time>
      </trkpt>
      <trkpt lat="46.40266" lon="5.78815">
        <ele>570.5</ele>
        <time>2019-05-08T09:41:57Z</time>
      </trkpt>
      <trkpt lat="46.40282" lon="5.7884">
        <ele>570.53</ele>
        <time>2019-05-08T09:42:11Z</time>
      </trkpt>
      <trkpt lat="46.40291" lon="5.78853">
        <ele>570.6</ele>
        <time>2019-05-08T09:42:22Z</time>
      </trkpt>
      <trkpt lat="46.40295" lon="5.78861">
        <ele>569.74</ele>
        <time>2019-05-08T09:42:26Z</time>
      </trkpt>
      <trkpt lat="46.403" lon="5.78872">
        <ele>569.78</ele>
        <time>2019-05-08T09:42:32Z</time>
      </trkpt>
      <trkpt lat="46.40302" lon="5.78873">
        <ele>569.8</ele>
        <time>2019-05-08T09:42:34Z</time>
      </trkpt>
      <trkpt lat="46.40314" lon="5.78882">
        <ele>569.08</ele>
        <time>2019-05-08T09:42:43Z</time>
      </trkpt>
      <trkpt lat="46.40322" lon="5.78896">
        <ele>569.14</ele>
        <time>2019-05-08T09:42:50Z</time>
      </trkpt>
      <trkpt lat="46.40328" lon="5.78899">
        <ele>569.19</ele>
        <time>2019-05-08T09:42:56Z</time>
      </trkpt>
      <trkpt lat="46.40337" lon="5.78916">
        <ele>569.31</ele>
        <time>2019-05-08T09:43:12Z</time>
      </trkpt>
      <trkpt lat="46.40345" lon="5.78935">
        <ele>569.42</ele>
        <time>2019-05-08T09:43:28Z</time>
      </trkpt>
      <trkpt lat="46.40342" lon="5.78966">
        <ele>569.5</ele>
        <time>2019-05-08T09:43:45Z</time>
      </trkpt>
      <trkpt lat="46.40327" lon="5.78996">
        <ele>569.69</ele>
        <time>2019-05-08T09:44:04Z</time>
      </trkpt>
      <trkpt lat="46.40315" lon="5.79024">
        <ele>569.84</ele>
        <time>2019-05-08T09:44:20Z</time>
      </trkpt>
      <trkpt lat="46.40303" lon="5.79047">
        <ele>570.01</ele>
        <time>2019-05-08T09:44:36Z</time>
      </trkpt>
      <trkpt lat="46.40302" lon="5.79053">
        <ele>570.06</ele>
        <time>2019-05-08T09:44:40Z</time>
      </trkpt>
      <trkpt lat="46.4031" lon="5.79078">
        <ele>570.23</ele>
        <time>2019-05-08T09:44:57Z</time>
      </trkpt>
      <trkpt lat="46.40316" lon="5.79087">
        <ele>572.71</ele>
        <time>2019-05-08T09:45:03Z</time>
      </trkpt>
      <trkpt lat="46.4033" lon="5.79121">
        <ele>572.9</ele>
        <time>2019-05-08T09:45:20Z</time>
      </trkpt>
      <trkpt lat="46.40347" lon="5.79142">
        <ele>573.12</ele>
        <time>2019-05-08T09:45:35Z</time>
      </trkpt>
      <trkpt lat="46.40368" lon="5.79165">
        <ele>571.12</ele>
        <time>2019-05-08T09:45:51Z</time>
      </trkpt>
      <trkpt lat="46.40392" lon="5.79198">
        <ele>571.49</ele>
        <time>2019-05-08T09:46:11Z</time>
      </trkpt>
      <trkpt lat="46.40417" lon="5.79229">
        <ele>571.1</ele>
        <time>2019-05-08T09:46:30Z</time>
      </trkpt>
      <trkpt lat="46.40435" lon="5.79259">
        <ele>570.58</ele>
        <time>2019-05-08T09:46:47Z</time>
      </trkpt>
      <trkpt lat="46.40443" lon="5.79274">
        <ele>570.81</ele>
        <time>2019-05-08T09:47:00Z</time>
      </trkpt>
      <trkpt lat="46.40451" lon="5.79296">
        <ele>570.23</ele>
        <time>2019-05-08T09:47:14Z</time>
      </trkpt>
      <trkpt lat="46.40455" lon="5.79304">
        <ele>569.5</ele>
        <time>2019-05-08T09:47:20Z</time>
      </trkpt>
      <trkpt lat="46.40479" lon="5.79333">
        <ele>568.88</ele>
        <time>2019-05-08T09:47:37Z</time>
      </trkpt>
      <trkpt lat="46.40484" lon="5.79347">
        <ele>567.95</ele>
        <time>2019-05-08T09:47:44Z</time>
      </trkpt>
      <trkpt lat="46.40494" lon="5.7936">
        <ele>568.01</ele>
        <time>2019-05-08T09:47:50Z</time>
      </trkpt>
      <trkpt lat="46.40512" lon="5.79389">
        <ele>567.44</ele>
        <time>2019-05-08T09:48:05Z</time>
      </trkpt>
      <trkpt lat="46.40516" lon="5.79391">
        <ele>567.48</ele>
        <time>2019-05-08T09:48:07Z</time>
      </trkpt>
      <trkpt lat="46.4052" lon="5.79397">
        <ele>567.54</ele>
        <time>2019-05-08T09:48:11Z</time>
      </trkpt>
      <trkpt lat="46.40536" lon="5.79429">
        <ele>567.78</ele>
        <time>2019-05-08T09:48:27Z</time>
      </trkpt>
      <trkpt lat="46.40545" lon="5.79464">
        <ele>566.44</ele>
        <time>2019-05-08T09:48:44Z</time>
      </trkpt>
      <trkpt lat="46.4054" lon="5.79508">
        <ele>565.84</ele>
        <time>2019-05-08T09:49:02Z</time>
      </trkpt>
      <trkpt lat="46.40532" lon="5.79545">
        <ele>565.35</ele>
        <time>2019-05-08T09:49:18Z</time>
      </trkpt>
      <trkpt lat="46.40534" lon="5.79554">
        <ele>565.43</ele>
        <time>2019-05-08T09:49:23Z</time>
      </trkpt>
      <trkpt lat="46.40539" lon="5.79558">
        <ele>565.52</ele>
        <time>2019-05-08T09:49:29Z</time>
      </trkpt>
      <trkpt lat="46.4056" lon="5.79586">
        <ele>564.83</ele>
        <time>2019-05-08T09:49:48Z</time>
      </trkpt>
      <trkpt lat="46.40582" lon="5.79607">
        <ele>564.22</ele>
        <time>2019-05-08T09:50:04Z</time>
      </trkpt>
      <trkpt lat="46.40593" lon="5.79604">
        <ele>563.32</ele>
        <time>2019-05-08T09:50:31Z</time>
      </trkpt>
      <trkpt lat="46.40591" lon="5.7961">
        <ele>563.33</ele>
        <time>2019-05-08T09:50:35Z</time>
      </trkpt>
      <trkpt lat="46.4059" lon="5.79615">
        <ele>518.4</ele>
        <time>2019-05-08T09:50:41Z</time>
      </trkpt>
    </trkseg>
  </trk>
</gpx>